<?xml version="1.0" encoding="UTF-8" standalone="no" ?>
<gpx xmlns="http://www.topografix.com/GPX/1/1" xmlns:xsi="http://www.w3.org/2001/XMLSchema-instance" xsi:schemaLocation="http://www.topografix.com/GPX/1/1 http://www.topografix.com/GPX/1/1/gpx.xsd" version="1.1" creator="VisuGPX - https://www.visugpx.com">
  <metadata>
    <name>J1 Nimes &gt; Saint-Gély</name>
    <desc><![CDATA[



]]></desc>
  </metadata>
  <trk>
    <name><![CDATA[J1 Nimes > Saint-Gély]]></name>
    <desc><![CDATA[

]]></desc>
    <extensions>
      <line xmlns="http://www.topografix.com/GPX/gpx_style/0/2">
        <color>00ff2a</color>
        <width>4</width>
          <extensions>
            <sens>1</sens>
          </extensions>
      </line>
    </extensions>
    <trkseg>
      <trkpt lat="43.83172" lon="4.34503">
        <ele>70.42</ele>
        <time>2024-08-26T10:26:30.000Z</time>
      </trkpt>
      <trkpt lat="43.83173" lon="4.34493">
        <ele>70.46</ele>
        <time>2024-08-26T10:26:30.001Z</time>
      </trkpt>
      <trkpt lat="43.83176" lon="4.34469">
        <ele>70.42</ele>
        <time>2024-08-26T10:26:30.005Z</time>
      </trkpt>
      <trkpt lat="43.83176" lon="4.34452">
        <ele>70.41</ele>
        <time>2024-08-26T10:26:30.011Z</time>
      </trkpt>
      <trkpt lat="43.83154" lon="4.34386">
        <ele>70.35</ele>
        <time>2024-08-26T10:26:30.025Z</time>
      </trkpt>
      <trkpt lat="43.83148" lon="4.34356">
        <ele>70.9</ele>
        <time>2024-08-26T10:26:30.043Z</time>
      </trkpt>
      <trkpt lat="43.83148" lon="4.34356">
        <ele>71.22</ele>
        <time>2024-08-26T10:26:30.061Z</time>
      </trkpt>
      <trkpt lat="43.83136" lon="4.34302">
        <ele>72.25</ele>
        <time>2024-08-26T10:26:30.086Z</time>
      </trkpt>
      <trkpt lat="43.83124" lon="4.34263">
        <ele>72.12</ele>
        <time>2024-08-26T10:26:30.115Z</time>
      </trkpt>
      <trkpt lat="43.83121" lon="4.34246">
        <ele>71.8</ele>
        <time>2024-08-26T10:26:30.146Z</time>
      </trkpt>
      <trkpt lat="43.83117" lon="4.3423">
        <ele>71.4</ele>
        <time>2024-08-26T10:26:30.179Z</time>
      </trkpt>
      <trkpt lat="43.8312" lon="4.34154">
        <ele>70.84</ele>
        <time>2024-08-26T10:26:30.221Z</time>
      </trkpt>
      <trkpt lat="43.83118" lon="4.3414">
        <ele>70.39</ele>
        <time>2024-08-26T10:26:30.265Z</time>
      </trkpt>
      <trkpt lat="43.83113" lon="4.3413">
        <ele>69.79</ele>
        <time>2024-08-26T10:26:30.310Z</time>
      </trkpt>
      <trkpt lat="43.83104" lon="4.34123">
        <ele>69.11</ele>
        <time>2024-08-26T10:26:30.357Z</time>
      </trkpt>
      <trkpt lat="43.8308" lon="4.34117">
        <ele>68.4</ele>
        <time>2024-08-26T10:26:30.408Z</time>
      </trkpt>
      <trkpt lat="43.83074" lon="4.34116">
        <ele>65.39</ele>
        <time>2024-08-26T10:26:30.460Z</time>
      </trkpt>
      <trkpt lat="43.83061" lon="4.34111">
        <ele>65.06</ele>
        <time>2024-08-26T10:26:30.514Z</time>
      </trkpt>
      <trkpt lat="43.83057" lon="4.34096">
        <ele>64.72</ele>
        <time>2024-08-26T10:26:30.570Z</time>
      </trkpt>
      <trkpt lat="43.83056" lon="4.34084">
        <ele>64.6</ele>
        <time>2024-08-26T10:26:30.627Z</time>
      </trkpt>
      <trkpt lat="43.83059" lon="4.34077">
        <ele>64.89</ele>
        <time>2024-08-26T10:26:30.685Z</time>
      </trkpt>
      <trkpt lat="43.8307" lon="4.34033">
        <ele>65.66</ele>
        <time>2024-08-26T10:26:30.749Z</time>
      </trkpt>
      <trkpt lat="43.83061" lon="4.34017">
        <ele>66.93</ele>
        <time>2024-08-26T10:26:30.815Z</time>
      </trkpt>
      <trkpt lat="43.83011" lon="4.33885">
        <ele>69.76</ele>
        <time>2024-08-26T10:26:30.898Z</time>
      </trkpt>
      <trkpt lat="43.8301" lon="4.33882">
        <ele>70.92</ele>
        <time>2024-08-26T10:26:30.982Z</time>
      </trkpt>
      <trkpt lat="43.8301" lon="4.33882">
        <ele>76.24</ele>
        <time>2024-08-26T10:26:31.066Z</time>
      </trkpt>
      <trkpt lat="43.83007" lon="4.33876">
        <ele>77.42</ele>
        <time>2024-08-26T10:26:31.150Z</time>
      </trkpt>
      <trkpt lat="43.83004" lon="4.33869">
        <ele>78.82</ele>
        <time>2024-08-26T10:26:31.235Z</time>
      </trkpt>
      <trkpt lat="43.82985" lon="4.33824">
        <ele>81</ele>
        <time>2024-08-26T10:26:31.326Z</time>
      </trkpt>
      <trkpt lat="43.82972" lon="4.3381">
        <ele>82.91</ele>
        <time>2024-08-26T10:26:31.420Z</time>
      </trkpt>
      <trkpt lat="43.82953" lon="4.33801">
        <ele>84.91</ele>
        <time>2024-08-26T10:26:31.517Z</time>
      </trkpt>
      <trkpt lat="43.8294" lon="4.33795">
        <ele>86.35</ele>
        <time>2024-08-26T10:26:31.616Z</time>
      </trkpt>
      <trkpt lat="43.82933" lon="4.33789">
        <ele>87.32</ele>
        <time>2024-08-26T10:26:31.717Z</time>
      </trkpt>
      <trkpt lat="43.82924" lon="4.33775">
        <ele>87.9</ele>
        <time>2024-08-26T10:26:31.820Z</time>
      </trkpt>
      <trkpt lat="43.82894" lon="4.3373">
        <ele>88.05</ele>
        <time>2024-08-26T10:26:31.930Z</time>
      </trkpt>
      <trkpt lat="43.82874" lon="4.337">
        <ele>87.97</ele>
        <time>2024-08-26T10:26:32.045Z</time>
      </trkpt>
      <trkpt lat="43.82867" lon="4.33686">
        <ele>87.63</ele>
        <time>2024-08-26T10:26:32.162Z</time>
      </trkpt>
      <trkpt lat="43.82864" lon="4.33683">
        <ele>87.17</ele>
        <time>2024-08-26T10:26:32.279Z</time>
      </trkpt>
      <trkpt lat="43.82859" lon="4.33684">
        <ele>86.6</ele>
        <time>2024-08-26T10:26:32.397Z</time>
      </trkpt>
      <trkpt lat="43.82858" lon="4.33682">
        <ele>85.99</ele>
        <time>2024-08-26T10:26:32.515Z</time>
      </trkpt>
      <trkpt lat="43.82857" lon="4.33669">
        <ele>85.23</ele>
        <time>2024-08-26T10:26:32.635Z</time>
      </trkpt>
      <trkpt lat="43.82856" lon="4.33659">
        <ele>84.47</ele>
        <time>2024-08-26T10:26:32.756Z</time>
      </trkpt>
      <trkpt lat="43.82853" lon="4.33652">
        <ele>83.76</ele>
        <time>2024-08-26T10:26:32.878Z</time>
      </trkpt>
      <trkpt lat="43.82852" lon="4.33647">
        <ele>83.11</ele>
        <time>2024-08-26T10:26:33.001Z</time>
      </trkpt>
      <trkpt lat="43.82847" lon="4.33615">
        <ele>82.41</ele>
        <time>2024-08-26T10:26:33.127Z</time>
      </trkpt>
      <trkpt lat="43.82842" lon="4.33589">
        <ele>82.54</ele>
        <time>2024-08-26T10:26:33.256Z</time>
      </trkpt>
      <trkpt lat="43.82838" lon="4.33579">
        <ele>82.63</ele>
        <time>2024-08-26T10:26:33.387Z</time>
      </trkpt>
      <trkpt lat="43.82844" lon="4.33572">
        <ele>82.72</ele>
        <time>2024-08-26T10:26:33.519Z</time>
      </trkpt>
      <trkpt lat="43.8286" lon="4.3358">
        <ele>82.74</ele>
        <time>2024-08-26T10:26:33.654Z</time>
      </trkpt>
      <trkpt lat="43.82865" lon="4.33582">
        <ele>82.58</ele>
        <time>2024-08-26T10:26:33.790Z</time>
      </trkpt>
      <trkpt lat="43.82868" lon="4.33575">
        <ele>82.23</ele>
        <time>2024-08-26T10:26:33.927Z</time>
      </trkpt>
      <trkpt lat="43.82873" lon="4.33565">
        <ele>81.6</ele>
        <time>2024-08-26T10:26:34.065Z</time>
      </trkpt>
      <trkpt lat="43.82869" lon="4.3356">
        <ele>80.54</ele>
        <time>2024-08-26T10:26:34.204Z</time>
      </trkpt>
      <trkpt lat="43.82851" lon="4.33538">
        <ele>79.13</ele>
        <time>2024-08-26T10:26:34.347Z</time>
      </trkpt>
      <trkpt lat="43.82805" lon="4.33479">
        <ele>77.43</ele>
        <time>2024-08-26T10:26:34.500Z</time>
      </trkpt>
      <trkpt lat="43.82696" lon="4.33301">
        <ele>73.46</ele>
        <time>2024-08-26T10:26:34.680Z</time>
      </trkpt>
      <trkpt lat="43.82678" lon="4.33279">
        <ele>72.01</ele>
        <time>2024-08-26T10:26:34.864Z</time>
      </trkpt>
      <trkpt lat="43.82665" lon="4.33264">
        <ele>69.8</ele>
        <time>2024-08-26T10:26:35.050Z</time>
      </trkpt>
      <trkpt lat="43.82639" lon="4.33239">
        <ele>70.42</ele>
        <time>2024-08-26T10:26:35.241Z</time>
      </trkpt>
      <trkpt lat="43.82639" lon="4.33239">
        <ele>70.72</ele>
        <time>2024-08-26T10:26:35.432Z</time>
      </trkpt>
      <trkpt lat="43.82632" lon="4.33233">
        <ele>70.85</ele>
        <time>2024-08-26T10:26:35.625Z</time>
      </trkpt>
      <trkpt lat="43.82626" lon="4.33227">
        <ele>70.85</ele>
        <time>2024-08-26T10:26:35.819Z</time>
      </trkpt>
      <trkpt lat="43.82626" lon="4.33227">
        <ele>70.67</ele>
        <time>2024-08-26T10:26:36.013Z</time>
      </trkpt>
      <trkpt lat="43.82618" lon="4.33221">
        <ele>70.35</ele>
        <time>2024-08-26T10:26:36.208Z</time>
      </trkpt>
      <trkpt lat="43.82613" lon="4.33215">
        <ele>69.83</ele>
        <time>2024-08-26T10:26:36.405Z</time>
      </trkpt>
      <trkpt lat="43.82613" lon="4.33215">
        <ele>69.09</ele>
        <time>2024-08-26T10:26:36.602Z</time>
      </trkpt>
      <trkpt lat="43.82584" lon="4.3317">
        <ele>67.69</ele>
        <time>2024-08-26T10:26:36.806Z</time>
      </trkpt>
      <trkpt lat="43.82539" lon="4.33093">
        <ele>66.51</ele>
        <time>2024-08-26T10:26:37.021Z</time>
      </trkpt>
      <trkpt lat="43.82524" lon="4.33074">
        <ele>65.09</ele>
        <time>2024-08-26T10:26:37.239Z</time>
      </trkpt>
      <trkpt lat="43.82494" lon="4.33033">
        <ele>63.34</ele>
        <time>2024-08-26T10:26:37.464Z</time>
      </trkpt>
      <trkpt lat="43.82473" lon="4.33006">
        <ele>61.95</ele>
        <time>2024-08-26T10:26:37.694Z</time>
      </trkpt>
      <trkpt lat="43.82468" lon="4.32999">
        <ele>60.88</ele>
        <time>2024-08-26T10:26:37.925Z</time>
      </trkpt>
      <trkpt lat="43.82468" lon="4.32999">
        <ele>59.97</ele>
        <time>2024-08-26T10:26:38.156Z</time>
      </trkpt>
      <trkpt lat="43.82452" lon="4.32976">
        <ele>59.01</ele>
        <time>2024-08-26T10:26:38.390Z</time>
      </trkpt>
      <trkpt lat="43.82436" lon="4.32952">
        <ele>58.15</ele>
        <time>2024-08-26T10:26:38.628Z</time>
      </trkpt>
      <trkpt lat="43.82436" lon="4.32952">
        <ele>57.13</ele>
        <time>2024-08-26T10:26:38.866Z</time>
      </trkpt>
      <trkpt lat="43.82408" lon="4.32906">
        <ele>56.86</ele>
        <time>2024-08-26T10:26:39.111Z</time>
      </trkpt>
      <trkpt lat="43.82396" lon="4.32881">
        <ele>56.72</ele>
        <time>2024-08-26T10:26:39.360Z</time>
      </trkpt>
      <trkpt lat="43.82388" lon="4.32858">
        <ele>56.54</ele>
        <time>2024-08-26T10:26:39.612Z</time>
      </trkpt>
      <trkpt lat="43.82381" lon="4.32831">
        <ele>56.26</ele>
        <time>2024-08-26T10:26:39.867Z</time>
      </trkpt>
      <trkpt lat="43.82381" lon="4.32829">
        <ele>56.17</ele>
        <time>2024-08-26T10:26:40.122Z</time>
      </trkpt>
      <trkpt lat="43.82388" lon="4.32824">
        <ele>56.31</ele>
        <time>2024-08-26T10:26:40.378Z</time>
      </trkpt>
      <trkpt lat="43.82387" lon="4.32816">
        <ele>56.41</ele>
        <time>2024-08-26T10:26:40.635Z</time>
      </trkpt>
      <trkpt lat="43.82388" lon="4.328">
        <ele>56.65</ele>
        <time>2024-08-26T10:26:40.894Z</time>
      </trkpt>
      <trkpt lat="43.82393" lon="4.32789">
        <ele>57.01</ele>
        <time>2024-08-26T10:26:41.155Z</time>
      </trkpt>
      <trkpt lat="43.82388" lon="4.3278">
        <ele>57.25</ele>
        <time>2024-08-26T10:26:41.417Z</time>
      </trkpt>
      <trkpt lat="43.82378" lon="4.32753">
        <ele>57.56</ele>
        <time>2024-08-26T10:26:41.683Z</time>
      </trkpt>
      <trkpt lat="43.82373" lon="4.32741">
        <ele>57.73</ele>
        <time>2024-08-26T10:26:41.950Z</time>
      </trkpt>
      <trkpt lat="43.82359" lon="4.32741">
        <ele>57.66</ele>
        <time>2024-08-26T10:26:42.219Z</time>
      </trkpt>
      <trkpt lat="43.8235" lon="4.32734">
        <ele>57.56</ele>
        <time>2024-08-26T10:26:42.490Z</time>
      </trkpt>
      <trkpt lat="43.82349" lon="4.32733">
        <ele>57.5</ele>
        <time>2024-08-26T10:26:42.761Z</time>
      </trkpt>
      <trkpt lat="43.82336" lon="4.32713">
        <ele>57.45</ele>
        <time>2024-08-26T10:26:43.035Z</time>
      </trkpt>
      <trkpt lat="43.8233" lon="4.32699">
        <ele>57.46</ele>
        <time>2024-08-26T10:26:43.311Z</time>
      </trkpt>
      <trkpt lat="43.82325" lon="4.32691">
        <ele>57.45</ele>
        <time>2024-08-26T10:26:43.588Z</time>
      </trkpt>
      <trkpt lat="43.82311" lon="4.32691">
        <ele>57.41</ele>
        <time>2024-08-26T10:26:43.868Z</time>
      </trkpt>
      <trkpt lat="43.82281" lon="4.32639">
        <ele>57.82</ele>
        <time>2024-08-26T10:26:44.155Z</time>
      </trkpt>
      <trkpt lat="43.82214" lon="4.32534">
        <ele>57.44</ele>
        <time>2024-08-26T10:26:44.459Z</time>
      </trkpt>
      <trkpt lat="43.82175" lon="4.32468">
        <ele>57.02</ele>
        <time>2024-08-26T10:26:44.772Z</time>
      </trkpt>
      <trkpt lat="43.82103" lon="4.32311">
        <ele>57.37</ele>
        <time>2024-08-26T10:26:45.107Z</time>
      </trkpt>
      <trkpt lat="43.82067" lon="4.32239">
        <ele>57.86</ele>
        <time>2024-08-26T10:26:45.452Z</time>
      </trkpt>
      <trkpt lat="43.82053" lon="4.32194">
        <ele>57.92</ele>
        <time>2024-08-26T10:26:45.803Z</time>
      </trkpt>
      <trkpt lat="43.82031" lon="4.32107">
        <ele>57.5</ele>
        <time>2024-08-26T10:26:46.164Z</time>
      </trkpt>
      <trkpt lat="43.8203" lon="4.32091">
        <ele>57.59</ele>
        <time>2024-08-26T10:26:46.527Z</time>
      </trkpt>
      <trkpt lat="43.82033" lon="4.32081">
        <ele>57.77</ele>
        <time>2024-08-26T10:26:46.892Z</time>
      </trkpt>
      <trkpt lat="43.82039" lon="4.3207">
        <ele>57.97</ele>
        <time>2024-08-26T10:26:47.258Z</time>
      </trkpt>
      <trkpt lat="43.82046" lon="4.32069">
        <ele>58.18</ele>
        <time>2024-08-26T10:26:47.625Z</time>
      </trkpt>
      <trkpt lat="43.82053" lon="4.32064">
        <ele>58.36</ele>
        <time>2024-08-26T10:26:47.994Z</time>
      </trkpt>
      <trkpt lat="43.82058" lon="4.32057">
        <ele>58.46</ele>
        <time>2024-08-26T10:26:48.364Z</time>
      </trkpt>
      <trkpt lat="43.82061" lon="4.32046">
        <ele>58.47</ele>
        <time>2024-08-26T10:26:48.735Z</time>
      </trkpt>
      <trkpt lat="43.82062" lon="4.32033">
        <ele>58.4</ele>
        <time>2024-08-26T10:26:49.108Z</time>
      </trkpt>
      <trkpt lat="43.82059" lon="4.32023">
        <ele>58.15</ele>
        <time>2024-08-26T10:26:49.482Z</time>
      </trkpt>
      <trkpt lat="43.82055" lon="4.32015">
        <ele>57.8</ele>
        <time>2024-08-26T10:26:49.857Z</time>
      </trkpt>
      <trkpt lat="43.82049" lon="4.32011">
        <ele>57.31</ele>
        <time>2024-08-26T10:26:50.233Z</time>
      </trkpt>
      <trkpt lat="43.82042" lon="4.32007">
        <ele>56.71</ele>
        <time>2024-08-26T10:26:50.610Z</time>
      </trkpt>
      <trkpt lat="43.82034" lon="4.32008">
        <ele>56.02</ele>
        <time>2024-08-26T10:26:50.989Z</time>
      </trkpt>
      <trkpt lat="43.82027" lon="4.32013">
        <ele>55.29</ele>
        <time>2024-08-26T10:26:51.369Z</time>
      </trkpt>
      <trkpt lat="43.82019" lon="4.32025">
        <ele>54.52</ele>
        <time>2024-08-26T10:26:51.751Z</time>
      </trkpt>
      <trkpt lat="43.8201" lon="4.32027">
        <ele>53.78</ele>
        <time>2024-08-26T10:26:52.134Z</time>
      </trkpt>
      <trkpt lat="43.81993" lon="4.32032">
        <ele>53.12</ele>
        <time>2024-08-26T10:26:52.520Z</time>
      </trkpt>
      <trkpt lat="43.81986" lon="4.32017">
        <ele>52.7</ele>
        <time>2024-08-26T10:26:52.908Z</time>
      </trkpt>
      <trkpt lat="43.81979" lon="4.32006">
        <ele>52.36</ele>
        <time>2024-08-26T10:26:53.298Z</time>
      </trkpt>
      <trkpt lat="43.81872" lon="4.31861">
        <ele>52.05</ele>
        <time>2024-08-26T10:26:53.712Z</time>
      </trkpt>
      <trkpt lat="43.81799" lon="4.31761">
        <ele>51.59</ele>
        <time>2024-08-26T10:26:54.142Z</time>
      </trkpt>
      <trkpt lat="43.81761" lon="4.31707">
        <ele>51.48</ele>
        <time>2024-08-26T10:26:54.581Z</time>
      </trkpt>
      <trkpt lat="43.81717" lon="4.31646">
        <ele>51.37</ele>
        <time>2024-08-26T10:26:55.030Z</time>
      </trkpt>
      <trkpt lat="43.81703" lon="4.31624">
        <ele>51.27</ele>
        <time>2024-08-26T10:26:55.482Z</time>
      </trkpt>
      <trkpt lat="43.81684" lon="4.31593">
        <ele>51.16</ele>
        <time>2024-08-26T10:26:55.939Z</time>
      </trkpt>
      <trkpt lat="43.81667" lon="4.31569">
        <ele>51.03</ele>
        <time>2024-08-26T10:26:56.400Z</time>
      </trkpt>
      <trkpt lat="43.81609" lon="4.31477">
        <ele>50.83</ele>
        <time>2024-08-26T10:26:56.875Z</time>
      </trkpt>
      <trkpt lat="43.81609" lon="4.31477">
        <ele>50.83</ele>
        <time>2024-08-26T10:26:57.350Z</time>
      </trkpt>
      <trkpt lat="43.81575" lon="4.31396">
        <ele>50.96</ele>
        <time>2024-08-26T10:26:57.836Z</time>
      </trkpt>
      <trkpt lat="43.81579" lon="4.31392">
        <ele>51.04</ele>
        <time>2024-08-26T10:26:58.323Z</time>
      </trkpt>
      <trkpt lat="43.81562" lon="4.31351">
        <ele>51.07</ele>
        <time>2024-08-26T10:26:58.815Z</time>
      </trkpt>
      <trkpt lat="43.81552" lon="4.31329">
        <ele>51.09</ele>
        <time>2024-08-26T10:26:59.310Z</time>
      </trkpt>
      <trkpt lat="43.8154" lon="4.31313">
        <ele>50.96</ele>
        <time>2024-08-26T10:26:59.808Z</time>
      </trkpt>
      <trkpt lat="43.8153" lon="4.31308">
        <ele>50.87</ele>
        <time>2024-08-26T10:27:00.307Z</time>
      </trkpt>
      <trkpt lat="43.81526" lon="4.31295">
        <ele>50.87</ele>
        <time>2024-08-26T10:27:00.808Z</time>
      </trkpt>
      <trkpt lat="43.8152" lon="4.31285">
        <ele>50.88</ele>
        <time>2024-08-26T10:27:01.311Z</time>
      </trkpt>
      <trkpt lat="43.81456" lon="4.3118">
        <ele>51.04</ele>
        <time>2024-08-26T10:27:01.829Z</time>
      </trkpt>
      <trkpt lat="43.81443" lon="4.31159">
        <ele>51.11</ele>
        <time>2024-08-26T10:27:02.351Z</time>
      </trkpt>
      <trkpt lat="43.81416" lon="4.31115">
        <ele>51.3</ele>
        <time>2024-08-26T10:27:02.879Z</time>
      </trkpt>
      <trkpt lat="43.8141" lon="4.31104">
        <ele>51.45</ele>
        <time>2024-08-26T10:27:03.409Z</time>
      </trkpt>
      <trkpt lat="43.814" lon="4.31089">
        <ele>51.61</ele>
        <time>2024-08-26T10:27:03.941Z</time>
      </trkpt>
      <trkpt lat="43.8138" lon="4.31056">
        <ele>51.72</ele>
        <time>2024-08-26T10:27:04.478Z</time>
      </trkpt>
      <trkpt lat="43.81365" lon="4.31029">
        <ele>51.96</ele>
        <time>2024-08-26T10:27:05.019Z</time>
      </trkpt>
      <trkpt lat="43.81363" lon="4.31017">
        <ele>52.23</ele>
        <time>2024-08-26T10:27:05.562Z</time>
      </trkpt>
      <trkpt lat="43.81365" lon="4.30981">
        <ele>52.55</ele>
        <time>2024-08-26T10:27:06.109Z</time>
      </trkpt>
      <trkpt lat="43.81368" lon="4.30958">
        <ele>52.74</ele>
        <time>2024-08-26T10:27:06.659Z</time>
      </trkpt>
      <trkpt lat="43.81354" lon="4.30954">
        <ele>52.57</ele>
        <time>2024-08-26T10:27:07.211Z</time>
      </trkpt>
      <trkpt lat="43.81352" lon="4.30945">
        <ele>52.55</ele>
        <time>2024-08-26T10:27:07.764Z</time>
      </trkpt>
      <trkpt lat="43.81344" lon="4.30937">
        <ele>52.46</ele>
        <time>2024-08-26T10:27:08.318Z</time>
      </trkpt>
      <trkpt lat="43.81343" lon="4.3093">
        <ele>52.45</ele>
        <time>2024-08-26T10:27:08.873Z</time>
      </trkpt>
      <trkpt lat="43.81343" lon="4.30921">
        <ele>52.45</ele>
        <time>2024-08-26T10:27:09.429Z</time>
      </trkpt>
      <trkpt lat="43.81346" lon="4.30889">
        <ele>52.44</ele>
        <time>2024-08-26T10:27:09.989Z</time>
      </trkpt>
      <trkpt lat="43.81342" lon="4.30884">
        <ele>52.35</ele>
        <time>2024-08-26T10:27:10.550Z</time>
      </trkpt>
      <trkpt lat="43.81385" lon="4.30722">
        <ele>52.3</ele>
        <time>2024-08-26T10:27:11.131Z</time>
      </trkpt>
      <trkpt lat="43.81373" lon="4.30712">
        <ele>52.31</ele>
        <time>2024-08-26T10:27:11.714Z</time>
      </trkpt>
      <trkpt lat="43.81372" lon="4.30705">
        <ele>52.28</ele>
        <time>2024-08-26T10:27:12.298Z</time>
      </trkpt>
      <trkpt lat="43.8137" lon="4.30698">
        <ele>49.03</ele>
        <time>2024-08-26T10:27:12.883Z</time>
      </trkpt>
      <trkpt lat="43.81363" lon="4.30621">
        <ele>48.47</ele>
        <time>2024-08-26T10:27:13.477Z</time>
      </trkpt>
      <trkpt lat="43.81357" lon="4.30495">
        <ele>48.7</ele>
        <time>2024-08-26T10:27:14.085Z</time>
      </trkpt>
      <trkpt lat="43.81357" lon="4.30495">
        <ele>49.27</ele>
        <time>2024-08-26T10:27:14.693Z</time>
      </trkpt>
      <trkpt lat="43.81356" lon="4.30487">
        <ele>50.26</ele>
        <time>2024-08-26T10:27:15.302Z</time>
      </trkpt>
      <trkpt lat="43.81341" lon="4.30404">
        <ele>52.11</ele>
        <time>2024-08-26T10:27:15.921Z</time>
      </trkpt>
      <trkpt lat="43.81334" lon="4.30365">
        <ele>53.91</ele>
        <time>2024-08-26T10:27:16.545Z</time>
      </trkpt>
      <trkpt lat="43.81303" lon="4.30261">
        <ele>56.85</ele>
        <time>2024-08-26T10:27:17.182Z</time>
      </trkpt>
      <trkpt lat="43.81303" lon="4.30261">
        <ele>59.12</ele>
        <time>2024-08-26T10:27:17.819Z</time>
      </trkpt>
      <trkpt lat="43.81301" lon="4.30254">
        <ele>61.52</ele>
        <time>2024-08-26T10:27:18.457Z</time>
      </trkpt>
      <trkpt lat="43.81294" lon="4.30232">
        <ele>64.13</ele>
        <time>2024-08-26T10:27:19.098Z</time>
      </trkpt>
      <trkpt lat="43.81255" lon="4.30128">
        <ele>67.4</ele>
        <time>2024-08-26T10:27:19.752Z</time>
      </trkpt>
      <trkpt lat="43.8123" lon="4.3007">
        <ele>70.47</ele>
        <time>2024-08-26T10:27:20.414Z</time>
      </trkpt>
      <trkpt lat="43.81217" lon="4.30045">
        <ele>73.6</ele>
        <time>2024-08-26T10:27:21.080Z</time>
      </trkpt>
      <trkpt lat="43.81165" lon="4.29958">
        <ele>77.64</ele>
        <time>2024-08-26T10:27:21.759Z</time>
      </trkpt>
      <trkpt lat="43.81123" lon="4.29882">
        <ele>81.28</ele>
        <time>2024-08-26T10:27:22.449Z</time>
      </trkpt>
      <trkpt lat="43.81061" lon="4.29805">
        <ele>84.37</ele>
        <time>2024-08-26T10:27:23.152Z</time>
      </trkpt>
      <trkpt lat="43.81" lon="4.2973">
        <ele>87.02</ele>
        <time>2024-08-26T10:27:23.868Z</time>
      </trkpt>
      <trkpt lat="43.80965" lon="4.29685">
        <ele>88.98</ele>
        <time>2024-08-26T10:27:24.592Z</time>
      </trkpt>
      <trkpt lat="43.80954" lon="4.29653">
        <ele>90.58</ele>
        <time>2024-08-26T10:27:25.320Z</time>
      </trkpt>
      <trkpt lat="43.80942" lon="4.2959">
        <ele>91.81</ele>
        <time>2024-08-26T10:27:26.055Z</time>
      </trkpt>
      <trkpt lat="43.80941" lon="4.2954">
        <ele>92.93</ele>
        <time>2024-08-26T10:27:26.796Z</time>
      </trkpt>
      <trkpt lat="43.8096" lon="4.29418">
        <ele>94.48</ele>
        <time>2024-08-26T10:27:27.552Z</time>
      </trkpt>
      <trkpt lat="43.80951" lon="4.29319">
        <ele>96.45</ele>
        <time>2024-08-26T10:27:28.319Z</time>
      </trkpt>
      <trkpt lat="43.80931" lon="4.2923">
        <ele>98.41</ele>
        <time>2024-08-26T10:27:29.097Z</time>
      </trkpt>
      <trkpt lat="43.80898" lon="4.29061">
        <ele>100.48</ele>
        <time>2024-08-26T10:27:29.895Z</time>
      </trkpt>
      <trkpt lat="43.80885" lon="4.28969">
        <ele>101.84</ele>
        <time>2024-08-26T10:27:30.704Z</time>
      </trkpt>
      <trkpt lat="43.80883" lon="4.28956">
        <ele>102.73</ele>
        <time>2024-08-26T10:27:31.515Z</time>
      </trkpt>
      <trkpt lat="43.80866" lon="4.28847">
        <ele>102.51</ele>
        <time>2024-08-26T10:27:32.339Z</time>
      </trkpt>
      <trkpt lat="43.8086" lon="4.28808">
        <ele>101.98</ele>
        <time>2024-08-26T10:27:33.167Z</time>
      </trkpt>
      <trkpt lat="43.80843" lon="4.28754">
        <ele>100.89</ele>
        <time>2024-08-26T10:27:34.002Z</time>
      </trkpt>
      <trkpt lat="43.80827" lon="4.28713">
        <ele>99.97</ele>
        <time>2024-08-26T10:27:34.842Z</time>
      </trkpt>
      <trkpt lat="43.80818" lon="4.28667">
        <ele>99.42</ele>
        <time>2024-08-26T10:27:35.688Z</time>
      </trkpt>
      <trkpt lat="43.80806" lon="4.28604">
        <ele>98.83</ele>
        <time>2024-08-26T10:27:36.541Z</time>
      </trkpt>
      <trkpt lat="43.80803" lon="4.28567">
        <ele>98.36</ele>
        <time>2024-08-26T10:27:37.399Z</time>
      </trkpt>
      <trkpt lat="43.8081" lon="4.28525">
        <ele>97.83</ele>
        <time>2024-08-26T10:27:38.262Z</time>
      </trkpt>
      <trkpt lat="43.80822" lon="4.28485">
        <ele>97.5</ele>
        <time>2024-08-26T10:27:39.130Z</time>
      </trkpt>
      <trkpt lat="43.80823" lon="4.2848">
        <ele>97.42</ele>
        <time>2024-08-26T10:27:39.998Z</time>
      </trkpt>
      <trkpt lat="43.80824" lon="4.28464">
        <ele>97.47</ele>
        <time>2024-08-26T10:27:40.868Z</time>
      </trkpt>
      <trkpt lat="43.80826" lon="4.28406">
        <ele>97.93</ele>
        <time>2024-08-26T10:27:41.745Z</time>
      </trkpt>
      <trkpt lat="43.80831" lon="4.28356">
        <ele>98.55</ele>
        <time>2024-08-26T10:27:42.628Z</time>
      </trkpt>
      <trkpt lat="43.80841" lon="4.28287">
        <ele>98.97</ele>
        <time>2024-08-26T10:27:43.519Z</time>
      </trkpt>
      <trkpt lat="43.80841" lon="4.28287">
        <ele>99.32</ele>
        <time>2024-08-26T10:27:44.410Z</time>
      </trkpt>
      <trkpt lat="43.80845" lon="4.28265">
        <ele>99.72</ele>
        <time>2024-08-26T10:27:45.304Z</time>
      </trkpt>
      <trkpt lat="43.80846" lon="4.28247">
        <ele>100.19</ele>
        <time>2024-08-26T10:27:46.200Z</time>
      </trkpt>
      <trkpt lat="43.80846" lon="4.28247">
        <ele>102.36</ele>
        <time>2024-08-26T10:27:47.096Z</time>
      </trkpt>
      <trkpt lat="43.80848" lon="4.28212">
        <ele>103.54</ele>
        <time>2024-08-26T10:27:47.996Z</time>
      </trkpt>
      <trkpt lat="43.80842" lon="4.28106">
        <ele>105.64</ele>
        <time>2024-08-26T10:27:48.908Z</time>
      </trkpt>
      <trkpt lat="43.80837" lon="4.27977">
        <ele>107.24</ele>
        <time>2024-08-26T10:27:49.835Z</time>
      </trkpt>
      <trkpt lat="43.80841" lon="4.27909">
        <ele>107.77</ele>
        <time>2024-08-26T10:27:50.770Z</time>
      </trkpt>
      <trkpt lat="43.80855" lon="4.27775">
        <ele>107.36</ele>
        <time>2024-08-26T10:27:51.721Z</time>
      </trkpt>
      <trkpt lat="43.80858" lon="4.27742">
        <ele>107.35</ele>
        <time>2024-08-26T10:27:52.676Z</time>
      </trkpt>
      <trkpt lat="43.8086" lon="4.27653">
        <ele>107.29</ele>
        <time>2024-08-26T10:27:53.641Z</time>
      </trkpt>
      <trkpt lat="43.80853" lon="4.27624">
        <ele>107.75</ele>
        <time>2024-08-26T10:27:54.609Z</time>
      </trkpt>
      <trkpt lat="43.80838" lon="4.27562">
        <ele>110.16</ele>
        <time>2024-08-26T10:27:55.585Z</time>
      </trkpt>
      <trkpt lat="43.80814" lon="4.27424">
        <ele>111.04</ele>
        <time>2024-08-26T10:27:56.577Z</time>
      </trkpt>
      <trkpt lat="43.80807" lon="4.27385">
        <ele>110.81</ele>
        <time>2024-08-26T10:27:57.574Z</time>
      </trkpt>
      <trkpt lat="43.80792" lon="4.27357">
        <ele>110.01</ele>
        <time>2024-08-26T10:27:58.575Z</time>
      </trkpt>
      <trkpt lat="43.80778" lon="4.2732">
        <ele>108.88</ele>
        <time>2024-08-26T10:27:59.581Z</time>
      </trkpt>
      <trkpt lat="43.80778" lon="4.27267">
        <ele>107.97</ele>
        <time>2024-08-26T10:28:00.593Z</time>
      </trkpt>
      <trkpt lat="43.80786" lon="4.27186">
        <ele>107.11</ele>
        <time>2024-08-26T10:28:01.615Z</time>
      </trkpt>
      <trkpt lat="43.8078" lon="4.27136">
        <ele>106.1</ele>
        <time>2024-08-26T10:28:02.642Z</time>
      </trkpt>
      <trkpt lat="43.80778" lon="4.27085">
        <ele>105.12</ele>
        <time>2024-08-26T10:28:03.675Z</time>
      </trkpt>
      <trkpt lat="43.80775" lon="4.27074">
        <ele>104.33</ele>
        <time>2024-08-26T10:28:04.710Z</time>
      </trkpt>
      <trkpt lat="43.80759" lon="4.27001">
        <ele>103.45</ele>
        <time>2024-08-26T10:28:05.753Z</time>
      </trkpt>
      <trkpt lat="43.80757" lon="4.26993">
        <ele>102.83</ele>
        <time>2024-08-26T10:28:06.798Z</time>
      </trkpt>
      <trkpt lat="43.80734" lon="4.26911">
        <ele>102.18</ele>
        <time>2024-08-26T10:28:07.853Z</time>
      </trkpt>
      <trkpt lat="43.80724" lon="4.26862">
        <ele>102.11</ele>
        <time>2024-08-26T10:28:08.914Z</time>
      </trkpt>
      <trkpt lat="43.80702" lon="4.2681">
        <ele>101.87</ele>
        <time>2024-08-26T10:28:09.982Z</time>
      </trkpt>
      <trkpt lat="43.80698" lon="4.2679">
        <ele>101.67</ele>
        <time>2024-08-26T10:28:11.052Z</time>
      </trkpt>
      <trkpt lat="43.80698" lon="4.26767">
        <ele>101.52</ele>
        <time>2024-08-26T10:28:12.125Z</time>
      </trkpt>
      <trkpt lat="43.80698" lon="4.26767">
        <ele>101.41</ele>
        <time>2024-08-26T10:28:13.198Z</time>
      </trkpt>
      <trkpt lat="43.80695" lon="4.26748">
        <ele>101.38</ele>
        <time>2024-08-26T10:28:14.273Z</time>
      </trkpt>
      <trkpt lat="43.80656" lon="4.26656">
        <ele>101.26</ele>
        <time>2024-08-26T10:28:15.360Z</time>
      </trkpt>
      <trkpt lat="43.80596" lon="4.26556">
        <ele>100.95</ele>
        <time>2024-08-26T10:28:16.462Z</time>
      </trkpt>
      <trkpt lat="43.80509" lon="4.26433">
        <ele>101.4</ele>
        <time>2024-08-26T10:28:17.584Z</time>
      </trkpt>
      <trkpt lat="43.80472" lon="4.26343">
        <ele>102.5</ele>
        <time>2024-08-26T10:28:18.718Z</time>
      </trkpt>
      <trkpt lat="43.80445" lon="4.26255">
        <ele>103.95</ele>
        <time>2024-08-26T10:28:19.863Z</time>
      </trkpt>
      <trkpt lat="43.80424" lon="4.26109">
        <ele>105.45</ele>
        <time>2024-08-26T10:28:21.026Z</time>
      </trkpt>
      <trkpt lat="43.80419" lon="4.2608">
        <ele>106.48</ele>
        <time>2024-08-26T10:28:22.192Z</time>
      </trkpt>
      <trkpt lat="43.80415" lon="4.26055">
        <ele>107.42</ele>
        <time>2024-08-26T10:28:23.361Z</time>
      </trkpt>
      <trkpt lat="43.80396" lon="4.26011">
        <ele>108.06</ele>
        <time>2024-08-26T10:28:24.536Z</time>
      </trkpt>
      <trkpt lat="43.80391" lon="4.26001">
        <ele>108.16</ele>
        <time>2024-08-26T10:28:25.712Z</time>
      </trkpt>
      <trkpt lat="43.80352" lon="4.25941">
        <ele>107.57</ele>
        <time>2024-08-26T10:28:26.898Z</time>
      </trkpt>
      <trkpt lat="43.80349" lon="4.25935">
        <ele>107.38</ele>
        <time>2024-08-26T10:28:28.085Z</time>
      </trkpt>
      <trkpt lat="43.80331" lon="4.25887">
        <ele>106.91</ele>
        <time>2024-08-26T10:28:29.278Z</time>
      </trkpt>
      <trkpt lat="43.80317" lon="4.25848">
        <ele>106.78</ele>
        <time>2024-08-26T10:28:30.476Z</time>
      </trkpt>
      <trkpt lat="43.80317" lon="4.25848">
        <ele>106.61</ele>
        <time>2024-08-26T10:28:31.674Z</time>
      </trkpt>
      <trkpt lat="43.80311" lon="4.25832">
        <ele>106.38</ele>
        <time>2024-08-26T10:28:32.874Z</time>
      </trkpt>
      <trkpt lat="43.80264" lon="4.25703">
        <ele>106.13</ele>
        <time>2024-08-26T10:28:34.091Z</time>
      </trkpt>
      <trkpt lat="43.80233" lon="4.25625">
        <ele>107.31</ele>
        <time>2024-08-26T10:28:35.318Z</time>
      </trkpt>
      <trkpt lat="43.80186" lon="4.25497">
        <ele>108.45</ele>
        <time>2024-08-26T10:28:36.562Z</time>
      </trkpt>
      <trkpt lat="43.80143" lon="4.25379">
        <ele>108.98</ele>
        <time>2024-08-26T10:28:37.821Z</time>
      </trkpt>
      <trkpt lat="43.80124" lon="4.25319">
        <ele>110.14</ele>
        <time>2024-08-26T10:28:39.088Z</time>
      </trkpt>
      <trkpt lat="43.80105" lon="4.25283">
        <ele>111.46</ele>
        <time>2024-08-26T10:28:40.360Z</time>
      </trkpt>
      <trkpt lat="43.8006" lon="4.25218">
        <ele>113.19</ele>
        <time>2024-08-26T10:28:41.642Z</time>
      </trkpt>
      <trkpt lat="43.80051" lon="4.252">
        <ele>114.92</ele>
        <time>2024-08-26T10:28:42.927Z</time>
      </trkpt>
      <trkpt lat="43.80007" lon="4.25084">
        <ele>117.38</ele>
        <time>2024-08-26T10:28:44.227Z</time>
      </trkpt>
      <trkpt lat="43.79994" lon="4.25046">
        <ele>119.56</ele>
        <time>2024-08-26T10:28:45.532Z</time>
      </trkpt>
      <trkpt lat="43.79968" lon="4.24968">
        <ele>121.41</ele>
        <time>2024-08-26T10:28:46.847Z</time>
      </trkpt>
      <trkpt lat="43.79968" lon="4.24968">
        <ele>122.72</ele>
        <time>2024-08-26T10:28:48.162Z</time>
      </trkpt>
      <trkpt lat="43.79967" lon="4.24963">
        <ele>123.83</ele>
        <time>2024-08-26T10:28:49.477Z</time>
      </trkpt>
      <trkpt lat="43.79967" lon="4.24963">
        <ele>124.76</ele>
        <time>2024-08-26T10:28:50.792Z</time>
      </trkpt>
      <trkpt lat="43.79964" lon="4.24954">
        <ele>125.65</ele>
        <time>2024-08-26T10:28:52.108Z</time>
      </trkpt>
      <trkpt lat="43.79959" lon="4.24939">
        <ele>126.54</ele>
        <time>2024-08-26T10:28:53.426Z</time>
      </trkpt>
      <trkpt lat="43.79959" lon="4.24939">
        <ele>127.36</ele>
        <time>2024-08-26T10:28:54.744Z</time>
      </trkpt>
      <trkpt lat="43.79952" lon="4.24915">
        <ele>128.4</ele>
        <time>2024-08-26T10:28:56.065Z</time>
      </trkpt>
      <trkpt lat="43.79952" lon="4.24915">
        <ele>129.39</ele>
        <time>2024-08-26T10:28:57.386Z</time>
      </trkpt>
      <trkpt lat="43.79927" lon="4.24833">
        <ele>130.95</ele>
        <time>2024-08-26T10:28:58.718Z</time>
      </trkpt>
      <trkpt lat="43.79906" lon="4.24795">
        <ele>132.17</ele>
        <time>2024-08-26T10:29:00.055Z</time>
      </trkpt>
      <trkpt lat="43.79903" lon="4.24791">
        <ele>133.18</ele>
        <time>2024-08-26T10:29:01.393Z</time>
      </trkpt>
      <trkpt lat="43.7988" lon="4.24768">
        <ele>134.42</ele>
        <time>2024-08-26T10:29:02.735Z</time>
      </trkpt>
      <trkpt lat="43.79856" lon="4.24748">
        <ele>135.24</ele>
        <time>2024-08-26T10:29:04.082Z</time>
      </trkpt>
      <trkpt lat="43.7981" lon="4.2472">
        <ele>135.83</ele>
        <time>2024-08-26T10:29:05.437Z</time>
      </trkpt>
      <trkpt lat="43.79764" lon="4.24679">
        <ele>136.22</ele>
        <time>2024-08-26T10:29:06.801Z</time>
      </trkpt>
      <trkpt lat="43.79744" lon="4.2466">
        <ele>133.03</ele>
        <time>2024-08-26T10:29:08.169Z</time>
      </trkpt>
      <trkpt lat="43.79715" lon="4.2464">
        <ele>130.87</ele>
        <time>2024-08-26T10:29:09.542Z</time>
      </trkpt>
      <trkpt lat="43.79669" lon="4.24618">
        <ele>128.21</ele>
        <time>2024-08-26T10:29:10.922Z</time>
      </trkpt>
      <trkpt lat="43.79624" lon="4.24597">
        <ele>125.58</ele>
        <time>2024-08-26T10:29:12.310Z</time>
      </trkpt>
      <trkpt lat="43.7961" lon="4.24585">
        <ele>123.32</ele>
        <time>2024-08-26T10:29:13.701Z</time>
      </trkpt>
      <trkpt lat="43.79565" lon="4.24552">
        <ele>121.26</ele>
        <time>2024-08-26T10:29:15.100Z</time>
      </trkpt>
      <trkpt lat="43.79419" lon="4.2444">
        <ele>117.61</ele>
        <time>2024-08-26T10:29:16.526Z</time>
      </trkpt>
      <trkpt lat="43.79359" lon="4.24381">
        <ele>115.29</ele>
        <time>2024-08-26T10:29:17.963Z</time>
      </trkpt>
      <trkpt lat="43.79337" lon="4.24366">
        <ele>113.4</ele>
        <time>2024-08-26T10:29:19.404Z</time>
      </trkpt>
      <trkpt lat="43.7925" lon="4.24323">
        <ele>111.45</ele>
        <time>2024-08-26T10:29:20.860Z</time>
      </trkpt>
      <trkpt lat="43.79238" lon="4.24315">
        <ele>109.74</ele>
        <time>2024-08-26T10:29:22.318Z</time>
      </trkpt>
      <trkpt lat="43.79183" lon="4.24273">
        <ele>107.86</ele>
        <time>2024-08-26T10:29:23.786Z</time>
      </trkpt>
      <trkpt lat="43.79162" lon="4.24251">
        <ele>105.92</ele>
        <time>2024-08-26T10:29:25.258Z</time>
      </trkpt>
      <trkpt lat="43.79148" lon="4.24228">
        <ele>103.81</ele>
        <time>2024-08-26T10:29:26.734Z</time>
      </trkpt>
      <trkpt lat="43.79123" lon="4.24164">
        <ele>101.36</ele>
        <time>2024-08-26T10:29:28.218Z</time>
      </trkpt>
      <trkpt lat="43.79115" lon="4.24144">
        <ele>98.91</ele>
        <time>2024-08-26T10:29:29.705Z</time>
      </trkpt>
      <trkpt lat="43.79044" lon="4.23969">
        <ele>94.96</ele>
        <time>2024-08-26T10:29:31.215Z</time>
      </trkpt>
      <trkpt lat="43.79028" lon="4.23916">
        <ele>93.12</ele>
        <time>2024-08-26T10:29:32.732Z</time>
      </trkpt>
      <trkpt lat="43.79018" lon="4.23876">
        <ele>91.67</ele>
        <time>2024-08-26T10:29:34.254Z</time>
      </trkpt>
      <trkpt lat="43.78998" lon="4.23819">
        <ele>90.79</ele>
        <time>2024-08-26T10:29:35.783Z</time>
      </trkpt>
      <trkpt lat="43.78998" lon="4.23819">
        <ele>89.95</ele>
        <time>2024-08-26T10:29:37.312Z</time>
      </trkpt>
      <trkpt lat="43.78981" lon="4.23775">
        <ele>89.41</ele>
        <time>2024-08-26T10:29:38.847Z</time>
      </trkpt>
      <trkpt lat="43.78972" lon="4.23756">
        <ele>88.85</ele>
        <time>2024-08-26T10:29:40.385Z</time>
      </trkpt>
      <trkpt lat="43.78968" lon="4.23741">
        <ele>88.51</ele>
        <time>2024-08-26T10:29:41.924Z</time>
      </trkpt>
      <trkpt lat="43.78968" lon="4.23741">
        <ele>88.91</ele>
        <time>2024-08-26T10:29:43.463Z</time>
      </trkpt>
      <trkpt lat="43.78937" lon="4.23643">
        <ele>87.99</ele>
        <time>2024-08-26T10:29:45.015Z</time>
      </trkpt>
      <trkpt lat="43.78932" lon="4.23622">
        <ele>87.14</ele>
        <time>2024-08-26T10:29:46.569Z</time>
      </trkpt>
      <trkpt lat="43.78923" lon="4.23573">
        <ele>85.92</ele>
        <time>2024-08-26T10:29:48.129Z</time>
      </trkpt>
      <trkpt lat="43.78919" lon="4.23529">
        <ele>84.78</ele>
        <time>2024-08-26T10:29:49.694Z</time>
      </trkpt>
      <trkpt lat="43.78919" lon="4.2349">
        <ele>83.86</ele>
        <time>2024-08-26T10:29:51.264Z</time>
      </trkpt>
      <trkpt lat="43.78922" lon="4.23454">
        <ele>83.07</ele>
        <time>2024-08-26T10:29:52.838Z</time>
      </trkpt>
      <trkpt lat="43.78923" lon="4.23423">
        <ele>82.46</ele>
        <time>2024-08-26T10:29:54.416Z</time>
      </trkpt>
      <trkpt lat="43.78923" lon="4.23423">
        <ele>81.93</ele>
        <time>2024-08-26T10:29:55.994Z</time>
      </trkpt>
      <trkpt lat="43.78923" lon="4.23409">
        <ele>81.45</ele>
        <time>2024-08-26T10:29:57.573Z</time>
      </trkpt>
      <trkpt lat="43.78923" lon="4.23409">
        <ele>80.99</ele>
        <time>2024-08-26T10:29:59.152Z</time>
      </trkpt>
      <trkpt lat="43.78928" lon="4.23318">
        <ele>80.44</ele>
        <time>2024-08-26T10:30:00.742Z</time>
      </trkpt>
      <trkpt lat="43.78938" lon="4.2324">
        <ele>79.85</ele>
        <time>2024-08-26T10:30:02.341Z</time>
      </trkpt>
      <trkpt lat="43.78955" lon="4.23145">
        <ele>78.65</ele>
        <time>2024-08-26T10:30:03.951Z</time>
      </trkpt>
      <trkpt lat="43.78963" lon="4.23129">
        <ele>77.99</ele>
        <time>2024-08-26T10:30:05.564Z</time>
      </trkpt>
      <trkpt lat="43.78978" lon="4.23111">
        <ele>77.53</ele>
        <time>2024-08-26T10:30:07.180Z</time>
      </trkpt>
      <trkpt lat="43.79022" lon="4.23075">
        <ele>77.19</ele>
        <time>2024-08-26T10:30:08.804Z</time>
      </trkpt>
      <trkpt lat="43.79046" lon="4.23052">
        <ele>76.89</ele>
        <time>2024-08-26T10:30:10.433Z</time>
      </trkpt>
      <trkpt lat="43.79046" lon="4.23052">
        <ele>76.61</ele>
        <time>2024-08-26T10:30:12.062Z</time>
      </trkpt>
      <trkpt lat="43.79052" lon="4.23042">
        <ele>76.32</ele>
        <time>2024-08-26T10:30:13.692Z</time>
      </trkpt>
      <trkpt lat="43.79059" lon="4.23027">
        <ele>76.03</ele>
        <time>2024-08-26T10:30:15.324Z</time>
      </trkpt>
      <trkpt lat="43.79059" lon="4.22998">
        <ele>75.72</ele>
        <time>2024-08-26T10:30:16.960Z</time>
      </trkpt>
      <trkpt lat="43.79057" lon="4.22983">
        <ele>75.42</ele>
        <time>2024-08-26T10:30:18.597Z</time>
      </trkpt>
      <trkpt lat="43.79057" lon="4.22983">
        <ele>75.06</ele>
        <time>2024-08-26T10:30:20.234Z</time>
      </trkpt>
      <trkpt lat="43.79056" lon="4.22967">
        <ele>74.71</ele>
        <time>2024-08-26T10:30:21.873Z</time>
      </trkpt>
      <trkpt lat="43.79052" lon="4.22821">
        <ele>73.86</ele>
        <time>2024-08-26T10:30:23.529Z</time>
      </trkpt>
      <trkpt lat="43.79055" lon="4.22819">
        <ele>73.36</ele>
        <time>2024-08-26T10:30:25.186Z</time>
      </trkpt>
      <trkpt lat="43.79056" lon="4.22817">
        <ele>72.78</ele>
        <time>2024-08-26T10:30:26.843Z</time>
      </trkpt>
      <trkpt lat="43.79055" lon="4.22812">
        <ele>72.11</ele>
        <time>2024-08-26T10:30:28.501Z</time>
      </trkpt>
      <trkpt lat="43.79051" lon="4.2281">
        <ele>71.37</ele>
        <time>2024-08-26T10:30:30.159Z</time>
      </trkpt>
      <trkpt lat="43.79049" lon="4.22754">
        <ele>70.44</ele>
        <time>2024-08-26T10:30:31.824Z</time>
      </trkpt>
      <trkpt lat="43.79049" lon="4.22754">
        <ele>69.67</ele>
        <time>2024-08-26T10:30:33.489Z</time>
      </trkpt>
      <trkpt lat="43.79044" lon="4.22685">
        <ele>68.74</ele>
        <time>2024-08-26T10:30:35.162Z</time>
      </trkpt>
      <trkpt lat="43.7905" lon="4.22484">
        <ele>67.49</ele>
        <time>2024-08-26T10:30:36.858Z</time>
      </trkpt>
      <trkpt lat="43.79049" lon="4.22457">
        <ele>66.69</ele>
        <time>2024-08-26T10:30:38.557Z</time>
      </trkpt>
      <trkpt lat="43.79051" lon="4.22454">
        <ele>65.98</ele>
        <time>2024-08-26T10:30:40.257Z</time>
      </trkpt>
      <trkpt lat="43.79052" lon="4.2245">
        <ele>65.23</ele>
        <time>2024-08-26T10:30:41.957Z</time>
      </trkpt>
      <trkpt lat="43.79053" lon="4.22439">
        <ele>64.35</ele>
        <time>2024-08-26T10:30:43.659Z</time>
      </trkpt>
      <trkpt lat="43.79052" lon="4.22434">
        <ele>63.42</ele>
        <time>2024-08-26T10:30:45.361Z</time>
      </trkpt>
      <trkpt lat="43.7905" lon="4.22432">
        <ele>62.35</ele>
        <time>2024-08-26T10:30:47.064Z</time>
      </trkpt>
      <trkpt lat="43.79043" lon="4.22431">
        <ele>61.04</ele>
        <time>2024-08-26T10:30:48.768Z</time>
      </trkpt>
      <trkpt lat="43.7904" lon="4.22435">
        <ele>59.42</ele>
        <time>2024-08-26T10:30:50.472Z</time>
      </trkpt>
      <trkpt lat="43.7902" lon="4.22394">
        <ele>57.17</ele>
        <time>2024-08-26T10:30:52.182Z</time>
      </trkpt>
      <trkpt lat="43.78994" lon="4.22347">
        <ele>54.53</ele>
        <time>2024-08-26T10:30:53.899Z</time>
      </trkpt>
      <trkpt lat="43.78966" lon="4.2229">
        <ele>51.79</ele>
        <time>2024-08-26T10:30:55.624Z</time>
      </trkpt>
      <trkpt lat="43.78924" lon="4.22192">
        <ele>48.73</ele>
        <time>2024-08-26T10:30:57.362Z</time>
      </trkpt>
      <trkpt lat="43.78856" lon="4.22024">
        <ele>45.51</ele>
        <time>2024-08-26T10:30:59.123Z</time>
      </trkpt>
      <trkpt lat="43.78844" lon="4.21993">
        <ele>43.2</ele>
        <time>2024-08-26T10:31:00.888Z</time>
      </trkpt>
      <trkpt lat="43.78828" lon="4.2195">
        <ele>40.85</ele>
        <time>2024-08-26T10:31:02.658Z</time>
      </trkpt>
      <trkpt lat="43.78761" lon="4.21814">
        <ele>38.4</ele>
        <time>2024-08-26T10:31:04.447Z</time>
      </trkpt>
      <trkpt lat="43.78761" lon="4.21814">
        <ele>36.87</ele>
        <time>2024-08-26T10:31:06.236Z</time>
      </trkpt>
      <trkpt lat="43.787" lon="4.21685">
        <ele>35.43</ele>
        <time>2024-08-26T10:31:08.043Z</time>
      </trkpt>
      <trkpt lat="43.787" lon="4.21685">
        <ele>31.92</ele>
        <time>2024-08-26T10:31:09.850Z</time>
      </trkpt>
      <trkpt lat="43.78591" lon="4.21454">
        <ele>30.59</ele>
        <time>2024-08-26T10:31:11.689Z</time>
      </trkpt>
      <trkpt lat="43.78591" lon="4.21454">
        <ele>30.28</ele>
        <time>2024-08-26T10:31:13.528Z</time>
      </trkpt>
      <trkpt lat="43.78588" lon="4.21449">
        <ele>30.37</ele>
        <time>2024-08-26T10:31:15.368Z</time>
      </trkpt>
      <trkpt lat="43.78575" lon="4.21417">
        <ele>31.08</ele>
        <time>2024-08-26T10:31:17.212Z</time>
      </trkpt>
      <trkpt lat="43.78572" lon="4.21412">
        <ele>31.77</ele>
        <time>2024-08-26T10:31:19.057Z</time>
      </trkpt>
      <trkpt lat="43.7857" lon="4.21408">
        <ele>32.48</ele>
        <time>2024-08-26T10:31:20.902Z</time>
      </trkpt>
      <trkpt lat="43.78559" lon="4.21389">
        <ele>33.41</ele>
        <time>2024-08-26T10:31:22.750Z</time>
      </trkpt>
      <trkpt lat="43.78538" lon="4.21364">
        <ele>34.35</ele>
        <time>2024-08-26T10:31:24.603Z</time>
      </trkpt>
      <trkpt lat="43.78466" lon="4.21312">
        <ele>35.47</ele>
        <time>2024-08-26T10:31:26.469Z</time>
      </trkpt>
      <trkpt lat="43.78413" lon="4.21255">
        <ele>36.25</ele>
        <time>2024-08-26T10:31:28.345Z</time>
      </trkpt>
      <trkpt lat="43.78389" lon="4.21225">
        <ele>36.86</ele>
        <time>2024-08-26T10:31:30.227Z</time>
      </trkpt>
      <trkpt lat="43.7837" lon="4.21198">
        <ele>37.35</ele>
        <time>2024-08-26T10:31:32.113Z</time>
      </trkpt>
      <trkpt lat="43.78357" lon="4.21167">
        <ele>37.98</ele>
        <time>2024-08-26T10:31:34.003Z</time>
      </trkpt>
      <trkpt lat="43.7832" lon="4.21052">
        <ele>38.66</ele>
        <time>2024-08-26T10:31:35.908Z</time>
      </trkpt>
      <trkpt lat="43.78281" lon="4.20911">
        <ele>39.6</ele>
        <time>2024-08-26T10:31:37.830Z</time>
      </trkpt>
      <trkpt lat="43.78214" lon="4.20679">
        <ele>40.3</ele>
        <time>2024-08-26T10:31:39.781Z</time>
      </trkpt>
      <trkpt lat="43.78202" lon="4.20628">
        <ele>40.9</ele>
        <time>2024-08-26T10:31:41.738Z</time>
      </trkpt>
      <trkpt lat="43.78201" lon="4.20624">
        <ele>41.29</ele>
        <time>2024-08-26T10:31:43.696Z</time>
      </trkpt>
      <trkpt lat="43.78201" lon="4.20614">
        <ele>41.59</ele>
        <time>2024-08-26T10:31:45.655Z</time>
      </trkpt>
      <trkpt lat="43.78191" lon="4.20578">
        <ele>41.81</ele>
        <time>2024-08-26T10:31:47.618Z</time>
      </trkpt>
      <trkpt lat="43.7819" lon="4.20563">
        <ele>41.91</ele>
        <time>2024-08-26T10:31:49.583Z</time>
      </trkpt>
      <trkpt lat="43.7819" lon="4.20555">
        <ele>42.01</ele>
        <time>2024-08-26T10:31:51.549Z</time>
      </trkpt>
      <trkpt lat="43.78196" lon="4.20541">
        <ele>42.1</ele>
        <time>2024-08-26T10:31:53.517Z</time>
      </trkpt>
      <trkpt lat="43.78199" lon="4.20537">
        <ele>42.16</ele>
        <time>2024-08-26T10:31:55.486Z</time>
      </trkpt>
      <trkpt lat="43.78203" lon="4.20533">
        <ele>42.21</ele>
        <time>2024-08-26T10:31:57.455Z</time>
      </trkpt>
      <trkpt lat="43.78211" lon="4.20533">
        <ele>42.23</ele>
        <time>2024-08-26T10:31:59.426Z</time>
      </trkpt>
      <trkpt lat="43.78217" lon="4.2053">
        <ele>42.32</ele>
        <time>2024-08-26T10:32:01.398Z</time>
      </trkpt>
      <trkpt lat="43.78222" lon="4.20523">
        <ele>42.49</ele>
        <time>2024-08-26T10:32:03.371Z</time>
      </trkpt>
      <trkpt lat="43.78226" lon="4.20512">
        <ele>42.69</ele>
        <time>2024-08-26T10:32:05.345Z</time>
      </trkpt>
      <trkpt lat="43.78226" lon="4.20497">
        <ele>42.97</ele>
        <time>2024-08-26T10:32:07.321Z</time>
      </trkpt>
      <trkpt lat="43.78252" lon="4.20462">
        <ele>43.51</ele>
        <time>2024-08-26T10:32:09.303Z</time>
      </trkpt>
      <trkpt lat="43.78267" lon="4.20451">
        <ele>43.82</ele>
        <time>2024-08-26T10:32:11.288Z</time>
      </trkpt>
      <trkpt lat="43.78281" lon="4.20444">
        <ele>44.14</ele>
        <time>2024-08-26T10:32:13.275Z</time>
      </trkpt>
      <trkpt lat="43.78306" lon="4.20422">
        <ele>44.36</ele>
        <time>2024-08-26T10:32:15.267Z</time>
      </trkpt>
      <trkpt lat="43.7832" lon="4.20404">
        <ele>44.42</ele>
        <time>2024-08-26T10:32:17.262Z</time>
      </trkpt>
      <trkpt lat="43.78334" lon="4.20376">
        <ele>44.35</ele>
        <time>2024-08-26T10:32:19.261Z</time>
      </trkpt>
      <trkpt lat="43.78362" lon="4.20311">
        <ele>43.95</ele>
        <time>2024-08-26T10:32:21.269Z</time>
      </trkpt>
      <trkpt lat="43.78392" lon="4.2024">
        <ele>43.28</ele>
        <time>2024-08-26T10:32:23.286Z</time>
      </trkpt>
      <trkpt lat="43.78395" lon="4.20223">
        <ele>43.4</ele>
        <time>2024-08-26T10:32:25.305Z</time>
      </trkpt>
      <trkpt lat="43.78398" lon="4.20215">
        <ele>43.5</ele>
        <time>2024-08-26T10:32:27.325Z</time>
      </trkpt>
      <trkpt lat="43.78392" lon="4.20209">
        <ele>43.46</ele>
        <time>2024-08-26T10:32:29.346Z</time>
      </trkpt>
      <trkpt lat="43.78388" lon="4.20206">
        <ele>43.38</ele>
        <time>2024-08-26T10:32:31.368Z</time>
      </trkpt>
      <trkpt lat="43.78352" lon="4.20166">
        <ele>43.2</ele>
        <time>2024-08-26T10:32:33.397Z</time>
      </trkpt>
      <trkpt lat="43.78349" lon="4.20156">
        <ele>43.11</ele>
        <time>2024-08-26T10:32:35.428Z</time>
      </trkpt>
      <trkpt lat="43.7835" lon="4.20153">
        <ele>43.06</ele>
        <time>2024-08-26T10:32:37.459Z</time>
      </trkpt>
      <trkpt lat="43.78355" lon="4.20146">
        <ele>43.04</ele>
        <time>2024-08-26T10:32:39.491Z</time>
      </trkpt>
      <trkpt lat="43.78353" lon="4.20133">
        <ele>43.11</ele>
        <time>2024-08-26T10:32:41.525Z</time>
      </trkpt>
      <trkpt lat="43.78336" lon="4.20106">
        <ele>43.22</ele>
        <time>2024-08-26T10:32:43.563Z</time>
      </trkpt>
      <trkpt lat="43.78316" lon="4.20083">
        <ele>43.28</ele>
        <time>2024-08-26T10:32:45.605Z</time>
      </trkpt>
      <trkpt lat="43.78287" lon="4.20063">
        <ele>43.3</ele>
        <time>2024-08-26T10:32:47.652Z</time>
      </trkpt>
      <trkpt lat="43.78261" lon="4.20043">
        <ele>43.27</ele>
        <time>2024-08-26T10:32:49.704Z</time>
      </trkpt>
      <trkpt lat="43.78249" lon="4.20018">
        <ele>43.64</ele>
        <time>2024-08-26T10:32:51.760Z</time>
      </trkpt>
      <trkpt lat="43.78215" lon="4.19952">
        <ele>44.39</ele>
        <time>2024-08-26T10:32:53.825Z</time>
      </trkpt>
      <trkpt lat="43.7817" lon="4.19849">
        <ele>44.95</ele>
        <time>2024-08-26T10:32:55.904Z</time>
      </trkpt>
      <trkpt lat="43.7817" lon="4.19849">
        <ele>45.19</ele>
        <time>2024-08-26T10:32:57.983Z</time>
      </trkpt>
      <trkpt lat="43.78155" lon="4.19804">
        <ele>45.37</ele>
        <time>2024-08-26T10:33:00.068Z</time>
      </trkpt>
      <trkpt lat="43.781" lon="4.19673">
        <ele>45.16</ele>
        <time>2024-08-26T10:33:02.170Z</time>
      </trkpt>
      <trkpt lat="43.7808" lon="4.19624">
        <ele>44.87</ele>
        <time>2024-08-26T10:33:04.279Z</time>
      </trkpt>
      <trkpt lat="43.78073" lon="4.19609">
        <ele>45</ele>
        <time>2024-08-26T10:33:06.390Z</time>
      </trkpt>
      <trkpt lat="43.7806" lon="4.19578">
        <ele>45.38</ele>
        <time>2024-08-26T10:33:08.505Z</time>
      </trkpt>
      <trkpt lat="43.78025" lon="4.19485">
        <ele>45.63</ele>
        <time>2024-08-26T10:33:10.632Z</time>
      </trkpt>
      <trkpt lat="43.7801" lon="4.19448">
        <ele>46.26</ele>
        <time>2024-08-26T10:33:12.764Z</time>
      </trkpt>
      <trkpt lat="43.78" lon="4.19422">
        <ele>46.96</ele>
        <time>2024-08-26T10:33:14.899Z</time>
      </trkpt>
      <trkpt lat="43.77997" lon="4.19416">
        <ele>47.55</ele>
        <time>2024-08-26T10:33:17.035Z</time>
      </trkpt>
      <trkpt lat="43.77981" lon="4.19401">
        <ele>48.09</ele>
        <time>2024-08-26T10:33:19.174Z</time>
      </trkpt>
      <trkpt lat="43.77945" lon="4.19317">
        <ele>48.78</ele>
        <time>2024-08-26T10:33:21.325Z</time>
      </trkpt>
      <trkpt lat="43.7794" lon="4.193">
        <ele>49.31</ele>
        <time>2024-08-26T10:33:23.478Z</time>
      </trkpt>
      <trkpt lat="43.77935" lon="4.19264">
        <ele>49.73</ele>
        <time>2024-08-26T10:33:25.635Z</time>
      </trkpt>
      <trkpt lat="43.77932" lon="4.19254">
        <ele>49.89</ele>
        <time>2024-08-26T10:33:27.793Z</time>
      </trkpt>
      <trkpt lat="43.77928" lon="4.19246">
        <ele>49.93</ele>
        <time>2024-08-26T10:33:29.952Z</time>
      </trkpt>
      <trkpt lat="43.77917" lon="4.19229">
        <ele>49.8</ele>
        <time>2024-08-26T10:33:32.114Z</time>
      </trkpt>
      <trkpt lat="43.77895" lon="4.19169">
        <ele>49.7</ele>
        <time>2024-08-26T10:33:34.284Z</time>
      </trkpt>
      <trkpt lat="43.77869" lon="4.19116">
        <ele>49.46</ele>
        <time>2024-08-26T10:33:36.461Z</time>
      </trkpt>
      <trkpt lat="43.77857" lon="4.1908">
        <ele>49.27</ele>
        <time>2024-08-26T10:33:38.643Z</time>
      </trkpt>
      <trkpt lat="43.77844" lon="4.19037">
        <ele>49.24</ele>
        <time>2024-08-26T10:33:40.830Z</time>
      </trkpt>
      <trkpt lat="43.77831" lon="4.19003">
        <ele>49.23</ele>
        <time>2024-08-26T10:33:43.022Z</time>
      </trkpt>
      <trkpt lat="43.77795" lon="4.18921">
        <ele>48.97</ele>
        <time>2024-08-26T10:33:45.225Z</time>
      </trkpt>
      <trkpt lat="43.77781" lon="4.18878">
        <ele>48.9</ele>
        <time>2024-08-26T10:33:47.433Z</time>
      </trkpt>
      <trkpt lat="43.77763" lon="4.18858">
        <ele>48.81</ele>
        <time>2024-08-26T10:33:49.645Z</time>
      </trkpt>
      <trkpt lat="43.77758" lon="4.18851">
        <ele>48.85</ele>
        <time>2024-08-26T10:33:51.858Z</time>
      </trkpt>
      <trkpt lat="43.77725" lon="4.18755">
        <ele>49.13</ele>
        <time>2024-08-26T10:33:54.084Z</time>
      </trkpt>
      <trkpt lat="43.77725" lon="4.18755">
        <ele>49.24</ele>
        <time>2024-08-26T10:33:56.310Z</time>
      </trkpt>
      <trkpt lat="43.77711" lon="4.18713">
        <ele>49.48</ele>
        <time>2024-08-26T10:33:58.541Z</time>
      </trkpt>
      <trkpt lat="43.77707" lon="4.18685">
        <ele>49.52</ele>
        <time>2024-08-26T10:34:00.775Z</time>
      </trkpt>
      <trkpt lat="43.77688" lon="4.18629">
        <ele>49.52</ele>
        <time>2024-08-26T10:34:03.016Z</time>
      </trkpt>
      <trkpt lat="43.77687" lon="4.18624">
        <ele>49.72</ele>
        <time>2024-08-26T10:34:05.258Z</time>
      </trkpt>
      <trkpt lat="43.77675" lon="4.18588">
        <ele>50.08</ele>
        <time>2024-08-26T10:34:07.505Z</time>
      </trkpt>
      <trkpt lat="43.77652" lon="4.18517">
        <ele>50.17</ele>
        <time>2024-08-26T10:34:09.761Z</time>
      </trkpt>
      <trkpt lat="43.77596" lon="4.18322">
        <ele>49.47</ele>
        <time>2024-08-26T10:34:12.041Z</time>
      </trkpt>
      <trkpt lat="43.77596" lon="4.18322">
        <ele>49.45</ele>
        <time>2024-08-26T10:34:14.321Z</time>
      </trkpt>
      <trkpt lat="43.77571" lon="4.1822">
        <ele>50.11</ele>
        <time>2024-08-26T10:34:16.613Z</time>
      </trkpt>
      <trkpt lat="43.77543" lon="4.18091">
        <ele>51.14</ele>
        <time>2024-08-26T10:34:18.921Z</time>
      </trkpt>
      <trkpt lat="43.77514" lon="4.17943">
        <ele>52.8</ele>
        <time>2024-08-26T10:34:21.247Z</time>
      </trkpt>
      <trkpt lat="43.77488" lon="4.17778">
        <ele>52.4</ele>
        <time>2024-08-26T10:34:23.592Z</time>
      </trkpt>
      <trkpt lat="43.77481" lon="4.17731">
        <ele>53.47</ele>
        <time>2024-08-26T10:34:25.943Z</time>
      </trkpt>
      <trkpt lat="43.7747" lon="4.17638">
        <ele>55.65</ele>
        <time>2024-08-26T10:34:28.305Z</time>
      </trkpt>
      <trkpt lat="43.77468" lon="4.17622">
        <ele>55.57</ele>
        <time>2024-08-26T10:34:30.669Z</time>
      </trkpt>
      <trkpt lat="43.7746" lon="4.17535">
        <ele>56.68</ele>
        <time>2024-08-26T10:34:33.043Z</time>
      </trkpt>
      <trkpt lat="43.77415" lon="4.16907">
        <ele>59.67</ele>
        <time>2024-08-26T10:34:35.490Z</time>
      </trkpt>
      <trkpt lat="43.77415" lon="4.16907">
        <ele>59.67</ele>
        <time>2024-08-26T10:34:37.937Z</time>
      </trkpt>
      <trkpt lat="43.77401" lon="4.16716">
        <ele>61</ele>
        <time>2024-08-26T10:34:40.406Z</time>
      </trkpt>
      <trkpt lat="43.77386" lon="4.165">
        <ele>62.08</ele>
        <time>2024-08-26T10:34:42.900Z</time>
      </trkpt>
      <trkpt lat="43.77386" lon="4.165">
        <ele>62.39</ele>
        <time>2024-08-26T10:34:45.394Z</time>
      </trkpt>
      <trkpt lat="43.77366" lon="4.16236">
        <ele>62.74</ele>
        <time>2024-08-26T10:34:47.919Z</time>
      </trkpt>
      <trkpt lat="43.77366" lon="4.16236">
        <ele>62.98</ele>
        <time>2024-08-26T10:34:50.444Z</time>
      </trkpt>
      <trkpt lat="43.77363" lon="4.16179">
        <ele>63.23</ele>
        <time>2024-08-26T10:34:52.976Z</time>
      </trkpt>
      <trkpt lat="43.77364" lon="4.16161">
        <ele>63.48</ele>
        <time>2024-08-26T10:34:55.510Z</time>
      </trkpt>
      <trkpt lat="43.77364" lon="4.16145">
        <ele>63.77</ele>
        <time>2024-08-26T10:34:58.046Z</time>
      </trkpt>
      <trkpt lat="43.77356" lon="4.16017">
        <ele>64.38</ele>
        <time>2024-08-26T10:35:00.597Z</time>
      </trkpt>
      <trkpt lat="43.77352" lon="4.15988">
        <ele>64.68</ele>
        <time>2024-08-26T10:35:03.151Z</time>
      </trkpt>
      <trkpt lat="43.77339" lon="4.15938">
        <ele>64.96</ele>
        <time>2024-08-26T10:35:05.711Z</time>
      </trkpt>
      <trkpt lat="43.77342" lon="4.15925">
        <ele>65.19</ele>
        <time>2024-08-26T10:35:08.273Z</time>
      </trkpt>
      <trkpt lat="43.77346" lon="4.15917">
        <ele>65.44</ele>
        <time>2024-08-26T10:35:10.836Z</time>
      </trkpt>
      <trkpt lat="43.77347" lon="4.15909">
        <ele>65.69</ele>
        <time>2024-08-26T10:35:13.400Z</time>
      </trkpt>
      <trkpt lat="43.77343" lon="4.15888">
        <ele>65.95</ele>
        <time>2024-08-26T10:35:15.966Z</time>
      </trkpt>
      <trkpt lat="43.7734" lon="4.15864">
        <ele>66.15</ele>
        <time>2024-08-26T10:35:18.535Z</time>
      </trkpt>
      <trkpt lat="43.7734" lon="4.15864">
        <ele>66</ele>
        <time>2024-08-26T10:35:21.104Z</time>
      </trkpt>
      <trkpt lat="43.77327" lon="4.15636">
        <ele>65.27</ele>
        <time>2024-08-26T10:35:23.700Z</time>
      </trkpt>
      <trkpt lat="43.77324" lon="4.1559">
        <ele>65.21</ele>
        <time>2024-08-26T10:35:26.301Z</time>
      </trkpt>
      <trkpt lat="43.773" lon="4.15297">
        <ele>64.5</ele>
        <time>2024-08-26T10:35:28.936Z</time>
      </trkpt>
      <trkpt lat="43.77281" lon="4.15025">
        <ele>63.49</ele>
        <time>2024-08-26T10:35:31.603Z</time>
      </trkpt>
      <trkpt lat="43.77278" lon="4.14882">
        <ele>63.09</ele>
        <time>2024-08-26T10:35:34.287Z</time>
      </trkpt>
      <trkpt lat="43.7728" lon="4.14791">
        <ele>62</ele>
        <time>2024-08-26T10:35:36.981Z</time>
      </trkpt>
      <trkpt lat="43.7728" lon="4.14791">
        <ele>62</ele>
        <time>2024-08-26T10:35:39.675Z</time>
      </trkpt>
      <trkpt lat="43.77281" lon="4.14754">
        <ele>62.86</ele>
        <time>2024-08-26T10:35:42.373Z</time>
      </trkpt>
      <trkpt lat="43.77292" lon="4.14588">
        <ele>63.24</ele>
        <time>2024-08-26T10:35:45.091Z</time>
      </trkpt>
      <trkpt lat="43.77303" lon="4.14479">
        <ele>63.27</ele>
        <time>2024-08-26T10:35:47.822Z</time>
      </trkpt>
      <trkpt lat="43.77348" lon="4.14157">
        <ele>64.99</ele>
        <time>2024-08-26T10:35:50.591Z</time>
      </trkpt>
      <trkpt lat="43.77352" lon="4.14123">
        <ele>64.4</ele>
        <time>2024-08-26T10:35:53.363Z</time>
      </trkpt>
      <trkpt lat="43.77421" lon="4.1363">
        <ele>64.95</ele>
        <time>2024-08-26T10:35:56.194Z</time>
      </trkpt>
      <trkpt lat="43.77433" lon="4.13541">
        <ele>64.99</ele>
        <time>2024-08-26T10:35:59.035Z</time>
      </trkpt>
      <trkpt lat="43.77433" lon="4.13541">
        <ele>64.99</ele>
        <time>2024-08-26T10:36:01.876Z</time>
      </trkpt>
      <trkpt lat="43.77446" lon="4.13463">
        <ele>64.98</ele>
        <time>2024-08-26T10:36:04.727Z</time>
      </trkpt>
      <trkpt lat="43.77468" lon="4.13352">
        <ele>65.99</ele>
        <time>2024-08-26T10:36:07.591Z</time>
      </trkpt>
      <trkpt lat="43.77491" lon="4.13265">
        <ele>65.52</ele>
        <time>2024-08-26T10:36:10.466Z</time>
      </trkpt>
      <trkpt lat="43.77511" lon="4.13192">
        <ele>64.28</ele>
        <time>2024-08-26T10:36:13.350Z</time>
      </trkpt>
      <trkpt lat="43.77537" lon="4.13117">
        <ele>63.94</ele>
        <time>2024-08-26T10:36:16.243Z</time>
      </trkpt>
      <trkpt lat="43.77567" lon="4.13036">
        <ele>63</ele>
        <time>2024-08-26T10:36:19.147Z</time>
      </trkpt>
      <trkpt lat="43.77579" lon="4.13008">
        <ele>63.55</ele>
        <time>2024-08-26T10:36:22.055Z</time>
      </trkpt>
      <trkpt lat="43.7764" lon="4.12868">
        <ele>63.29</ele>
        <time>2024-08-26T10:36:24.981Z</time>
      </trkpt>
      <trkpt lat="43.77641" lon="4.12865">
        <ele>63.11</ele>
        <time>2024-08-26T10:36:27.908Z</time>
      </trkpt>
      <trkpt lat="43.77641" lon="4.12865">
        <ele>62.91</ele>
        <time>2024-08-26T10:36:30.835Z</time>
      </trkpt>
      <trkpt lat="43.7768" lon="4.12779">
        <ele>62.45</ele>
        <time>2024-08-26T10:36:33.774Z</time>
      </trkpt>
      <trkpt lat="43.77695" lon="4.12736">
        <ele>61.84</ele>
        <time>2024-08-26T10:36:36.718Z</time>
      </trkpt>
      <trkpt lat="43.77707" lon="4.12691">
        <ele>61.61</ele>
        <time>2024-08-26T10:36:39.668Z</time>
      </trkpt>
      <trkpt lat="43.77715" lon="4.12648">
        <ele>61.76</ele>
        <time>2024-08-26T10:36:42.623Z</time>
      </trkpt>
      <trkpt lat="43.77722" lon="4.12588">
        <ele>62.1</ele>
        <time>2024-08-26T10:36:45.585Z</time>
      </trkpt>
      <trkpt lat="43.77724" lon="4.12566">
        <ele>62.22</ele>
        <time>2024-08-26T10:36:48.550Z</time>
      </trkpt>
      <trkpt lat="43.77721" lon="4.12466">
        <ele>62.14</ele>
        <time>2024-08-26T10:36:51.526Z</time>
      </trkpt>
      <trkpt lat="43.77713" lon="4.12362">
        <ele>62.32</ele>
        <time>2024-08-26T10:36:54.514Z</time>
      </trkpt>
      <trkpt lat="43.77702" lon="4.12257">
        <ele>61.93</ele>
        <time>2024-08-26T10:36:57.515Z</time>
      </trkpt>
      <trkpt lat="43.77701" lon="4.12223">
        <ele>61.44</ele>
        <time>2024-08-26T10:37:00.519Z</time>
      </trkpt>
      <trkpt lat="43.77701" lon="4.1217">
        <ele>60.69</ele>
        <time>2024-08-26T10:37:03.530Z</time>
      </trkpt>
      <trkpt lat="43.77703" lon="4.12118">
        <ele>59.91</ele>
        <time>2024-08-26T10:37:06.547Z</time>
      </trkpt>
      <trkpt lat="43.77708" lon="4.12073">
        <ele>59.33</ele>
        <time>2024-08-26T10:37:09.569Z</time>
      </trkpt>
      <trkpt lat="43.77708" lon="4.12073">
        <ele>58.97</ele>
        <time>2024-08-26T10:37:12.591Z</time>
      </trkpt>
      <trkpt lat="43.77709" lon="4.12069">
        <ele>58.66</ele>
        <time>2024-08-26T10:37:15.613Z</time>
      </trkpt>
      <trkpt lat="43.7771" lon="4.12031">
        <ele>58.49</ele>
        <time>2024-08-26T10:37:18.640Z</time>
      </trkpt>
      <trkpt lat="43.77708" lon="4.11994">
        <ele>58.69</ele>
        <time>2024-08-26T10:37:21.671Z</time>
      </trkpt>
      <trkpt lat="43.7771" lon="4.11987">
        <ele>58.72</ele>
        <time>2024-08-26T10:37:24.703Z</time>
      </trkpt>
      <trkpt lat="43.7772" lon="4.11976">
        <ele>58.68</ele>
        <time>2024-08-26T10:37:27.737Z</time>
      </trkpt>
      <trkpt lat="43.7772" lon="4.11976">
        <ele>58.59</ele>
        <time>2024-08-26T10:37:30.771Z</time>
      </trkpt>
      <trkpt lat="43.77728" lon="4.11923">
        <ele>58.37</ele>
        <time>2024-08-26T10:37:33.811Z</time>
      </trkpt>
      <trkpt lat="43.77729" lon="4.11913">
        <ele>58.14</ele>
        <time>2024-08-26T10:37:36.852Z</time>
      </trkpt>
      <trkpt lat="43.77731" lon="4.11895">
        <ele>57.84</ele>
        <time>2024-08-26T10:37:39.896Z</time>
      </trkpt>
      <trkpt lat="43.77744" lon="4.11824">
        <ele>57.45</ele>
        <time>2024-08-26T10:37:42.948Z</time>
      </trkpt>
      <trkpt lat="43.77756" lon="4.11778">
        <ele>57.07</ele>
        <time>2024-08-26T10:37:46.006Z</time>
      </trkpt>
      <trkpt lat="43.77771" lon="4.11733">
        <ele>56.64</ele>
        <time>2024-08-26T10:37:49.069Z</time>
      </trkpt>
      <trkpt lat="43.77796" lon="4.11662">
        <ele>56.58</ele>
        <time>2024-08-26T10:37:52.142Z</time>
      </trkpt>
      <trkpt lat="43.77796" lon="4.11662">
        <ele>56.46</ele>
        <time>2024-08-26T10:37:55.215Z</time>
      </trkpt>
      <trkpt lat="43.77807" lon="4.11633">
        <ele>56.51</ele>
        <time>2024-08-26T10:37:58.291Z</time>
      </trkpt>
      <trkpt lat="43.7789" lon="4.11399">
        <ele>56.7</ele>
        <time>2024-08-26T10:38:01.398Z</time>
      </trkpt>
      <trkpt lat="43.77899" lon="4.11362">
        <ele>56.68</ele>
        <time>2024-08-26T10:38:04.509Z</time>
      </trkpt>
      <trkpt lat="43.77906" lon="4.11323">
        <ele>56.57</ele>
        <time>2024-08-26T10:38:07.625Z</time>
      </trkpt>
      <trkpt lat="43.7791" lon="4.11291">
        <ele>56.09</ele>
        <time>2024-08-26T10:38:10.745Z</time>
      </trkpt>
      <trkpt lat="43.7791" lon="4.11249">
        <ele>55.29</ele>
        <time>2024-08-26T10:38:13.869Z</time>
      </trkpt>
      <trkpt lat="43.77909" lon="4.1123">
        <ele>54.65</ele>
        <time>2024-08-26T10:38:16.996Z</time>
      </trkpt>
      <trkpt lat="43.77909" lon="4.11225">
        <ele>54.08</ele>
        <time>2024-08-26T10:38:20.123Z</time>
      </trkpt>
      <trkpt lat="43.77905" lon="4.11178">
        <ele>53.24</ele>
        <time>2024-08-26T10:38:23.256Z</time>
      </trkpt>
      <trkpt lat="43.77899" lon="4.11158">
        <ele>52.71</ele>
        <time>2024-08-26T10:38:26.391Z</time>
      </trkpt>
      <trkpt lat="43.7788" lon="4.11094">
        <ele>52.18</ele>
        <time>2024-08-26T10:38:29.534Z</time>
      </trkpt>
      <trkpt lat="43.77854" lon="4.11026">
        <ele>52.09</ele>
        <time>2024-08-26T10:38:32.686Z</time>
      </trkpt>
      <trkpt lat="43.77848" lon="4.11015">
        <ele>52.11</ele>
        <time>2024-08-26T10:38:35.840Z</time>
      </trkpt>
      <trkpt lat="43.77834" lon="4.10994">
        <ele>52.34</ele>
        <time>2024-08-26T10:38:38.997Z</time>
      </trkpt>
      <trkpt lat="43.77834" lon="4.10994">
        <ele>52.43</ele>
        <time>2024-08-26T10:38:42.154Z</time>
      </trkpt>
      <trkpt lat="43.77809" lon="4.10968">
        <ele>52.72</ele>
        <time>2024-08-26T10:38:45.316Z</time>
      </trkpt>
      <trkpt lat="43.77778" lon="4.10937">
        <ele>52.88</ele>
        <time>2024-08-26T10:38:48.484Z</time>
      </trkpt>
      <trkpt lat="43.77754" lon="4.10919">
        <ele>52.79</ele>
        <time>2024-08-26T10:38:51.657Z</time>
      </trkpt>
      <trkpt lat="43.77724" lon="4.10902">
        <ele>52.57</ele>
        <time>2024-08-26T10:38:54.835Z</time>
      </trkpt>
      <trkpt lat="43.77685" lon="4.1089">
        <ele>52.02</ele>
        <time>2024-08-26T10:38:58.019Z</time>
      </trkpt>
      <trkpt lat="43.77585" lon="4.10868">
        <ele>51.61</ele>
        <time>2024-08-26T10:39:01.219Z</time>
      </trkpt>
      <trkpt lat="43.77545" lon="4.10863">
        <ele>50.31</ele>
        <time>2024-08-26T10:39:04.426Z</time>
      </trkpt>
      <trkpt lat="43.77506" lon="4.10852">
        <ele>49.06</ele>
        <time>2024-08-26T10:39:07.639Z</time>
      </trkpt>
      <trkpt lat="43.77479" lon="4.10842">
        <ele>48.33</ele>
        <time>2024-08-26T10:39:10.857Z</time>
      </trkpt>
      <trkpt lat="43.77334" lon="4.10769">
        <ele>47.21</ele>
        <time>2024-08-26T10:39:14.099Z</time>
      </trkpt>
      <trkpt lat="43.77261" lon="4.10728">
        <ele>46.09</ele>
        <time>2024-08-26T10:39:17.354Z</time>
      </trkpt>
      <trkpt lat="43.77167" lon="4.1066">
        <ele>45.05</ele>
        <time>2024-08-26T10:39:20.626Z</time>
      </trkpt>
      <trkpt lat="43.77101" lon="4.10605">
        <ele>44.16</ele>
        <time>2024-08-26T10:39:23.910Z</time>
      </trkpt>
      <trkpt lat="43.77101" lon="4.10605">
        <ele>43.5</ele>
        <time>2024-08-26T10:39:27.194Z</time>
      </trkpt>
      <trkpt lat="43.77093" lon="4.10599">
        <ele>42.89</ele>
        <time>2024-08-26T10:39:30.480Z</time>
      </trkpt>
      <trkpt lat="43.77093" lon="4.10599">
        <ele>42.29</ele>
        <time>2024-08-26T10:39:33.766Z</time>
      </trkpt>
      <trkpt lat="43.77044" lon="4.1056">
        <ele>41.65</ele>
        <time>2024-08-26T10:39:37.061Z</time>
      </trkpt>
      <trkpt lat="43.77044" lon="4.1056">
        <ele>40.99</ele>
        <time>2024-08-26T10:39:40.356Z</time>
      </trkpt>
      <trkpt lat="43.76946" lon="4.10482">
        <ele>39.96</ele>
        <time>2024-08-26T10:39:43.669Z</time>
      </trkpt>
      <trkpt lat="43.76843" lon="4.10399">
        <ele>39.39</ele>
        <time>2024-08-26T10:39:47.001Z</time>
      </trkpt>
      <trkpt lat="43.76793" lon="4.10362">
        <ele>39.29</ele>
        <time>2024-08-26T10:39:50.342Z</time>
      </trkpt>
      <trkpt lat="43.76734" lon="4.10314">
        <ele>39.33</ele>
        <time>2024-08-26T10:39:53.694Z</time>
      </trkpt>
      <trkpt lat="43.76706" lon="4.10287">
        <ele>38.93</ele>
        <time>2024-08-26T10:39:57.051Z</time>
      </trkpt>
      <trkpt lat="43.76687" lon="4.10263">
        <ele>38.67</ele>
        <time>2024-08-26T10:40:00.413Z</time>
      </trkpt>
      <trkpt lat="43.76662" lon="4.10227">
        <ele>38.85</ele>
        <time>2024-08-26T10:40:03.780Z</time>
      </trkpt>
      <trkpt lat="43.7665" lon="4.10203">
        <ele>39.28</ele>
        <time>2024-08-26T10:40:07.151Z</time>
      </trkpt>
      <trkpt lat="43.76632" lon="4.10161">
        <ele>39.91</ele>
        <time>2024-08-26T10:40:10.527Z</time>
      </trkpt>
      <trkpt lat="43.76617" lon="4.10106">
        <ele>40.57</ele>
        <time>2024-08-26T10:40:13.910Z</time>
      </trkpt>
      <trkpt lat="43.76608" lon="4.10053">
        <ele>41.16</ele>
        <time>2024-08-26T10:40:17.300Z</time>
      </trkpt>
      <trkpt lat="43.76604" lon="4.10018">
        <ele>41.75</ele>
        <time>2024-08-26T10:40:20.694Z</time>
      </trkpt>
      <trkpt lat="43.76604" lon="4.09974">
        <ele>41.8</ele>
        <time>2024-08-26T10:40:24.093Z</time>
      </trkpt>
      <trkpt lat="43.76607" lon="4.0994">
        <ele>42</ele>
        <time>2024-08-26T10:40:27.496Z</time>
      </trkpt>
      <trkpt lat="43.76607" lon="4.09938">
        <ele>42.14</ele>
        <time>2024-08-26T10:40:30.899Z</time>
      </trkpt>
      <trkpt lat="43.76607" lon="4.09938">
        <ele>42.38</ele>
        <time>2024-08-26T10:40:34.302Z</time>
      </trkpt>
      <trkpt lat="43.76613" lon="4.09893">
        <ele>42.52</ele>
        <time>2024-08-26T10:40:37.710Z</time>
      </trkpt>
      <trkpt lat="43.76613" lon="4.09893">
        <ele>42.55</ele>
        <time>2024-08-26T10:40:41.118Z</time>
      </trkpt>
      <trkpt lat="43.76614" lon="4.09887">
        <ele>42.58</ele>
        <time>2024-08-26T10:40:44.527Z</time>
      </trkpt>
      <trkpt lat="43.76615" lon="4.09877">
        <ele>42.61</ele>
        <time>2024-08-26T10:40:47.937Z</time>
      </trkpt>
      <trkpt lat="43.76656" lon="4.09659">
        <ele>42.49</ele>
        <time>2024-08-26T10:40:51.373Z</time>
      </trkpt>
      <trkpt lat="43.76658" lon="4.0965">
        <ele>42.31</ele>
        <time>2024-08-26T10:40:54.810Z</time>
      </trkpt>
      <trkpt lat="43.76661" lon="4.0963">
        <ele>41.98</ele>
        <time>2024-08-26T10:40:58.250Z</time>
      </trkpt>
      <trkpt lat="43.76668" lon="4.09601">
        <ele>41.6</ele>
        <time>2024-08-26T10:41:01.693Z</time>
      </trkpt>
      <trkpt lat="43.76679" lon="4.09567">
        <ele>41.59</ele>
        <time>2024-08-26T10:41:05.140Z</time>
      </trkpt>
      <trkpt lat="43.76697" lon="4.09518">
        <ele>41.48</ele>
        <time>2024-08-26T10:41:08.594Z</time>
      </trkpt>
      <trkpt lat="43.76719" lon="4.09474">
        <ele>41.06</ele>
        <time>2024-08-26T10:41:12.054Z</time>
      </trkpt>
      <trkpt lat="43.76745" lon="4.09433">
        <ele>40.69</ele>
        <time>2024-08-26T10:41:15.520Z</time>
      </trkpt>
      <trkpt lat="43.76745" lon="4.09433">
        <ele>40.54</ele>
        <time>2024-08-26T10:41:18.986Z</time>
      </trkpt>
      <trkpt lat="43.76768" lon="4.09404">
        <ele>40.51</ele>
        <time>2024-08-26T10:41:22.457Z</time>
      </trkpt>
      <trkpt lat="43.76782" lon="4.09389">
        <ele>40.55</ele>
        <time>2024-08-26T10:41:25.931Z</time>
      </trkpt>
      <trkpt lat="43.76795" lon="4.09374">
        <ele>40.39</ele>
        <time>2024-08-26T10:41:29.408Z</time>
      </trkpt>
      <trkpt lat="43.76824" lon="4.09348">
        <ele>40</ele>
        <time>2024-08-26T10:41:32.891Z</time>
      </trkpt>
      <trkpt lat="43.7688" lon="4.09313">
        <ele>39.45</ele>
        <time>2024-08-26T10:41:36.383Z</time>
      </trkpt>
      <trkpt lat="43.7693" lon="4.09292">
        <ele>38.41</ele>
        <time>2024-08-26T10:41:39.884Z</time>
      </trkpt>
      <trkpt lat="43.76978" lon="4.09282">
        <ele>37.99</ele>
        <time>2024-08-26T10:41:43.392Z</time>
      </trkpt>
      <trkpt lat="43.76999" lon="4.09272">
        <ele>37.55</ele>
        <time>2024-08-26T10:41:46.904Z</time>
      </trkpt>
      <trkpt lat="43.77013" lon="4.09271">
        <ele>37.09</ele>
        <time>2024-08-26T10:41:50.418Z</time>
      </trkpt>
      <trkpt lat="43.77054" lon="4.09269">
        <ele>36.39</ele>
        <time>2024-08-26T10:41:53.939Z</time>
      </trkpt>
      <trkpt lat="43.77078" lon="4.09275">
        <ele>35.96</ele>
        <time>2024-08-26T10:41:57.464Z</time>
      </trkpt>
      <trkpt lat="43.77109" lon="4.09275">
        <ele>35.63</ele>
        <time>2024-08-26T10:42:00.994Z</time>
      </trkpt>
      <trkpt lat="43.77128" lon="4.09274">
        <ele>35.59</ele>
        <time>2024-08-26T10:42:04.527Z</time>
      </trkpt>
      <trkpt lat="43.77195" lon="4.09272">
        <ele>34.77</ele>
        <time>2024-08-26T10:42:08.070Z</time>
      </trkpt>
      <trkpt lat="43.77273" lon="4.09264">
        <ele>35.92</ele>
        <time>2024-08-26T10:42:11.626Z</time>
      </trkpt>
      <trkpt lat="43.77322" lon="4.09267">
        <ele>36.18</ele>
        <time>2024-08-26T10:42:15.190Z</time>
      </trkpt>
      <trkpt lat="43.77383" lon="4.09276">
        <ele>35.77</ele>
        <time>2024-08-26T10:42:18.764Z</time>
      </trkpt>
      <trkpt lat="43.77407" lon="4.09271">
        <ele>35.18</ele>
        <time>2024-08-26T10:42:22.342Z</time>
      </trkpt>
      <trkpt lat="43.77462" lon="4.09279">
        <ele>35.03</ele>
        <time>2024-08-26T10:42:25.928Z</time>
      </trkpt>
      <trkpt lat="43.77475" lon="4.09283">
        <ele>34.93</ele>
        <time>2024-08-26T10:42:29.516Z</time>
      </trkpt>
      <trkpt lat="43.77516" lon="4.09299">
        <ele>34.7</ele>
        <time>2024-08-26T10:42:33.111Z</time>
      </trkpt>
      <trkpt lat="43.77527" lon="4.09301">
        <ele>34.7</ele>
        <time>2024-08-26T10:42:36.708Z</time>
      </trkpt>
      <trkpt lat="43.77527" lon="4.09301">
        <ele>34.99</ele>
        <time>2024-08-26T10:42:40.305Z</time>
      </trkpt>
      <trkpt lat="43.77538" lon="4.09303">
        <ele>35.4</ele>
        <time>2024-08-26T10:42:43.904Z</time>
      </trkpt>
      <trkpt lat="43.7758" lon="4.09313">
        <ele>36.34</ele>
        <time>2024-08-26T10:42:47.510Z</time>
      </trkpt>
      <trkpt lat="43.77643" lon="4.09341">
        <ele>38.25</ele>
        <time>2024-08-26T10:42:51.126Z</time>
      </trkpt>
      <trkpt lat="43.77667" lon="4.09347">
        <ele>40.05</ele>
        <time>2024-08-26T10:42:54.746Z</time>
      </trkpt>
      <trkpt lat="43.7773" lon="4.09353">
        <ele>41.04</ele>
        <time>2024-08-26T10:42:58.376Z</time>
      </trkpt>
      <trkpt lat="43.77754" lon="4.09352">
        <ele>42.36</ele>
        <time>2024-08-26T10:43:02.010Z</time>
      </trkpt>
      <trkpt lat="43.77805" lon="4.09343">
        <ele>43.08</ele>
        <time>2024-08-26T10:43:05.652Z</time>
      </trkpt>
      <trkpt lat="43.77821" lon="4.09341">
        <ele>44.09</ele>
        <time>2024-08-26T10:43:09.297Z</time>
      </trkpt>
      <trkpt lat="43.77816" lon="4.09277">
        <ele>33.9</ele>
      </trkpt>
      <trkpt lat="43.7782" lon="4.09252">
        <ele>29.8</ele>
      </trkpt>
      <trkpt lat="43.78014" lon="4.09194">
        <ele>27.5</ele>
      </trkpt>
      <trkpt lat="43.7809" lon="4.09169">
        <ele>29.9</ele>
      </trkpt>
      <trkpt lat="43.78091" lon="4.091">
        <ele>26.2</ele>
      </trkpt>
      <trkpt lat="43.78099" lon="4.09062">
        <ele>23.2</ele>
      </trkpt>
      <trkpt lat="43.78173" lon="4.09027">
        <ele>23.9</ele>
      </trkpt>
      <trkpt lat="43.78245" lon="4.08943">
        <ele>27.3</ele>
      </trkpt>
      <trkpt lat="43.78181" lon="4.08804">
        <ele>25.9</ele>
      </trkpt>
      <trkpt lat="43.78174" lon="4.08765">
        <ele>25</ele>
      </trkpt>
      <trkpt lat="43.78187" lon="4.08712">
        <ele>25</ele>
      </trkpt>
      <trkpt lat="43.78213" lon="4.08706">
        <ele>25</ele>
      </trkpt>
      <trkpt lat="43.78192" lon="4.08655">
        <ele>25</ele>
      </trkpt>
      <trkpt lat="43.78152" lon="4.08624">
        <ele>25</ele>
      </trkpt>
      <trkpt lat="43.78137" lon="4.08607">
        <ele>25</ele>
      </trkpt>
      <trkpt lat="43.7811" lon="4.08384">
        <ele>26</ele>
      </trkpt>
      <trkpt lat="43.78099" lon="4.08191">
        <ele>27.6</ele>
      </trkpt>
      <trkpt lat="43.78042" lon="4.08105">
        <ele>28</ele>
      </trkpt>
      <trkpt lat="43.77939" lon="4.07938">
        <ele>29</ele>
      </trkpt>
      <trkpt lat="43.77867" lon="4.0782">
        <ele>29.8</ele>
      </trkpt>
      <trkpt lat="43.77849" lon="4.07725">
        <ele>31.5</ele>
      </trkpt>
      <trkpt lat="43.77757" lon="4.0762">
        <ele>32.7</ele>
      </trkpt>
      <trkpt lat="43.77713" lon="4.0755">
        <ele>33</ele>
      </trkpt>
      <trkpt lat="43.77721" lon="4.07453">
        <ele>34.7</ele>
      </trkpt>
      <trkpt lat="43.77588" lon="4.07297">
        <ele>46</ele>
      </trkpt>
      <trkpt lat="43.7748" lon="4.07271">
        <ele>46.3</ele>
      </trkpt>
      <trkpt lat="43.77433" lon="4.07198">
        <ele>46.6</ele>
      </trkpt>
      <trkpt lat="43.77408" lon="4.07052">
        <ele>50.1</ele>
      </trkpt>
      <trkpt lat="43.77185" lon="4.06687">
        <ele>43</ele>
      </trkpt>
      <trkpt lat="43.77009" lon="4.06563">
        <ele>28.9</ele>
      </trkpt>
      <trkpt lat="43.76872" lon="4.06258">
        <ele>27.7</ele>
      </trkpt>
      <trkpt lat="43.76776" lon="4.06134">
        <ele>28.2</ele>
      </trkpt>
      <trkpt lat="43.76584" lon="4.06069">
        <ele>26.5</ele>
      </trkpt>
      <trkpt lat="43.76417" lon="4.05782">
        <ele>39.2</ele>
      </trkpt>
      <trkpt lat="43.76445" lon="4.05578">
        <ele>42.2</ele>
      </trkpt>
      <trkpt lat="43.76445" lon="4.05492">
        <ele>43.4</ele>
      </trkpt>
      <trkpt lat="43.76393" lon="4.05408">
        <ele>45.6</ele>
      </trkpt>
      <trkpt lat="43.76357" lon="4.0535">
        <ele>47.4</ele>
      </trkpt>
      <trkpt lat="43.76349" lon="4.05301">
        <ele>48.5</ele>
      </trkpt>
      <trkpt lat="43.76355" lon="4.05247">
        <ele>51</ele>
      </trkpt>
      <trkpt lat="43.76165" lon="4.04891">
        <ele>52.1</ele>
      </trkpt>
      <trkpt lat="43.76097" lon="4.04728">
        <ele>47.6</ele>
      </trkpt>
      <trkpt lat="43.76053" lon="4.04535">
        <ele>44.4</ele>
      </trkpt>
      <trkpt lat="43.7599" lon="4.04458">
        <ele>43.9</ele>
      </trkpt>
      <trkpt lat="43.75926" lon="4.04323">
        <ele>41.3</ele>
      </trkpt>
      <trkpt lat="43.75959" lon="4.04175">
        <ele>37.9</ele>
      </trkpt>
      <trkpt lat="43.75959" lon="4.04121">
        <ele>38</ele>
      </trkpt>
      <trkpt lat="43.75886" lon="4.03909">
        <ele>40</ele>
      </trkpt>
      <trkpt lat="43.75898" lon="4.03812">
        <ele>41.3</ele>
      </trkpt>
      <trkpt lat="43.75894" lon="4.03703">
        <ele>45.8</ele>
      </trkpt>
      <trkpt lat="43.759" lon="4.03565">
        <ele>48.8</ele>
      </trkpt>
      <trkpt lat="43.75807" lon="4.0311">
        <ele>55</ele>
      </trkpt>
      <trkpt lat="43.75808" lon="4.02947">
        <ele>57</ele>
      </trkpt>
      <trkpt lat="43.75846" lon="4.02769">
        <ele>65.2</ele>
      </trkpt>
      <trkpt lat="43.75714" lon="4.02357">
        <ele>79.8</ele>
      </trkpt>
      <trkpt lat="43.75706" lon="4.02209">
        <ele>77.3</ele>
      </trkpt>
      <trkpt lat="43.75717" lon="4.02074">
        <ele>74.2</ele>
      </trkpt>
      <trkpt lat="43.75743" lon="4.01889">
        <ele>76.2</ele>
      </trkpt>
      <trkpt lat="43.75653" lon="4.01625">
        <ele>74.3</ele>
      </trkpt>
      <trkpt lat="43.75629" lon="4.01529">
        <ele>73.2</ele>
      </trkpt>
      <trkpt lat="43.75631" lon="4.01439">
        <ele>74</ele>
      </trkpt>
      <trkpt lat="43.75589" lon="4.01366">
        <ele>73.1</ele>
      </trkpt>
      <trkpt lat="43.75558" lon="4.01238">
        <ele>72</ele>
      </trkpt>
      <trkpt lat="43.75555" lon="4.01186">
        <ele>71</ele>
      </trkpt>
      <trkpt lat="43.75507" lon="4.01105">
        <ele>70</ele>
      </trkpt>
      <trkpt lat="43.75438" lon="4.0099">
        <ele>68.5</ele>
      </trkpt>
      <trkpt lat="43.75447" lon="4.00923">
        <ele>68</ele>
      </trkpt>
      <trkpt lat="43.75457" lon="4.00894">
        <ele>67.5</ele>
      </trkpt>
      <trkpt lat="43.75524" lon="4.00821">
        <ele>65.1</ele>
      </trkpt>
      <trkpt lat="43.75559" lon="4.00747">
        <ele>61.6</ele>
      </trkpt>
      <trkpt lat="43.75559" lon="4.00624">
        <ele>54.7</ele>
      </trkpt>
      <trkpt lat="43.75538" lon="4.00525">
        <ele>52.2</ele>
      </trkpt>
      <trkpt lat="43.75517" lon="4.00495">
        <ele>52.5</ele>
      </trkpt>
      <trkpt lat="43.75537" lon="4.00427">
        <ele>51.3</ele>
      </trkpt>
      <trkpt lat="43.75554" lon="4.00384">
        <ele>51.4</ele>
      </trkpt>
      <trkpt lat="43.75638" lon="4.00309">
        <ele>51</ele>
      </trkpt>
      <trkpt lat="43.75627" lon="4.0026">
        <ele>51.4</ele>
      </trkpt>
      <trkpt lat="43.75627" lon="4.00236">
        <ele>51.4</ele>
      </trkpt>
      <trkpt lat="43.75673" lon="4.00193">
        <ele>51.1</ele>
      </trkpt>
      <trkpt lat="43.75691" lon="4.00133">
        <ele>54.8</ele>
      </trkpt>
      <trkpt lat="43.7569" lon="3.99988">
        <ele>54.8</ele>
      </trkpt>
      <trkpt lat="43.75699" lon="3.99929">
        <ele>53.8</ele>
      </trkpt>
      <trkpt lat="43.75755" lon="3.99805">
        <ele>55.5</ele>
      </trkpt>
      <trkpt lat="43.75793" lon="3.99756">
        <ele>55.5</ele>
      </trkpt>
      <trkpt lat="43.75807" lon="3.99717">
        <ele>54.9</ele>
      </trkpt>
      <trkpt lat="43.75975" lon="3.9949">
        <ele>58.8</ele>
      </trkpt>
      <trkpt lat="43.7601" lon="3.99409">
        <ele>59.9</ele>
      </trkpt>
      <trkpt lat="43.76063" lon="3.99368">
        <ele>62</ele>
      </trkpt>
      <trkpt lat="43.76116" lon="3.99332">
        <ele>62.2</ele>
      </trkpt>
      <trkpt lat="43.76179" lon="3.99268">
        <ele>62</ele>
      </trkpt>
      <trkpt lat="43.76255" lon="3.99169">
        <ele>65</ele>
      </trkpt>
      <trkpt lat="43.76263" lon="3.99152">
        <ele>65</ele>
      </trkpt>
      <trkpt lat="43.76285" lon="3.99134">
        <ele>64</ele>
      </trkpt>
      <trkpt lat="43.7631" lon="3.9913">
        <ele>63.5</ele>
      </trkpt>
      <trkpt lat="43.76351" lon="3.9916">
        <ele>61.1</ele>
      </trkpt>
      <trkpt lat="43.76376" lon="3.99175">
        <ele>61</ele>
      </trkpt>
      <trkpt lat="43.76396" lon="3.99088">
        <ele>61.7</ele>
      </trkpt>
      <trkpt lat="43.76417" lon="3.99023">
        <ele>62.2</ele>
      </trkpt>
      <trkpt lat="43.76436" lon="3.98996">
        <ele>62.4</ele>
      </trkpt>
      <trkpt lat="43.76482" lon="3.98971">
        <ele>62.4</ele>
      </trkpt>
      <trkpt lat="43.76536" lon="3.98951">
        <ele>64.9</ele>
      </trkpt>
      <trkpt lat="43.76569" lon="3.9892">
        <ele>64.6</ele>
      </trkpt>
      <trkpt lat="43.76578" lon="3.98901">
        <ele>64.9</ele>
      </trkpt>
      <trkpt lat="43.76589" lon="3.98901">
        <ele>64.9</ele>
      </trkpt>
      <trkpt lat="43.76609" lon="3.98933">
        <ele>66.1</ele>
      </trkpt>
      <trkpt lat="43.76615" lon="3.98945">
        <ele>67.3</ele>
      </trkpt>
      <trkpt lat="43.76621" lon="3.98948">
        <ele>67.9</ele>
      </trkpt>
      <trkpt lat="43.76639" lon="3.98945">
        <ele>69</ele>
      </trkpt>
      <trkpt lat="43.76654" lon="3.98939">
        <ele>69.8</ele>
      </trkpt>
      <trkpt lat="43.76659" lon="3.9893">
        <ele>69.8</ele>
      </trkpt>
      <trkpt lat="43.76678" lon="3.98911">
        <ele>70.7</ele>
      </trkpt>
      <trkpt lat="43.76704" lon="3.98893">
        <ele>71.1</ele>
      </trkpt>
      <trkpt lat="43.76732" lon="3.98885">
        <ele>72.3</ele>
      </trkpt>
      <trkpt lat="43.76776" lon="3.98868">
        <ele>77.8</ele>
      </trkpt>
      <trkpt lat="43.76791" lon="3.98868">
        <ele>79</ele>
      </trkpt>
      <trkpt lat="43.76802" lon="3.98893">
        <ele>79.7</ele>
      </trkpt>
      <trkpt lat="43.76775" lon="3.98651">
        <ele>74.4</ele>
      </trkpt>
      <trkpt lat="43.76794" lon="3.98468">
        <ele>71.1</ele>
      </trkpt>
      <trkpt lat="43.76798" lon="3.98291">
        <ele>71.9</ele>
      </trkpt>
      <trkpt lat="43.7677" lon="3.97989">
        <ele>73.3</ele>
      </trkpt>
      <trkpt lat="43.76763" lon="3.9775">
        <ele>76</ele>
      </trkpt>
      <trkpt lat="43.7678" lon="3.9754">
        <ele>80.1</ele>
      </trkpt>
      <trkpt lat="43.76816" lon="3.97224">
        <ele>82.4</ele>
      </trkpt>
      <trkpt lat="43.76883" lon="3.96937">
        <ele>84.8</ele>
      </trkpt>
      <trkpt lat="43.76888" lon="3.96699">
        <ele>86</ele>
      </trkpt>
      <trkpt lat="43.76925" lon="3.96418">
        <ele>91</ele>
      </trkpt>
      <trkpt lat="43.76968" lon="3.96259">
        <ele>95.7</ele>
      </trkpt>
      <trkpt lat="43.77016" lon="3.95995">
        <ele>104.5</ele>
      </trkpt>
      <trkpt lat="43.77042" lon="3.95866">
        <ele>109.1</ele>
      </trkpt>
      <trkpt lat="43.77049" lon="3.95814">
        <ele>109.5</ele>
      </trkpt>
      <trkpt lat="43.76997" lon="3.95683">
        <ele>112.5</ele>
      </trkpt>
      <trkpt lat="43.76973" lon="3.95618">
        <ele>112.1</ele>
      </trkpt>
      <trkpt lat="43.76937" lon="3.95459">
        <ele>111</ele>
      </trkpt>
      <trkpt lat="43.76935" lon="3.95384">
        <ele>111.3</ele>
      </trkpt>
      <trkpt lat="43.7695" lon="3.95161">
        <ele>112.6</ele>
      </trkpt>
      <trkpt lat="43.76975" lon="3.95019">
        <ele>118</ele>
      </trkpt>
      <trkpt lat="43.76994" lon="3.94927">
        <ele>121.1</ele>
      </trkpt>
      <trkpt lat="43.77032" lon="3.94819">
        <ele>124.3</ele>
      </trkpt>
      <trkpt lat="43.77037" lon="3.94803">
        <ele>129.41</ele>
        <time>2024-08-26T11:45:57.833Z</time>
      </trkpt>
      <trkpt lat="43.77051" lon="3.94761">
        <ele>129.06</ele>
        <time>2024-08-26T11:46:05.365Z</time>
      </trkpt>
      <trkpt lat="43.7706" lon="3.94723">
        <ele>128.99</ele>
        <time>2024-08-26T11:46:12.902Z</time>
      </trkpt>
      <trkpt lat="43.77063" lon="3.94685">
        <ele>128.9</ele>
        <time>2024-08-26T11:46:20.443Z</time>
      </trkpt>
      <trkpt lat="43.77062" lon="3.94669">
        <ele>128.84</ele>
        <time>2024-08-26T11:46:27.986Z</time>
      </trkpt>
      <trkpt lat="43.77053" lon="3.94599">
        <ele>128.73</ele>
        <time>2024-08-26T11:46:35.537Z</time>
      </trkpt>
      <trkpt lat="43.77058" lon="3.94594">
        <ele>128.91</ele>
        <time>2024-08-26T11:46:43.089Z</time>
      </trkpt>
      <trkpt lat="43.77059" lon="3.94585">
        <ele>129.05</ele>
        <time>2024-08-26T11:46:50.642Z</time>
      </trkpt>
      <trkpt lat="43.77056" lon="3.9458">
        <ele>129.09</ele>
        <time>2024-08-26T11:46:58.196Z</time>
      </trkpt>
      <trkpt lat="43.77051" lon="3.94578">
        <ele>129.07</ele>
        <time>2024-08-26T11:47:05.751Z</time>
      </trkpt>
      <trkpt lat="43.77042" lon="3.94527">
        <ele>129.19</ele>
        <time>2024-08-26T11:47:13.312Z</time>
      </trkpt>
      <trkpt lat="43.7704" lon="3.94515">
        <ele>129.64</ele>
        <time>2024-08-26T11:47:20.874Z</time>
      </trkpt>
      <trkpt lat="43.76991" lon="3.94213">
        <ele>129.29</ele>
        <time>2024-08-26T11:47:28.472Z</time>
      </trkpt>
      <trkpt lat="43.76977" lon="3.94141">
        <ele>129.88</ele>
        <time>2024-08-26T11:47:36.079Z</time>
      </trkpt>
      <trkpt lat="43.7697" lon="3.9409">
        <ele>130.16</ele>
        <time>2024-08-26T11:47:43.692Z</time>
      </trkpt>
      <trkpt lat="43.76967" lon="3.94047">
        <ele>130.39</ele>
        <time>2024-08-26T11:47:51.310Z</time>
      </trkpt>
      <trkpt lat="43.76967" lon="3.94043">
        <ele>130.51</ele>
        <time>2024-08-26T11:47:58.928Z</time>
      </trkpt>
      <trkpt lat="43.76968" lon="3.93995">
        <ele>130.62</ele>
        <time>2024-08-26T11:48:06.552Z</time>
      </trkpt>
      <trkpt lat="43.76971" lon="3.93958">
        <ele>130.61</ele>
        <time>2024-08-26T11:48:14.180Z</time>
      </trkpt>
      <trkpt lat="43.76978" lon="3.93915">
        <ele>130.39</ele>
        <time>2024-08-26T11:48:21.814Z</time>
      </trkpt>
      <trkpt lat="43.76985" lon="3.93881">
        <ele>130.13</ele>
        <time>2024-08-26T11:48:29.452Z</time>
      </trkpt>
      <trkpt lat="43.76998" lon="3.9384">
        <ele>129.87</ele>
        <time>2024-08-26T11:48:37.095Z</time>
      </trkpt>
      <trkpt lat="43.77011" lon="3.93808">
        <ele>129.81</ele>
        <time>2024-08-26T11:48:44.742Z</time>
      </trkpt>
      <trkpt lat="43.77026" lon="3.93782">
        <ele>129.86</ele>
        <time>2024-08-26T11:48:52.393Z</time>
      </trkpt>
      <trkpt lat="43.77091" lon="3.93679">
        <ele>129.45</ele>
        <time>2024-08-26T11:49:00.060Z</time>
      </trkpt>
      <trkpt lat="43.77111" lon="3.93645">
        <ele>129.42</ele>
        <time>2024-08-26T11:49:07.732Z</time>
      </trkpt>
      <trkpt lat="43.77153" lon="3.93578">
        <ele>128.89</ele>
        <time>2024-08-26T11:49:15.414Z</time>
      </trkpt>
      <trkpt lat="43.7717" lon="3.93551">
        <ele>128.47</ele>
        <time>2024-08-26T11:49:23.100Z</time>
      </trkpt>
      <trkpt lat="43.77183" lon="3.93536">
        <ele>128.05</ele>
        <time>2024-08-26T11:49:30.789Z</time>
      </trkpt>
      <trkpt lat="43.77198" lon="3.93522">
        <ele>127.58</ele>
        <time>2024-08-26T11:49:38.481Z</time>
      </trkpt>
      <trkpt lat="43.77212" lon="3.93512">
        <ele>127.01</ele>
        <time>2024-08-26T11:49:46.175Z</time>
      </trkpt>
      <trkpt lat="43.7724" lon="3.93499">
        <ele>126.51</ele>
        <time>2024-08-26T11:49:53.874Z</time>
      </trkpt>
      <trkpt lat="43.77277" lon="3.93483">
        <ele>126.33</ele>
        <time>2024-08-26T11:50:01.579Z</time>
      </trkpt>
      <trkpt lat="43.77313" lon="3.93466">
        <ele>126.7</ele>
        <time>2024-08-26T11:50:09.290Z</time>
      </trkpt>
      <trkpt lat="43.77384" lon="3.93437">
        <ele>126.12</ele>
        <time>2024-08-26T11:50:17.013Z</time>
      </trkpt>
      <trkpt lat="43.77405" lon="3.93433">
        <ele>124.94</ele>
        <time>2024-08-26T11:50:24.740Z</time>
      </trkpt>
      <trkpt lat="43.77652" lon="3.93424">
        <ele>122.53</ele>
        <time>2024-08-26T11:50:32.506Z</time>
      </trkpt>
      <trkpt lat="43.7767" lon="3.93423">
        <ele>121.85</ele>
        <time>2024-08-26T11:50:40.275Z</time>
      </trkpt>
      <trkpt lat="43.7767" lon="3.93423">
        <ele>121.77</ele>
        <time>2024-08-26T11:50:48.044Z</time>
      </trkpt>
      <trkpt lat="43.7769" lon="3.93421">
        <ele>121.35</ele>
        <time>2024-08-26T11:50:55.816Z</time>
      </trkpt>
      <trkpt lat="43.77696" lon="3.9342">
        <ele>120.88</ele>
        <time>2024-08-26T11:51:03.589Z</time>
      </trkpt>
      <trkpt lat="43.77706" lon="3.93414">
        <ele>120.43</ele>
        <time>2024-08-26T11:51:11.364Z</time>
      </trkpt>
      <trkpt lat="43.77736" lon="3.93395">
        <ele>119.89</ele>
        <time>2024-08-26T11:51:19.144Z</time>
      </trkpt>
      <trkpt lat="43.77756" lon="3.93388">
        <ele>119.08</ele>
        <time>2024-08-26T11:51:26.927Z</time>
      </trkpt>
      <trkpt lat="43.77768" lon="3.93386">
        <ele>118.16</ele>
        <time>2024-08-26T11:51:34.712Z</time>
      </trkpt>
      <trkpt lat="43.77824" lon="3.93381">
        <ele>117.41</ele>
        <time>2024-08-26T11:51:42.506Z</time>
      </trkpt>
      <trkpt lat="43.77921" lon="3.93359">
        <ele>115.87</ele>
        <time>2024-08-26T11:51:50.316Z</time>
      </trkpt>
      <trkpt lat="43.77934" lon="3.93354">
        <ele>114.95</ele>
        <time>2024-08-26T11:51:58.128Z</time>
      </trkpt>
      <trkpt lat="43.77955" lon="3.93337">
        <ele>114.02</ele>
        <time>2024-08-26T11:52:05.944Z</time>
      </trkpt>
      <trkpt lat="43.77984" lon="3.93313">
        <ele>112.61</ele>
        <time>2024-08-26T11:52:13.766Z</time>
      </trkpt>
      <trkpt lat="43.78058" lon="3.93246">
        <ele>111.77</ele>
        <time>2024-08-26T11:52:21.602Z</time>
      </trkpt>
      <trkpt lat="43.78075" lon="3.93226">
        <ele>111.28</ele>
        <time>2024-08-26T11:52:29.441Z</time>
      </trkpt>
      <trkpt lat="43.78085" lon="3.93211">
        <ele>110.93</ele>
        <time>2024-08-26T11:52:37.283Z</time>
      </trkpt>
      <trkpt lat="43.78093" lon="3.9319">
        <ele>110.79</ele>
        <time>2024-08-26T11:52:45.127Z</time>
      </trkpt>
      <trkpt lat="43.78098" lon="3.93171">
        <ele>110.84</ele>
        <time>2024-08-26T11:52:52.974Z</time>
      </trkpt>
      <trkpt lat="43.78101" lon="3.93146">
        <ele>111.09</ele>
        <time>2024-08-26T11:53:00.824Z</time>
      </trkpt>
      <trkpt lat="43.78102" lon="3.93123">
        <ele>111.83</ele>
        <time>2024-08-26T11:53:08.676Z</time>
      </trkpt>
      <trkpt lat="43.78104" lon="3.93008">
        <ele>112.47</ele>
        <time>2024-08-26T11:53:16.542Z</time>
      </trkpt>
      <trkpt lat="43.78102" lon="3.92978">
        <ele>113.28</ele>
        <time>2024-08-26T11:53:24.411Z</time>
      </trkpt>
      <trkpt lat="43.78102" lon="3.92978">
        <ele>114.13</ele>
        <time>2024-08-26T11:53:32.280Z</time>
      </trkpt>
      <trkpt lat="43.78078" lon="3.92898">
        <ele>115.56</ele>
        <time>2024-08-26T11:53:40.159Z</time>
      </trkpt>
      <trkpt lat="43.78073" lon="3.92876">
        <ele>116.28</ele>
        <time>2024-08-26T11:53:48.041Z</time>
      </trkpt>
      <trkpt lat="43.78069" lon="3.92811">
        <ele>116.93</ele>
        <time>2024-08-26T11:53:55.931Z</time>
      </trkpt>
      <trkpt lat="43.7806" lon="3.92668">
        <ele>117.79</ele>
        <time>2024-08-26T11:54:03.837Z</time>
      </trkpt>
      <trkpt lat="43.7806" lon="3.92629">
        <ele>118.55</ele>
        <time>2024-08-26T11:54:11.748Z</time>
      </trkpt>
      <trkpt lat="43.78063" lon="3.92565">
        <ele>118.81</ele>
        <time>2024-08-26T11:54:19.666Z</time>
      </trkpt>
      <trkpt lat="43.78069" lon="3.92372">
        <ele>118.42</ele>
        <time>2024-08-26T11:54:27.607Z</time>
      </trkpt>
      <trkpt lat="43.78072" lon="3.92312">
        <ele>118.05</ele>
        <time>2024-08-26T11:54:35.555Z</time>
      </trkpt>
      <trkpt lat="43.78075" lon="3.9216">
        <ele>117.83</ele>
        <time>2024-08-26T11:54:43.520Z</time>
      </trkpt>
      <trkpt lat="43.78072" lon="3.92118">
        <ele>117.4</ele>
        <time>2024-08-26T11:54:51.490Z</time>
      </trkpt>
      <trkpt lat="43.78068" lon="3.9208">
        <ele>117.05</ele>
        <time>2024-08-26T11:54:59.464Z</time>
      </trkpt>
      <trkpt lat="43.78064" lon="3.92061">
        <ele>116.68</ele>
        <time>2024-08-26T11:55:07.441Z</time>
      </trkpt>
      <trkpt lat="43.78029" lon="3.91952">
        <ele>116.35</ele>
        <time>2024-08-26T11:55:15.432Z</time>
      </trkpt>
      <trkpt lat="43.7802" lon="3.91916">
        <ele>115.72</ele>
        <time>2024-08-26T11:55:23.427Z</time>
      </trkpt>
      <trkpt lat="43.78018" lon="3.91904">
        <ele>115.33</ele>
        <time>2024-08-26T11:55:31.423Z</time>
      </trkpt>
      <trkpt lat="43.78016" lon="3.91889">
        <ele>112.13</ele>
        <time>2024-08-26T11:55:39.421Z</time>
      </trkpt>
      <trkpt lat="43.78011" lon="3.91806">
        <ele>110.9</ele>
        <time>2024-08-26T11:55:47.429Z</time>
      </trkpt>
      <trkpt lat="43.78009" lon="3.91779">
        <ele>110.34</ele>
        <time>2024-08-26T11:55:55.440Z</time>
      </trkpt>
      <trkpt lat="43.78007" lon="3.91712">
        <ele>110.31</ele>
        <time>2024-08-26T11:56:03.459Z</time>
      </trkpt>
      <trkpt lat="43.77993" lon="3.91708">
        <ele>110.85</ele>
        <time>2024-08-26T11:56:11.480Z</time>
      </trkpt>
      <trkpt lat="43.77969" lon="3.91688">
        <ele>111.53</ele>
        <time>2024-08-26T11:56:19.505Z</time>
      </trkpt>
      <trkpt lat="43.77952" lon="3.91667">
        <ele>111.82</ele>
        <time>2024-08-26T11:56:27.534Z</time>
      </trkpt>
      <trkpt lat="43.77946" lon="3.91662">
        <ele>112.13</ele>
        <time>2024-08-26T11:56:35.564Z</time>
      </trkpt>
      <trkpt lat="43.77931" lon="3.9165">
        <ele>112.4</ele>
        <time>2024-08-26T11:56:43.597Z</time>
      </trkpt>
      <trkpt lat="43.77905" lon="3.91624">
        <ele>113</ele>
        <time>2024-08-26T11:56:51.635Z</time>
      </trkpt>
      <trkpt lat="43.77905" lon="3.91624">
        <ele>113.25</ele>
        <time>2024-08-26T11:56:59.673Z</time>
      </trkpt>
      <trkpt lat="43.77894" lon="3.91614">
        <ele>113.55</ele>
        <time>2024-08-26T11:57:07.713Z</time>
      </trkpt>
      <trkpt lat="43.77861" lon="3.91561">
        <ele>113.36</ele>
        <time>2024-08-26T11:57:15.761Z</time>
      </trkpt>
      <trkpt lat="43.77825" lon="3.91519">
        <ele>113.24</ele>
        <time>2024-08-26T11:57:23.817Z</time>
      </trkpt>
      <trkpt lat="43.77808" lon="3.91488">
        <ele>113.04</ele>
        <time>2024-08-26T11:57:31.877Z</time>
      </trkpt>
      <trkpt lat="43.7779" lon="3.91446">
        <ele>112.66</ele>
        <time>2024-08-26T11:57:39.943Z</time>
      </trkpt>
      <trkpt lat="43.77766" lon="3.91403">
        <ele>112.02</ele>
        <time>2024-08-26T11:57:48.015Z</time>
      </trkpt>
      <trkpt lat="43.77755" lon="3.91384">
        <ele>110.08</ele>
        <time>2024-08-26T11:57:56.090Z</time>
      </trkpt>
      <trkpt lat="43.77727" lon="3.91345">
        <ele>109.59</ele>
        <time>2024-08-26T11:58:04.172Z</time>
      </trkpt>
      <trkpt lat="43.77708" lon="3.91315">
        <ele>109.78</ele>
        <time>2024-08-26T11:58:12.258Z</time>
      </trkpt>
      <trkpt lat="43.77698" lon="3.91285">
        <ele>110.21</ele>
        <time>2024-08-26T11:58:20.348Z</time>
      </trkpt>
      <trkpt lat="43.77677" lon="3.91253">
        <ele>110.53</ele>
        <time>2024-08-26T11:58:28.443Z</time>
      </trkpt>
      <trkpt lat="43.77661" lon="3.91231">
        <ele>110.65</ele>
        <time>2024-08-26T11:58:36.542Z</time>
      </trkpt>
      <trkpt lat="43.77657" lon="3.91225">
        <ele>110.76</ele>
        <time>2024-08-26T11:58:44.642Z</time>
      </trkpt>
      <trkpt lat="43.77641" lon="3.91194">
        <ele>110.8</ele>
        <time>2024-08-26T11:58:52.746Z</time>
      </trkpt>
      <trkpt lat="43.77626" lon="3.91171">
        <ele>110.94</ele>
        <time>2024-08-26T11:59:00.854Z</time>
      </trkpt>
      <trkpt lat="43.77619" lon="3.91164">
        <ele>111.06</ele>
        <time>2024-08-26T11:59:08.963Z</time>
      </trkpt>
      <trkpt lat="43.77597" lon="3.91146">
        <ele>111.22</ele>
        <time>2024-08-26T11:59:17.076Z</time>
      </trkpt>
      <trkpt lat="43.77572" lon="3.91134">
        <ele>111.45</ele>
        <time>2024-08-26T11:59:25.193Z</time>
      </trkpt>
      <trkpt lat="43.77554" lon="3.91129">
        <ele>111.77</ele>
        <time>2024-08-26T11:59:33.313Z</time>
      </trkpt>
      <trkpt lat="43.77551" lon="3.91125">
        <ele>111.94</ele>
        <time>2024-08-26T11:59:41.434Z</time>
      </trkpt>
      <trkpt lat="43.77549" lon="3.91123">
        <ele>112.09</ele>
        <time>2024-08-26T11:59:49.555Z</time>
      </trkpt>
      <trkpt lat="43.77546" lon="3.9112">
        <ele>112.21</ele>
        <time>2024-08-26T11:59:57.677Z</time>
      </trkpt>
      <trkpt lat="43.77504" lon="3.91105">
        <ele>112.35</ele>
        <time>2024-08-26T12:00:05.806Z</time>
      </trkpt>
      <trkpt lat="43.77492" lon="3.91096">
        <ele>112.53</ele>
        <time>2024-08-26T12:00:13.937Z</time>
      </trkpt>
      <trkpt lat="43.77485" lon="3.91091">
        <ele>112.65</ele>
        <time>2024-08-26T12:00:22.069Z</time>
      </trkpt>
      <trkpt lat="43.77461" lon="3.91055">
        <ele>112.62</ele>
        <time>2024-08-26T12:00:30.207Z</time>
      </trkpt>
      <trkpt lat="43.77446" lon="3.91039">
        <ele>112.66</ele>
        <time>2024-08-26T12:00:38.348Z</time>
      </trkpt>
      <trkpt lat="43.77425" lon="3.91023">
        <ele>112.76</ele>
        <time>2024-08-26T12:00:46.493Z</time>
      </trkpt>
      <trkpt lat="43.77395" lon="3.91001">
        <ele>112.78</ele>
        <time>2024-08-26T12:00:54.643Z</time>
      </trkpt>
      <trkpt lat="43.77357" lon="3.90988">
        <ele>112.68</ele>
        <time>2024-08-26T12:01:02.800Z</time>
      </trkpt>
      <trkpt lat="43.77345" lon="3.90977">
        <ele>112.68</ele>
        <time>2024-08-26T12:01:10.959Z</time>
      </trkpt>
      <trkpt lat="43.77336" lon="3.9096">
        <ele>112.7</ele>
        <time>2024-08-26T12:01:19.120Z</time>
      </trkpt>
      <trkpt lat="43.77328" lon="3.90923">
        <ele>112.72</ele>
        <time>2024-08-26T12:01:27.286Z</time>
      </trkpt>
      <trkpt lat="43.77325" lon="3.90919">
        <ele>112.71</ele>
        <time>2024-08-26T12:01:35.452Z</time>
      </trkpt>
      <trkpt lat="43.77356" lon="3.90901">
        <ele>112.63</ele>
        <time>2024-08-26T12:01:43.624Z</time>
      </trkpt>
      <trkpt lat="43.77358" lon="3.90893">
        <ele>112.62</ele>
        <time>2024-08-26T12:01:51.797Z</time>
      </trkpt>
      <trkpt lat="43.7735" lon="3.90864">
        <ele>112.6</ele>
        <time>2024-08-26T12:01:59.973Z</time>
      </trkpt>
      <trkpt lat="43.77348" lon="3.90848">
        <ele>112.51</ele>
        <time>2024-08-26T12:02:08.151Z</time>
      </trkpt>
      <trkpt lat="43.77353" lon="3.90846">
        <ele>112.36</ele>
        <time>2024-08-26T12:02:16.330Z</time>
      </trkpt>
      <trkpt lat="43.77347" lon="3.90824">
        <ele>112.16</ele>
        <time>2024-08-26T12:02:24.512Z</time>
      </trkpt>
      <trkpt lat="43.7734" lon="3.90785">
        <ele>111.79</ele>
        <time>2024-08-26T12:02:32.698Z</time>
      </trkpt>
      <trkpt lat="43.77345" lon="3.9075">
        <ele>111.49</ele>
        <time>2024-08-26T12:02:40.888Z</time>
      </trkpt>
      <trkpt lat="43.77347" lon="3.90738">
        <ele>111.26</ele>
        <time>2024-08-26T12:02:49.080Z</time>
      </trkpt>
      <trkpt lat="43.77353" lon="3.90698">
        <ele>110.97</ele>
        <time>2024-08-26T12:02:57.277Z</time>
      </trkpt>
      <trkpt lat="43.77356" lon="3.90687">
        <ele>110.83</ele>
        <time>2024-08-26T12:03:05.475Z</time>
      </trkpt>
      <trkpt lat="43.77356" lon="3.90687">
        <ele>110.71</ele>
        <time>2024-08-26T12:03:13.673Z</time>
      </trkpt>
      <trkpt lat="43.77358" lon="3.90664">
        <ele>110.6</ele>
        <time>2024-08-26T12:03:21.874Z</time>
      </trkpt>
      <trkpt lat="43.77358" lon="3.90631">
        <ele>110.64</ele>
        <time>2024-08-26T12:03:30.078Z</time>
      </trkpt>
      <trkpt lat="43.77354" lon="3.90529">
        <ele>110.69</ele>
        <time>2024-08-26T12:03:38.294Z</time>
      </trkpt>
      <trkpt lat="43.77351" lon="3.90501">
        <ele>110.35</ele>
        <time>2024-08-26T12:03:46.514Z</time>
      </trkpt>
      <trkpt lat="43.77342" lon="3.90458">
        <ele>110.1</ele>
        <time>2024-08-26T12:03:54.739Z</time>
      </trkpt>
      <trkpt lat="43.77342" lon="3.90458">
        <ele>110.77</ele>
        <time>2024-08-26T12:04:02.964Z</time>
      </trkpt>
      <trkpt lat="43.77337" lon="3.90436">
        <ele>111.24</ele>
        <time>2024-08-26T12:04:11.191Z</time>
      </trkpt>
      <trkpt lat="43.77331" lon="3.90374">
        <ele>111.74</ele>
        <time>2024-08-26T12:04:19.426Z</time>
      </trkpt>
      <trkpt lat="43.77323" lon="3.90292">
        <ele>113.03</ele>
        <time>2024-08-26T12:04:27.670Z</time>
      </trkpt>
      <trkpt lat="43.77323" lon="3.90269">
        <ele>114.09</ele>
        <time>2024-08-26T12:04:35.917Z</time>
      </trkpt>
      <trkpt lat="43.77332" lon="3.90228">
        <ele>115.39</ele>
        <time>2024-08-26T12:04:44.169Z</time>
      </trkpt>
      <trkpt lat="43.77339" lon="3.9017">
        <ele>116.92</ele>
        <time>2024-08-26T12:04:52.428Z</time>
      </trkpt>
      <trkpt lat="43.77364" lon="3.90069">
        <ele>118.47</ele>
        <time>2024-08-26T12:05:00.699Z</time>
      </trkpt>
      <trkpt lat="43.77373" lon="3.90048">
        <ele>119.61</ele>
        <time>2024-08-26T12:05:08.973Z</time>
      </trkpt>
      <trkpt lat="43.77393" lon="3.90008">
        <ele>120.38</ele>
        <time>2024-08-26T12:05:17.252Z</time>
      </trkpt>
      <trkpt lat="43.77404" lon="3.89973">
        <ele>121.44</ele>
        <time>2024-08-26T12:05:25.536Z</time>
      </trkpt>
      <trkpt lat="43.77416" lon="3.8991">
        <ele>122.22</ele>
        <time>2024-08-26T12:05:33.828Z</time>
      </trkpt>
      <trkpt lat="43.7742" lon="3.89889">
        <ele>122.19</ele>
        <time>2024-08-26T12:05:42.122Z</time>
      </trkpt>
      <trkpt lat="43.77415" lon="3.89807">
        <ele>121.51</ele>
        <time>2024-08-26T12:05:50.426Z</time>
      </trkpt>
      <trkpt lat="43.77413" lon="3.8977">
        <ele>121.1</ele>
        <time>2024-08-26T12:05:58.734Z</time>
      </trkpt>
      <trkpt lat="43.77415" lon="3.89766">
        <ele>120.84</ele>
        <time>2024-08-26T12:06:07.042Z</time>
      </trkpt>
      <trkpt lat="43.7742" lon="3.89752">
        <ele>120.62</ele>
        <time>2024-08-26T12:06:15.352Z</time>
      </trkpt>
      <trkpt lat="43.77409" lon="3.89743">
        <ele>120.76</ele>
        <time>2024-08-26T12:06:23.664Z</time>
      </trkpt>
      <trkpt lat="43.77398" lon="3.89736">
        <ele>121.05</ele>
        <time>2024-08-26T12:06:31.978Z</time>
      </trkpt>
      <trkpt lat="43.77381" lon="3.89681">
        <ele>121.59</ele>
        <time>2024-08-26T12:06:40.299Z</time>
      </trkpt>
      <trkpt lat="43.77372" lon="3.89667">
        <ele>122.02</ele>
        <time>2024-08-26T12:06:48.622Z</time>
      </trkpt>
      <trkpt lat="43.77339" lon="3.8965">
        <ele>122.7</ele>
        <time>2024-08-26T12:06:56.951Z</time>
      </trkpt>
      <trkpt lat="43.77329" lon="3.89637">
        <ele>123.26</ele>
        <time>2024-08-26T12:07:05.282Z</time>
      </trkpt>
      <trkpt lat="43.77312" lon="3.89627">
        <ele>123.96</ele>
        <time>2024-08-26T12:07:13.616Z</time>
      </trkpt>
      <trkpt lat="43.7726" lon="3.89601">
        <ele>124.91</ele>
        <time>2024-08-26T12:07:21.959Z</time>
      </trkpt>
      <trkpt lat="43.77243" lon="3.89595">
        <ele>125.86</ele>
        <time>2024-08-26T12:07:30.305Z</time>
      </trkpt>
      <trkpt lat="43.77231" lon="3.89586">
        <ele>126.73</ele>
        <time>2024-08-26T12:07:38.653Z</time>
      </trkpt>
      <trkpt lat="43.77211" lon="3.89556">
        <ele>127.64</ele>
        <time>2024-08-26T12:07:47.006Z</time>
      </trkpt>
      <trkpt lat="43.77197" lon="3.8954">
        <ele>128.63</ele>
        <time>2024-08-26T12:07:55.361Z</time>
      </trkpt>
      <trkpt lat="43.77187" lon="3.89533">
        <ele>129.79</ele>
        <time>2024-08-26T12:08:03.718Z</time>
      </trkpt>
      <trkpt lat="43.77157" lon="3.89535">
        <ele>131.47</ele>
        <time>2024-08-26T12:08:12.080Z</time>
      </trkpt>
      <trkpt lat="43.77141" lon="3.89523">
        <ele>132.82</ele>
        <time>2024-08-26T12:08:20.445Z</time>
      </trkpt>
      <trkpt lat="43.77108" lon="3.89494">
        <ele>134.2</ele>
        <time>2024-08-26T12:08:28.816Z</time>
      </trkpt>
      <trkpt lat="43.77086" lon="3.89474">
        <ele>135.21</ele>
        <time>2024-08-26T12:08:37.191Z</time>
      </trkpt>
      <trkpt lat="43.77054" lon="3.89441">
        <ele>136.1</ele>
        <time>2024-08-26T12:08:45.573Z</time>
      </trkpt>
      <trkpt lat="43.77016" lon="3.89403">
        <ele>141.41</ele>
        <time>2024-08-26T12:08:53.962Z</time>
      </trkpt>
      <trkpt lat="43.76985" lon="3.89377">
        <ele>141.88</ele>
        <time>2024-08-26T12:09:02.357Z</time>
      </trkpt>
      <trkpt lat="43.76975" lon="3.89371">
        <ele>142.18</ele>
        <time>2024-08-26T12:09:10.754Z</time>
      </trkpt>
      <trkpt lat="43.76963" lon="3.89365">
        <ele>142.39</ele>
        <time>2024-08-26T12:09:19.153Z</time>
      </trkpt>
      <trkpt lat="43.76925" lon="3.89361">
        <ele>142.78</ele>
        <time>2024-08-26T12:09:27.558Z</time>
      </trkpt>
      <trkpt lat="43.76918" lon="3.89355">
        <ele>142.59</ele>
        <time>2024-08-26T12:09:35.964Z</time>
      </trkpt>
      <trkpt lat="43.76911" lon="3.89337">
        <ele>141.81</ele>
        <time>2024-08-26T12:09:44.373Z</time>
      </trkpt>
      <trkpt lat="43.76904" lon="3.89327">
        <ele>140.81</ele>
        <time>2024-08-26T12:09:52.783Z</time>
      </trkpt>
      <trkpt lat="43.76893" lon="3.89317">
        <ele>139.59</ele>
        <time>2024-08-26T12:10:01.195Z</time>
      </trkpt>
      <trkpt lat="43.76867" lon="3.89304">
        <ele>138.22</ele>
        <time>2024-08-26T12:10:09.612Z</time>
      </trkpt>
      <trkpt lat="43.76845" lon="3.89301">
        <ele>136.75</ele>
        <time>2024-08-26T12:10:18.032Z</time>
      </trkpt>
      <trkpt lat="43.76839" lon="3.89296">
        <ele>135.24</ele>
        <time>2024-08-26T12:10:26.453Z</time>
      </trkpt>
      <trkpt lat="43.76835" lon="3.89281">
        <ele>133.57</ele>
        <time>2024-08-26T12:10:34.876Z</time>
      </trkpt>
      <trkpt lat="43.76808" lon="3.89268">
        <ele>132.15</ele>
        <time>2024-08-26T12:10:43.304Z</time>
      </trkpt>
      <trkpt lat="43.76772" lon="3.89241">
        <ele>130.4</ele>
        <time>2024-08-26T12:10:51.739Z</time>
      </trkpt>
      <trkpt lat="43.76679" lon="3.89165">
        <ele>127.84</ele>
        <time>2024-08-26T12:11:00.191Z</time>
      </trkpt>
      <trkpt lat="43.76679" lon="3.89165">
        <ele>126.38</ele>
        <time>2024-08-26T12:11:08.643Z</time>
      </trkpt>
      <trkpt lat="43.76672" lon="3.89161">
        <ele>125.16</ele>
        <time>2024-08-26T12:11:17.096Z</time>
      </trkpt>
      <trkpt lat="43.76661" lon="3.89156">
        <ele>124.16</ele>
        <time>2024-08-26T12:11:25.551Z</time>
      </trkpt>
      <trkpt lat="43.76638" lon="3.89159">
        <ele>123.44</ele>
        <time>2024-08-26T12:11:34.010Z</time>
      </trkpt>
      <trkpt lat="43.76638" lon="3.89159">
        <ele>122.89</ele>
        <time>2024-08-26T12:11:42.469Z</time>
      </trkpt>
      <trkpt lat="43.76621" lon="3.89165">
        <ele>122.54</ele>
        <time>2024-08-26T12:11:50.930Z</time>
      </trkpt>
      <trkpt lat="43.76598" lon="3.89163">
        <ele>122.34</ele>
        <time>2024-08-26T12:11:59.395Z</time>
      </trkpt>
      <trkpt lat="43.76587" lon="3.89156">
        <ele>122.28</ele>
        <time>2024-08-26T12:12:07.862Z</time>
      </trkpt>
      <trkpt lat="43.76579" lon="3.89141">
        <ele>122.29</ele>
        <time>2024-08-26T12:12:16.331Z</time>
      </trkpt>
      <trkpt lat="43.76565" lon="3.89128">
        <ele>122.53</ele>
        <time>2024-08-26T12:12:24.803Z</time>
      </trkpt>
      <trkpt lat="43.76541" lon="3.89121">
        <ele>122.87</ele>
        <time>2024-08-26T12:12:33.279Z</time>
      </trkpt>
      <trkpt lat="43.7651" lon="3.89105">
        <ele>123.22</ele>
        <time>2024-08-26T12:12:41.760Z</time>
      </trkpt>
      <trkpt lat="43.76484" lon="3.891">
        <ele>123.85</ele>
        <time>2024-08-26T12:12:50.245Z</time>
      </trkpt>
      <trkpt lat="43.76459" lon="3.89105">
        <ele>124.51</ele>
        <time>2024-08-26T12:12:58.734Z</time>
      </trkpt>
      <trkpt lat="43.76438" lon="3.89106">
        <ele>125.06</ele>
        <time>2024-08-26T12:13:07.227Z</time>
      </trkpt>
      <trkpt lat="43.76423" lon="3.89089">
        <ele>125.16</ele>
        <time>2024-08-26T12:13:15.723Z</time>
      </trkpt>
      <trkpt lat="43.76414" lon="3.89083">
        <ele>125.23</ele>
        <time>2024-08-26T12:13:24.220Z</time>
      </trkpt>
      <trkpt lat="43.76402" lon="3.89065">
        <ele>125.02</ele>
        <time>2024-08-26T12:13:32.720Z</time>
      </trkpt>
      <trkpt lat="43.76351" lon="3.89009">
        <ele>124.15</ele>
        <time>2024-08-26T12:13:41.231Z</time>
      </trkpt>
      <trkpt lat="43.76324" lon="3.88987">
        <ele>123.81</ele>
        <time>2024-08-26T12:13:49.747Z</time>
      </trkpt>
      <trkpt lat="43.76312" lon="3.8898">
        <ele>123.85</ele>
        <time>2024-08-26T12:13:58.265Z</time>
      </trkpt>
      <trkpt lat="43.7629" lon="3.88976">
        <ele>123.96</ele>
        <time>2024-08-26T12:14:06.786Z</time>
      </trkpt>
      <trkpt lat="43.76267" lon="3.88982">
        <ele>124.5</ele>
        <time>2024-08-26T12:14:15.311Z</time>
      </trkpt>
      <trkpt lat="43.76259" lon="3.88979">
        <ele>124.96</ele>
        <time>2024-08-26T12:14:23.837Z</time>
      </trkpt>
      <trkpt lat="43.76254" lon="3.88971">
        <ele>125.52</ele>
        <time>2024-08-26T12:14:32.365Z</time>
      </trkpt>
      <trkpt lat="43.76247" lon="3.88965">
        <ele>126.19</ele>
        <time>2024-08-26T12:14:40.894Z</time>
      </trkpt>
      <trkpt lat="43.7624" lon="3.88956">
        <ele>126.93</ele>
        <time>2024-08-26T12:14:49.424Z</time>
      </trkpt>
      <trkpt lat="43.76232" lon="3.88948">
        <ele>127.63</ele>
        <time>2024-08-26T12:14:57.956Z</time>
      </trkpt>
      <trkpt lat="43.76223" lon="3.88926">
        <ele>128.34</ele>
        <time>2024-08-26T12:15:06.491Z</time>
      </trkpt>
      <trkpt lat="43.76221" lon="3.88921">
        <ele>128.64</ele>
        <time>2024-08-26T12:15:15.027Z</time>
      </trkpt>
      <trkpt lat="43.76212" lon="3.88895">
        <ele>127.39</ele>
        <time>2024-08-26T12:15:23.566Z</time>
      </trkpt>
      <trkpt lat="43.76206" lon="3.88869">
        <ele>125.53</ele>
        <time>2024-08-26T12:15:32.108Z</time>
      </trkpt>
      <trkpt lat="43.76206" lon="3.88869">
        <ele>123.95</ele>
        <time>2024-08-26T12:15:40.650Z</time>
      </trkpt>
      <trkpt lat="43.76205" lon="3.88829">
        <ele>121.33</ele>
        <time>2024-08-26T12:15:49.197Z</time>
      </trkpt>
      <trkpt lat="43.762" lon="3.88815">
        <ele>119.35</ele>
        <time>2024-08-26T12:15:57.746Z</time>
      </trkpt>
      <trkpt lat="43.7619" lon="3.88807">
        <ele>117.56</ele>
        <time>2024-08-26T12:16:06.296Z</time>
      </trkpt>
      <trkpt lat="43.76146" lon="3.88796">
        <ele>115.5</ele>
        <time>2024-08-26T12:16:14.854Z</time>
      </trkpt>
      <trkpt lat="43.76115" lon="3.88783">
        <ele>113.86</ele>
        <time>2024-08-26T12:16:23.417Z</time>
      </trkpt>
      <trkpt lat="43.76105" lon="3.88778">
        <ele>112.49</ele>
        <time>2024-08-26T12:16:31.982Z</time>
      </trkpt>
      <trkpt lat="43.76053" lon="3.88738">
        <ele>110.84</ele>
        <time>2024-08-26T12:16:40.556Z</time>
      </trkpt>
      <trkpt lat="43.76019" lon="3.88725">
        <ele>109.66</ele>
        <time>2024-08-26T12:16:49.136Z</time>
      </trkpt>
      <trkpt lat="43.7599" lon="3.88681">
        <ele>108.52</ele>
        <time>2024-08-26T12:16:57.723Z</time>
      </trkpt>
      <trkpt lat="43.76002" lon="3.88671">
        <ele>107.31</ele>
        <time>2024-08-26T12:17:06.312Z</time>
      </trkpt>
      <trkpt lat="43.76019" lon="3.88649">
        <ele>105.88</ele>
        <time>2024-08-26T12:17:14.905Z</time>
      </trkpt>
      <trkpt lat="43.7603" lon="3.88617">
        <ele>104.38</ele>
        <time>2024-08-26T12:17:23.502Z</time>
      </trkpt>
      <trkpt lat="43.76049" lon="3.88524">
        <ele>103.74</ele>
        <time>2024-08-26T12:17:32.110Z</time>
      </trkpt>
      <trkpt lat="43.76057" lon="3.885">
        <ele>102.85</ele>
        <time>2024-08-26T12:17:40.721Z</time>
      </trkpt>
      <trkpt lat="43.76074" lon="3.8847">
        <ele>101.61</ele>
        <time>2024-08-26T12:17:49.336Z</time>
      </trkpt>
      <trkpt lat="43.76074" lon="3.8847">
        <ele>100.78</ele>
        <time>2024-08-26T12:17:57.951Z</time>
      </trkpt>
      <trkpt lat="43.76112" lon="3.88415">
        <ele>99.59</ele>
        <time>2024-08-26T12:18:06.575Z</time>
      </trkpt>
      <trkpt lat="43.76268" lon="3.88185">
        <ele>99</ele>
        <time>2024-08-26T12:18:15.236Z</time>
      </trkpt>
      <trkpt lat="43.76318" lon="3.88104">
        <ele>98.19</ele>
        <time>2024-08-26T12:18:23.909Z</time>
      </trkpt>
      <trkpt lat="43.76348" lon="3.88047">
        <ele>97.98</ele>
        <time>2024-08-26T12:18:32.590Z</time>
      </trkpt>
      <trkpt lat="43.76362" lon="3.88026">
        <ele>98.01</ele>
        <time>2024-08-26T12:18:41.275Z</time>
      </trkpt>
      <trkpt lat="43.76389" lon="3.87994">
        <ele>97.86</ele>
        <time>2024-08-26T12:18:49.965Z</time>
      </trkpt>
      <trkpt lat="43.76338" lon="3.87866">
        <ele>99.02</ele>
        <time>2024-08-26T12:18:58.672Z</time>
      </trkpt>
      <trkpt lat="43.76334" lon="3.87854">
        <ele>99.71</ele>
        <time>2024-08-26T12:19:07.381Z</time>
      </trkpt>
      <trkpt lat="43.76332" lon="3.87847">
        <ele>100.23</ele>
        <time>2024-08-26T12:19:16.090Z</time>
      </trkpt>
      <trkpt lat="43.7633" lon="3.87843">
        <ele>100.6</ele>
        <time>2024-08-26T12:19:24.800Z</time>
      </trkpt>
      <trkpt lat="43.7633" lon="3.87823">
        <ele>100.7</ele>
        <time>2024-08-26T12:19:33.512Z</time>
      </trkpt>
      <trkpt lat="43.76336" lon="3.87743">
        <ele>100.41</ele>
        <time>2024-08-26T12:19:42.234Z</time>
      </trkpt>
      <trkpt lat="43.76335" lon="3.87726">
        <ele>100.33</ele>
        <time>2024-08-26T12:19:50.958Z</time>
      </trkpt>
      <trkpt lat="43.7633" lon="3.87707">
        <ele>100.11</ele>
        <time>2024-08-26T12:19:59.684Z</time>
      </trkpt>
      <trkpt lat="43.7632" lon="3.87688">
        <ele>100.1</ele>
        <time>2024-08-26T12:20:08.413Z</time>
      </trkpt>
      <trkpt lat="43.76305" lon="3.87659">
        <ele>100.02</ele>
        <time>2024-08-26T12:20:17.146Z</time>
      </trkpt>
      <trkpt lat="43.76299" lon="3.8765">
        <ele>100</ele>
        <time>2024-08-26T12:20:25.880Z</time>
      </trkpt>
      <trkpt lat="43.76294" lon="3.87648">
        <ele>99.98</ele>
        <time>2024-08-26T12:20:34.615Z</time>
      </trkpt>
      <trkpt lat="43.76294" lon="3.87648">
        <ele>99.86</ele>
        <time>2024-08-26T12:20:43.350Z</time>
      </trkpt>
      <trkpt lat="43.76268" lon="3.8763">
        <ele>100.06</ele>
        <time>2024-08-26T12:20:52.090Z</time>
      </trkpt>
      <trkpt lat="43.76274" lon="3.87614">
        <ele>99.8</ele>
        <time>2024-08-26T12:21:00.832Z</time>
      </trkpt>
      <trkpt lat="43.76291" lon="3.87588">
        <ele>99.24</ele>
        <time>2024-08-26T12:21:09.578Z</time>
      </trkpt>
      <trkpt lat="43.76315" lon="3.87558">
        <ele>98.19</ele>
        <time>2024-08-26T12:21:18.329Z</time>
      </trkpt>
      <trkpt lat="43.76319" lon="3.87542">
        <ele>97.35</ele>
        <time>2024-08-26T12:21:27.082Z</time>
      </trkpt>
      <trkpt lat="43.7632" lon="3.87526">
        <ele>96.49</ele>
        <time>2024-08-26T12:21:35.837Z</time>
      </trkpt>
      <trkpt lat="43.76312" lon="3.87469">
        <ele>95.6</ele>
        <time>2024-08-26T12:21:44.599Z</time>
      </trkpt>
      <trkpt lat="43.76313" lon="3.87459">
        <ele>94.81</ele>
        <time>2024-08-26T12:21:53.362Z</time>
      </trkpt>
      <trkpt lat="43.76317" lon="3.87417">
        <ele>93.87</ele>
        <time>2024-08-26T12:22:02.130Z</time>
      </trkpt>
      <trkpt lat="43.7632" lon="3.87411">
        <ele>93.3</ele>
        <time>2024-08-26T12:22:10.899Z</time>
      </trkpt>
      <trkpt lat="43.76323" lon="3.87409">
        <ele>92.85</ele>
        <time>2024-08-26T12:22:19.668Z</time>
      </trkpt>
      <trkpt lat="43.76332" lon="3.87409">
        <ele>92.51</ele>
        <time>2024-08-26T12:22:28.439Z</time>
      </trkpt>
      <trkpt lat="43.76351" lon="3.87405">
        <ele>92.29</ele>
        <time>2024-08-26T12:22:37.213Z</time>
      </trkpt>
      <trkpt lat="43.76367" lon="3.87394">
        <ele>92.2</ele>
        <time>2024-08-26T12:22:45.990Z</time>
      </trkpt>
      <trkpt lat="43.76379" lon="3.87379">
        <ele>92.2</ele>
        <time>2024-08-26T12:22:54.769Z</time>
      </trkpt>
      <trkpt lat="43.76395" lon="3.87358">
        <ele>92.42</ele>
        <time>2024-08-26T12:23:03.552Z</time>
      </trkpt>
      <trkpt lat="43.76422" lon="3.87292">
        <ele>92.92</ele>
        <time>2024-08-26T12:23:12.344Z</time>
      </trkpt>
      <trkpt lat="43.76429" lon="3.87272">
        <ele>93.52</ele>
        <time>2024-08-26T12:23:21.138Z</time>
      </trkpt>
      <trkpt lat="43.76479" lon="3.87075">
        <ele>94.73</ele>
        <time>2024-08-26T12:23:29.956Z</time>
      </trkpt>
      <trkpt lat="43.76479" lon="3.87075">
        <ele>95.33</ele>
        <time>2024-08-26T12:23:38.774Z</time>
      </trkpt>
      <trkpt lat="43.76481" lon="3.87058">
        <ele>96.11</ele>
        <time>2024-08-26T12:23:47.594Z</time>
      </trkpt>
      <trkpt lat="43.76484" lon="3.87045">
        <ele>96.82</ele>
        <time>2024-08-26T12:23:56.416Z</time>
      </trkpt>
      <trkpt lat="43.76508" lon="3.86955">
        <ele>99.22</ele>
        <time>2024-08-26T12:24:05.249Z</time>
      </trkpt>
      <trkpt lat="43.76517" lon="3.86918">
        <ele>99.68</ele>
        <time>2024-08-26T12:24:14.087Z</time>
      </trkpt>
      <trkpt lat="43.76517" lon="3.86918">
        <ele>99.82</ele>
        <time>2024-08-26T12:24:22.925Z</time>
      </trkpt>
      <trkpt lat="43.76552" lon="3.86799">
        <ele>99.8</ele>
        <time>2024-08-26T12:24:31.777Z</time>
      </trkpt>
      <trkpt lat="43.7657" lon="3.8673">
        <ele>99.86</ele>
        <time>2024-08-26T12:24:40.638Z</time>
      </trkpt>
      <trkpt lat="43.7657" lon="3.8673">
        <ele>99.82</ele>
        <time>2024-08-26T12:24:49.499Z</time>
      </trkpt>
      <trkpt lat="43.76582" lon="3.86681">
        <ele>99.63</ele>
        <time>2024-08-26T12:24:58.366Z</time>
      </trkpt>
      <trkpt lat="43.76584" lon="3.86669">
        <ele>99.62</ele>
        <time>2024-08-26T12:25:07.234Z</time>
      </trkpt>
      <trkpt lat="43.76588" lon="3.8665">
        <ele>99.42</ele>
        <time>2024-08-26T12:25:16.105Z</time>
      </trkpt>
      <trkpt lat="43.76594" lon="3.86649">
        <ele>99.25</ele>
        <time>2024-08-26T12:25:24.977Z</time>
      </trkpt>
      <trkpt lat="43.76597" lon="3.86644">
        <ele>99.06</ele>
        <time>2024-08-26T12:25:33.849Z</time>
      </trkpt>
      <trkpt lat="43.76597" lon="3.86634">
        <ele>98.82</ele>
        <time>2024-08-26T12:25:42.722Z</time>
      </trkpt>
      <trkpt lat="43.76592" lon="3.86629">
        <ele>98.5</ele>
        <time>2024-08-26T12:25:51.597Z</time>
      </trkpt>
      <trkpt lat="43.76586" lon="3.86629">
        <ele>98.08</ele>
        <time>2024-08-26T12:26:00.472Z</time>
      </trkpt>
      <trkpt lat="43.76582" lon="3.86634">
        <ele>97.62</ele>
        <time>2024-08-26T12:26:09.348Z</time>
      </trkpt>
      <trkpt lat="43.76553" lon="3.86615">
        <ele>96.9</ele>
        <time>2024-08-26T12:26:18.229Z</time>
      </trkpt>
      <trkpt lat="43.76437" lon="3.86537">
        <ele>96.21</ele>
        <time>2024-08-26T12:26:27.131Z</time>
      </trkpt>
      <trkpt lat="43.76431" lon="3.86533">
        <ele>95.66</ele>
        <time>2024-08-26T12:26:36.034Z</time>
      </trkpt>
      <trkpt lat="43.76431" lon="3.86533">
        <ele>95.18</ele>
        <time>2024-08-26T12:26:44.937Z</time>
      </trkpt>
      <trkpt lat="43.76394" lon="3.8651">
        <ele>94.46</ele>
        <time>2024-08-26T12:26:53.847Z</time>
      </trkpt>
      <trkpt lat="43.76359" lon="3.86486">
        <ele>94.19</ele>
        <time>2024-08-26T12:27:02.763Z</time>
      </trkpt>
      <trkpt lat="43.76328" lon="3.86466">
        <ele>93.98</ele>
        <time>2024-08-26T12:27:11.684Z</time>
      </trkpt>
      <trkpt lat="43.76328" lon="3.86466">
        <ele>93.65</ele>
        <time>2024-08-26T12:27:20.605Z</time>
      </trkpt>
      <trkpt lat="43.7618" lon="3.86367">
        <ele>92.93</ele>
        <time>2024-08-26T12:27:29.553Z</time>
      </trkpt>
      <trkpt lat="43.76164" lon="3.86351">
        <ele>92.53</ele>
        <time>2024-08-26T12:27:38.504Z</time>
      </trkpt>
      <trkpt lat="43.76156" lon="3.86337">
        <ele>92.17</ele>
        <time>2024-08-26T12:27:47.457Z</time>
      </trkpt>
      <trkpt lat="43.76155" lon="3.86327">
        <ele>91.86</ele>
        <time>2024-08-26T12:27:56.411Z</time>
      </trkpt>
      <trkpt lat="43.76151" lon="3.86319">
        <ele>91.54</ele>
        <time>2024-08-26T12:28:05.366Z</time>
      </trkpt>
      <trkpt lat="43.76145" lon="3.86312">
        <ele>91.24</ele>
        <time>2024-08-26T12:28:14.322Z</time>
      </trkpt>
      <trkpt lat="43.76138" lon="3.86308">
        <ele>90.98</ele>
        <time>2024-08-26T12:28:23.280Z</time>
      </trkpt>
      <trkpt lat="43.76131" lon="3.86307">
        <ele>90.69</ele>
        <time>2024-08-26T12:28:32.239Z</time>
      </trkpt>
      <trkpt lat="43.76124" lon="3.8631">
        <ele>90.37</ele>
        <time>2024-08-26T12:28:41.199Z</time>
      </trkpt>
      <trkpt lat="43.76118" lon="3.86315">
        <ele>90.02</ele>
        <time>2024-08-26T12:28:50.160Z</time>
      </trkpt>
      <trkpt lat="43.76088" lon="3.86306">
        <ele>89.73</ele>
        <time>2024-08-26T12:28:59.126Z</time>
      </trkpt>
      <trkpt lat="43.76009" lon="3.86262">
        <ele>89.28</ele>
        <time>2024-08-26T12:29:08.106Z</time>
      </trkpt>
      <trkpt lat="43.75905" lon="3.86187">
        <ele>88.94</ele>
        <time>2024-08-26T12:29:17.105Z</time>
      </trkpt>
      <trkpt lat="43.75775" lon="3.86099">
        <ele>87.84</ele>
        <time>2024-08-26T12:29:26.127Z</time>
      </trkpt>
      <trkpt lat="43.75775" lon="3.86099">
        <ele>87.5</ele>
        <time>2024-08-26T12:29:35.149Z</time>
      </trkpt>
      <trkpt lat="43.75653" lon="3.8602">
        <ele>87.01</ele>
        <time>2024-08-26T12:29:44.192Z</time>
      </trkpt>
      <trkpt lat="43.75596" lon="3.86001">
        <ele>87.05</ele>
        <time>2024-08-26T12:29:53.245Z</time>
      </trkpt>
      <trkpt lat="43.75532" lon="3.85986">
        <ele>87.07</ele>
        <time>2024-08-26T12:30:02.308Z</time>
      </trkpt>
      <trkpt lat="43.75295" lon="3.8594">
        <ele>85.79</ele>
        <time>2024-08-26T12:30:11.409Z</time>
      </trkpt>
      <trkpt lat="43.7529" lon="3.85939">
        <ele>85.36</ele>
        <time>2024-08-26T12:30:20.511Z</time>
      </trkpt>
      <trkpt lat="43.7529" lon="3.85939">
        <ele>84.94</ele>
        <time>2024-08-26T12:30:29.613Z</time>
      </trkpt>
      <trkpt lat="43.75173" lon="3.85916">
        <ele>84.28</ele>
        <time>2024-08-26T12:30:38.734Z</time>
      </trkpt>
      <trkpt lat="43.74977" lon="3.85879">
        <ele>81.37</ele>
        <time>2024-08-26T12:30:47.887Z</time>
      </trkpt>
      <trkpt lat="43.74937" lon="3.85872">
        <ele>80.84</ele>
        <time>2024-08-26T12:30:57.046Z</time>
      </trkpt>
      <trkpt lat="43.74863" lon="3.85864">
        <ele>80.33</ele>
        <time>2024-08-26T12:31:06.217Z</time>
      </trkpt>
      <trkpt lat="43.7484" lon="3.85867">
        <ele>80.01</ele>
        <time>2024-08-26T12:31:15.392Z</time>
      </trkpt>
      <trkpt lat="43.7484" lon="3.85867">
        <ele>79.77</ele>
        <time>2024-08-26T12:31:24.567Z</time>
      </trkpt>
      <trkpt lat="43.74803" lon="3.85878">
        <ele>79.63</ele>
        <time>2024-08-26T12:31:33.748Z</time>
      </trkpt>
      <trkpt lat="43.74798" lon="3.85878">
        <ele>79.42</ele>
        <time>2024-08-26T12:31:42.930Z</time>
      </trkpt>
      <trkpt lat="43.74774" lon="3.85891">
        <ele>79.25</ele>
        <time>2024-08-26T12:31:52.116Z</time>
      </trkpt>
      <trkpt lat="43.74742" lon="3.85912">
        <ele>79.04</ele>
        <time>2024-08-26T12:32:01.307Z</time>
      </trkpt>
      <trkpt lat="43.74686" lon="3.85965">
        <ele>78.73</ele>
        <time>2024-08-26T12:32:10.509Z</time>
      </trkpt>
      <trkpt lat="43.74656" lon="3.85985">
        <ele>78.46</ele>
        <time>2024-08-26T12:32:19.717Z</time>
      </trkpt>
      <trkpt lat="43.74648" lon="3.85984">
        <ele>78.32</ele>
        <time>2024-08-26T12:32:28.926Z</time>
      </trkpt>
      <trkpt lat="43.74648" lon="3.85984">
        <ele>78.3</ele>
        <time>2024-08-26T12:32:38.135Z</time>
      </trkpt>
      <trkpt lat="43.74642" lon="3.85982">
        <ele>78.38</ele>
        <time>2024-08-26T12:32:47.345Z</time>
      </trkpt>
      <trkpt lat="43.74633" lon="3.85968">
        <ele>78.56</ele>
        <time>2024-08-26T12:32:56.557Z</time>
      </trkpt>
      <trkpt lat="43.74599" lon="3.85852">
        <ele>78.73</ele>
        <time>2024-08-26T12:33:05.783Z</time>
      </trkpt>
      <trkpt lat="43.74585" lon="3.85808">
        <ele>79.06</ele>
        <time>2024-08-26T12:33:15.015Z</time>
      </trkpt>
      <trkpt lat="43.74558" lon="3.85754">
        <ele>79.84</ele>
        <time>2024-08-26T12:33:24.255Z</time>
      </trkpt>
      <trkpt lat="43.74535" lon="3.85724">
        <ele>80.31</ele>
        <time>2024-08-26T12:33:33.500Z</time>
      </trkpt>
      <trkpt lat="43.74513" lon="3.85702">
        <ele>80.77</ele>
        <time>2024-08-26T12:33:42.749Z</time>
      </trkpt>
      <trkpt lat="43.74402" lon="3.85613">
        <ele>81.2</ele>
        <time>2024-08-26T12:33:52.019Z</time>
      </trkpt>
      <trkpt lat="43.7437" lon="3.8558">
        <ele>81.14</ele>
        <time>2024-08-26T12:34:01.295Z</time>
      </trkpt>
      <trkpt lat="43.74357" lon="3.85562">
        <ele>81.14</ele>
        <time>2024-08-26T12:34:10.574Z</time>
      </trkpt>
      <trkpt lat="43.74345" lon="3.85543">
        <ele>80.96</ele>
        <time>2024-08-26T12:34:19.856Z</time>
      </trkpt>
      <trkpt lat="43.74335" lon="3.85523">
        <ele>80.67</ele>
        <time>2024-08-26T12:34:29.141Z</time>
      </trkpt>
      <trkpt lat="43.74328" lon="3.85502">
        <ele>80.28</ele>
        <time>2024-08-26T12:34:38.428Z</time>
      </trkpt>
      <trkpt lat="43.74311" lon="3.8545">
        <ele>79.64</ele>
        <time>2024-08-26T12:34:47.722Z</time>
      </trkpt>
      <trkpt lat="43.74311" lon="3.8545">
        <ele>79.24</ele>
        <time>2024-08-26T12:34:57.016Z</time>
      </trkpt>
      <trkpt lat="43.74164" lon="3.8499">
        <ele>78.71</ele>
        <time>2024-08-26T12:35:06.368Z</time>
      </trkpt>
      <trkpt lat="43.74159" lon="3.84993">
        <ele>78.3</ele>
        <time>2024-08-26T12:35:15.721Z</time>
      </trkpt>
      <trkpt lat="43.74151" lon="3.85003">
        <ele>78.26</ele>
        <time>2024-08-26T12:35:25.076Z</time>
      </trkpt>
      <trkpt lat="43.74106" lon="3.85067">
        <ele>79.18</ele>
        <time>2024-08-26T12:35:34.441Z</time>
      </trkpt>
      <trkpt lat="43.74064" lon="3.85129">
        <ele>79.41</ele>
        <time>2024-08-26T12:35:43.816Z</time>
      </trkpt>
      <trkpt lat="43.74064" lon="3.85129">
        <ele>82.49</ele>
        <time>2024-08-26T12:35:53.191Z</time>
      </trkpt>
      <trkpt lat="43.74025" lon="3.85187">
        <ele>84.25</ele>
        <time>2024-08-26T12:36:02.575Z</time>
      </trkpt>
      <trkpt lat="43.74004" lon="3.85192">
        <ele>85.24</ele>
        <time>2024-08-26T12:36:11.963Z</time>
      </trkpt>
      <trkpt lat="43.73995" lon="3.85185">
        <ele>85.87</ele>
        <time>2024-08-26T12:36:21.352Z</time>
      </trkpt>
      <trkpt lat="43.73921" lon="3.85105">
        <ele>86.24</ele>
        <time>2024-08-26T12:36:30.756Z</time>
      </trkpt>
      <trkpt lat="43.73878" lon="3.85058">
        <ele>86.51</ele>
        <time>2024-08-26T12:36:40.169Z</time>
      </trkpt>
      <trkpt lat="43.73855" lon="3.85032">
        <ele>86.62</ele>
        <time>2024-08-26T12:36:49.587Z</time>
      </trkpt>
      <trkpt lat="43.73805" lon="3.84973">
        <ele>86.68</ele>
        <time>2024-08-26T12:36:59.015Z</time>
      </trkpt>
      <trkpt lat="43.73758" lon="3.84907">
        <ele>86.05</ele>
        <time>2024-08-26T12:37:08.454Z</time>
      </trkpt>
      <trkpt lat="43.73755" lon="3.84902">
        <ele>85.54</ele>
        <time>2024-08-26T12:37:17.894Z</time>
      </trkpt>
      <trkpt lat="43.73742" lon="3.84884">
        <ele>84.85</ele>
        <time>2024-08-26T12:37:27.337Z</time>
      </trkpt>
      <trkpt lat="43.73718" lon="3.84855">
        <ele>84.03</ele>
        <time>2024-08-26T12:37:36.785Z</time>
      </trkpt>
      <trkpt lat="43.73709" lon="3.84847">
        <ele>83.27</ele>
        <time>2024-08-26T12:37:46.235Z</time>
      </trkpt>
      <trkpt lat="43.73647" lon="3.84807">
        <ele>82.3</ele>
        <time>2024-08-26T12:37:55.696Z</time>
      </trkpt>
      <trkpt lat="43.73625" lon="3.84794">
        <ele>81.42</ele>
        <time>2024-08-26T12:38:05.160Z</time>
      </trkpt>
      <trkpt lat="43.73625" lon="3.84794">
        <ele>80.79</ele>
        <time>2024-08-26T12:38:14.624Z</time>
      </trkpt>
      <trkpt lat="43.73557" lon="3.84751">
        <ele>79.98</ele>
        <time>2024-08-26T12:38:24.100Z</time>
      </trkpt>
      <trkpt lat="43.73498" lon="3.84714">
        <ele>80.45</ele>
        <time>2024-08-26T12:38:33.587Z</time>
      </trkpt>
      <trkpt lat="43.73451" lon="3.84694">
        <ele>80.72</ele>
        <time>2024-08-26T12:38:43.082Z</time>
      </trkpt>
      <trkpt lat="43.7343" lon="3.84682">
        <ele>80.82</ele>
        <time>2024-08-26T12:38:52.580Z</time>
      </trkpt>
      <trkpt lat="43.73418" lon="3.84674">
        <ele>80.95</ele>
        <time>2024-08-26T12:39:02.080Z</time>
      </trkpt>
      <trkpt lat="43.73402" lon="3.84653">
        <ele>81.18</ele>
        <time>2024-08-26T12:39:11.584Z</time>
      </trkpt>
      <trkpt lat="43.73372" lon="3.84603">
        <ele>81.57</ele>
        <time>2024-08-26T12:39:21.095Z</time>
      </trkpt>
      <trkpt lat="43.73309" lon="3.84473">
        <ele>81.55</ele>
        <time>2024-08-26T12:39:30.625Z</time>
      </trkpt>
      <trkpt lat="43.733" lon="3.84453">
        <ele>81.58</ele>
        <time>2024-08-26T12:39:40.157Z</time>
      </trkpt>
      <trkpt lat="43.73285" lon="3.84424">
        <ele>81.7</ele>
        <time>2024-08-26T12:39:49.694Z</time>
      </trkpt>
      <trkpt lat="43.73261" lon="3.84387">
        <ele>81.74</ele>
        <time>2024-08-26T12:39:59.236Z</time>
      </trkpt>
      <trkpt lat="43.7314" lon="3.84214">
        <ele>82.05</ele>
        <time>2024-08-26T12:40:08.806Z</time>
      </trkpt>
      <trkpt lat="43.73008" lon="3.84029">
        <ele>82.03</ele>
        <time>2024-08-26T12:40:18.406Z</time>
      </trkpt>
      <trkpt lat="43.72964" lon="3.83972">
        <ele>81.95</ele>
        <time>2024-08-26T12:40:28.016Z</time>
      </trkpt>
      <trkpt lat="43.72953" lon="3.83959">
        <ele>81.73</ele>
        <time>2024-08-26T12:40:37.628Z</time>
      </trkpt>
      <trkpt lat="43.72934" lon="3.83935">
        <ele>81.41</ele>
        <time>2024-08-26T12:40:47.244Z</time>
      </trkpt>
      <trkpt lat="43.72916" lon="3.83916">
        <ele>80.91</ele>
        <time>2024-08-26T12:40:56.864Z</time>
      </trkpt>
      <trkpt lat="43.72899" lon="3.83905">
        <ele>80.27</ele>
        <time>2024-08-26T12:41:06.487Z</time>
      </trkpt>
      <trkpt lat="43.72874" lon="3.83891">
        <ele>79.74</ele>
        <time>2024-08-26T12:41:16.114Z</time>
      </trkpt>
      <trkpt lat="43.72869" lon="3.83883">
        <ele>79.46</ele>
        <time>2024-08-26T12:41:25.743Z</time>
      </trkpt>
      <trkpt lat="43.72865" lon="3.83874">
        <ele>79.32</ele>
        <time>2024-08-26T12:41:35.373Z</time>
      </trkpt>
      <trkpt lat="43.72864" lon="3.83858">
        <ele>79.35</ele>
        <time>2024-08-26T12:41:45.005Z</time>
      </trkpt>
      <trkpt lat="43.72861" lon="3.83818">
        <ele>79.59</ele>
        <time>2024-08-26T12:41:54.641Z</time>
      </trkpt>
      <trkpt lat="43.72864" lon="3.83811">
        <ele>79.79</ele>
        <time>2024-08-26T12:42:04.278Z</time>
      </trkpt>
      <trkpt lat="43.72882" lon="3.83791">
        <ele>80.09</ele>
        <time>2024-08-26T12:42:13.919Z</time>
      </trkpt>
      <trkpt lat="43.72893" lon="3.83767">
        <ele>80.4</ele>
        <time>2024-08-26T12:42:23.563Z</time>
      </trkpt>
      <trkpt lat="43.729" lon="3.83748">
        <ele>80.63</ele>
        <time>2024-08-26T12:42:33.210Z</time>
      </trkpt>
      <trkpt lat="43.72916" lon="3.83662">
        <ele>80.86</ele>
        <time>2024-08-26T12:42:42.867Z</time>
      </trkpt>
      <trkpt lat="43.72919" lon="3.83628">
        <ele>80.99</ele>
        <time>2024-08-26T12:42:52.528Z</time>
      </trkpt>
      <trkpt lat="43.72917" lon="3.83609">
        <ele>81.35</ele>
        <time>2024-08-26T12:43:02.191Z</time>
      </trkpt>
      <trkpt lat="43.72896" lon="3.83562">
        <ele>81.87</ele>
        <time>2024-08-26T12:43:11.861Z</time>
      </trkpt>
      <trkpt lat="43.72887" lon="3.83556">
        <ele>82.4</ele>
        <time>2024-08-26T12:43:21.532Z</time>
      </trkpt>
      <trkpt lat="43.72872" lon="3.83546">
        <ele>83</ele>
        <time>2024-08-26T12:43:31.206Z</time>
      </trkpt>
      <trkpt lat="43.72816" lon="3.83464">
        <ele>83.37</ele>
        <time>2024-08-26T12:43:40.893Z</time>
      </trkpt>
      <trkpt lat="43.72726" lon="3.83332">
        <ele>84.27</ele>
        <time>2024-08-26T12:43:50.601Z</time>
      </trkpt>
      <trkpt lat="43.72726" lon="3.83332">
        <ele>84.21</ele>
        <time>2024-08-26T12:44:00.309Z</time>
      </trkpt>
      <trkpt lat="43.72722" lon="3.83338">
        <ele>84.04</ele>
        <time>2024-08-26T12:44:10.018Z</time>
      </trkpt>
      <trkpt lat="43.72666" lon="3.83439">
        <ele>83.64</ele>
        <time>2024-08-26T12:44:19.742Z</time>
      </trkpt>
      <trkpt lat="43.72652" lon="3.83467">
        <ele>83.33</ele>
        <time>2024-08-26T12:44:29.470Z</time>
      </trkpt>
      <trkpt lat="43.72628" lon="3.83544">
        <ele>82.91</ele>
        <time>2024-08-26T12:44:39.207Z</time>
      </trkpt>
      <trkpt lat="43.72628" lon="3.83544">
        <ele>82.71</ele>
        <time>2024-08-26T12:44:48.944Z</time>
      </trkpt>
      <trkpt lat="43.72623" lon="3.83561">
        <ele>82.6</ele>
        <time>2024-08-26T12:44:58.683Z</time>
      </trkpt>
      <trkpt lat="43.72616" lon="3.83576">
        <ele>82.54</ele>
        <time>2024-08-26T12:45:08.425Z</time>
      </trkpt>
      <trkpt lat="43.72605" lon="3.83589">
        <ele>82.58</ele>
        <time>2024-08-26T12:45:18.169Z</time>
      </trkpt>
      <trkpt lat="43.72589" lon="3.83602">
        <ele>82.8</ele>
        <time>2024-08-26T12:45:27.916Z</time>
      </trkpt>
      <trkpt lat="43.7257" lon="3.83614">
        <ele>83.09</ele>
        <time>2024-08-26T12:45:37.666Z</time>
      </trkpt>
      <trkpt lat="43.72526" lon="3.83643">
        <ele>83.49</ele>
        <time>2024-08-26T12:45:47.424Z</time>
      </trkpt>
      <trkpt lat="43.72517" lon="3.83619">
        <ele>83.93</ele>
        <time>2024-08-26T12:45:57.185Z</time>
      </trkpt>
      <trkpt lat="43.72514" lon="3.83597">
        <ele>84.29</ele>
        <time>2024-08-26T12:46:06.949Z</time>
      </trkpt>
      <trkpt lat="43.72518" lon="3.83572">
        <ele>84.6</ele>
        <time>2024-08-26T12:46:16.716Z</time>
      </trkpt>
      <trkpt lat="43.72516" lon="3.83562">
        <ele>85.1</ele>
        <time>2024-08-26T12:46:26.484Z</time>
      </trkpt>
      <trkpt lat="43.72513" lon="3.83556">
        <ele>85.73</ele>
        <time>2024-08-26T12:46:36.253Z</time>
      </trkpt>
      <trkpt lat="43.72161" lon="3.83172">
        <ele>87.17</ele>
        <time>2024-08-26T12:46:46.093Z</time>
      </trkpt>
      <trkpt lat="43.72143" lon="3.83147">
        <ele>87.55</ele>
        <time>2024-08-26T12:46:55.937Z</time>
      </trkpt>
      <trkpt lat="43.72123" lon="3.83125">
        <ele>88.17</ele>
        <time>2024-08-26T12:47:05.786Z</time>
      </trkpt>
      <trkpt lat="43.72116" lon="3.83107">
        <ele>88.47</ele>
        <time>2024-08-26T12:47:15.637Z</time>
      </trkpt>
      <trkpt lat="43.72103" lon="3.83085">
        <ele>88.76</ele>
        <time>2024-08-26T12:47:25.491Z</time>
      </trkpt>
      <trkpt lat="43.72093" lon="3.83073">
        <ele>88.93</ele>
        <time>2024-08-26T12:47:35.347Z</time>
      </trkpt>
      <trkpt lat="43.71941" lon="3.8291">
        <ele>89.29</ele>
        <time>2024-08-26T12:47:45.234Z</time>
      </trkpt>
      <trkpt lat="43.7189" lon="3.82857">
        <ele>87.7</ele>
        <time>2024-08-26T12:47:55.131Z</time>
      </trkpt>
      <trkpt lat="43.71826" lon="3.8279">
        <ele>87.34</ele>
        <time>2024-08-26T12:48:05.041Z</time>
      </trkpt>
      <trkpt lat="43.71811" lon="3.82786">
        <ele>87.63</ele>
        <time>2024-08-26T12:48:14.954Z</time>
      </trkpt>
      <trkpt lat="43.71782" lon="3.82788">
        <ele>88.03</ele>
        <time>2024-08-26T12:48:24.871Z</time>
      </trkpt>
      <trkpt lat="43.71748" lon="3.82787">
        <ele>88.5</ele>
        <time>2024-08-26T12:48:34.794Z</time>
      </trkpt>
      <trkpt lat="43.71705" lon="3.82759">
        <ele>89.2</ele>
        <time>2024-08-26T12:48:44.724Z</time>
      </trkpt>
      <trkpt lat="43.71679" lon="3.82738">
        <ele>90.08</ele>
        <time>2024-08-26T12:48:54.659Z</time>
      </trkpt>
      <trkpt lat="43.71668" lon="3.82723">
        <ele>90.53</ele>
        <time>2024-08-26T12:49:04.597Z</time>
      </trkpt>
      <trkpt lat="43.71662" lon="3.82703">
        <ele>90.62</ele>
        <time>2024-08-26T12:49:14.537Z</time>
      </trkpt>
      <trkpt lat="43.71638" lon="3.82643">
        <ele>90.47</ele>
        <time>2024-08-26T12:49:24.485Z</time>
      </trkpt>
      <trkpt lat="43.7162" lon="3.82602">
        <ele>90.43</ele>
        <time>2024-08-26T12:49:34.439Z</time>
      </trkpt>
      <trkpt lat="43.7161" lon="3.82585">
        <ele>90.27</ele>
        <time>2024-08-26T12:49:44.395Z</time>
      </trkpt>
      <trkpt lat="43.71599" lon="3.82574">
        <ele>90.16</ele>
        <time>2024-08-26T12:49:54.353Z</time>
      </trkpt>
      <trkpt lat="43.71579" lon="3.82567">
        <ele>90.19</ele>
        <time>2024-08-26T12:50:04.315Z</time>
      </trkpt>
      <trkpt lat="43.71561" lon="3.82564">
        <ele>90.36</ele>
        <time>2024-08-26T12:50:14.280Z</time>
      </trkpt>
      <trkpt lat="43.71544" lon="3.82565">
        <ele>90.55</ele>
        <time>2024-08-26T12:50:24.247Z</time>
      </trkpt>
      <trkpt lat="43.71539" lon="3.82565">
        <ele>90.64</ele>
        <time>2024-08-26T12:50:34.215Z</time>
      </trkpt>
      <trkpt lat="43.715" lon="3.82572">
        <ele>91.29</ele>
        <time>2024-08-26T12:50:44.189Z</time>
      </trkpt>
      <trkpt lat="43.71478" lon="3.82576">
        <ele>91.66</ele>
        <time>2024-08-26T12:50:54.167Z</time>
      </trkpt>
      <trkpt lat="43.7146" lon="3.82577">
        <ele>91.7</ele>
        <time>2024-08-26T12:51:04.148Z</time>
      </trkpt>
      <trkpt lat="43.7144" lon="3.8257">
        <ele>91.5</ele>
        <time>2024-08-26T12:51:14.132Z</time>
      </trkpt>
      <trkpt lat="43.7138" lon="3.82529">
        <ele>91.45</ele>
        <time>2024-08-26T12:51:24.127Z</time>
      </trkpt>
      <trkpt lat="43.71329" lon="3.82488">
        <ele>90.93</ele>
        <time>2024-08-26T12:51:34.131Z</time>
      </trkpt>
      <trkpt lat="43.71272" lon="3.82459">
        <ele>91.93</ele>
        <time>2024-08-26T12:51:44.145Z</time>
      </trkpt>
      <trkpt lat="43.71188" lon="3.82406">
        <ele>93.52</ele>
        <time>2024-08-26T12:51:54.174Z</time>
      </trkpt>
      <trkpt lat="43.71096" lon="3.82347">
        <ele>95.41</ele>
        <time>2024-08-26T12:52:04.219Z</time>
      </trkpt>
      <trkpt lat="43.71075" lon="3.82337">
        <ele>95.48</ele>
        <time>2024-08-26T12:52:14.268Z</time>
      </trkpt>
      <trkpt lat="43.71062" lon="3.82334">
        <ele>95.51</ele>
        <time>2024-08-26T12:52:24.319Z</time>
      </trkpt>
      <trkpt lat="43.71062" lon="3.82334">
        <ele>95.65</ele>
        <time>2024-08-26T12:52:34.370Z</time>
      </trkpt>
      <trkpt lat="43.7095" lon="3.82325">
        <ele>95.78</ele>
        <time>2024-08-26T12:52:44.439Z</time>
      </trkpt>
      <trkpt lat="43.70901" lon="3.82319">
        <ele>96.3</ele>
        <time>2024-08-26T12:52:54.516Z</time>
      </trkpt>
      <trkpt lat="43.70861" lon="3.8231">
        <ele>96.62</ele>
        <time>2024-08-26T12:53:04.599Z</time>
      </trkpt>
      <trkpt lat="43.70856" lon="3.82311">
        <ele>96.93</ele>
        <time>2024-08-26T12:53:14.683Z</time>
      </trkpt>
      <trkpt lat="43.70828" lon="3.82336">
        <ele>97.23</ele>
        <time>2024-08-26T12:53:24.772Z</time>
      </trkpt>
      <trkpt lat="43.70806" lon="3.82359">
        <ele>97.65</ele>
        <time>2024-08-26T12:53:34.866Z</time>
      </trkpt>
      <trkpt lat="43.70796" lon="3.82365">
        <ele>97.92</ele>
        <time>2024-08-26T12:53:44.961Z</time>
      </trkpt>
      <trkpt lat="43.7073" lon="3.82393">
        <ele>98.18</ele>
        <time>2024-08-26T12:53:55.067Z</time>
      </trkpt>
      <trkpt lat="43.70717" lon="3.82408">
        <ele>98.43</ele>
        <time>2024-08-26T12:54:05.176Z</time>
      </trkpt>
      <trkpt lat="43.70711" lon="3.8242">
        <ele>98.56</ele>
        <time>2024-08-26T12:54:15.287Z</time>
      </trkpt>
      <trkpt lat="43.70709" lon="3.82423">
        <ele>98.54</ele>
        <time>2024-08-26T12:54:25.398Z</time>
      </trkpt>
      <trkpt lat="43.70693" lon="3.82422">
        <ele>98.38</ele>
        <time>2024-08-26T12:54:35.512Z</time>
      </trkpt>
      <trkpt lat="43.70701" lon="3.82413">
        <ele>98.11</ele>
        <time>2024-08-26T12:54:45.628Z</time>
      </trkpt>
      <trkpt lat="43.70706" lon="3.82405">
        <ele>97.7</ele>
        <time>2024-08-26T12:54:55.745Z</time>
      </trkpt>
      <trkpt lat="43.70709" lon="3.8239">
        <ele>97.17</ele>
        <time>2024-08-26T12:55:05.864Z</time>
      </trkpt>
      <trkpt lat="43.70709" lon="3.82375">
        <ele>96.59</ele>
        <time>2024-08-26T12:55:15.984Z</time>
      </trkpt>
      <trkpt lat="43.70708" lon="3.82365">
        <ele>96.06</ele>
        <time>2024-08-26T12:55:26.105Z</time>
      </trkpt>
      <trkpt lat="43.70705" lon="3.82354">
        <ele>95.53</ele>
        <time>2024-08-26T12:55:36.228Z</time>
      </trkpt>
      <trkpt lat="43.70705" lon="3.82354">
        <ele>95.16</ele>
        <time>2024-08-26T12:55:46.351Z</time>
      </trkpt>
      <trkpt lat="43.70697" lon="3.82341">
        <ele>94.8</ele>
        <time>2024-08-26T12:55:56.476Z</time>
      </trkpt>
      <trkpt lat="43.70666" lon="3.82309">
        <ele>94.51</ele>
        <time>2024-08-26T12:56:06.607Z</time>
      </trkpt>
      <trkpt lat="43.70639" lon="3.82276">
        <ele>94.71</ele>
        <time>2024-08-26T12:56:16.744Z</time>
      </trkpt>
      <trkpt lat="43.70639" lon="3.82276">
        <ele>95.01</ele>
        <time>2024-08-26T12:56:26.881Z</time>
      </trkpt>
      <trkpt lat="43.70625" lon="3.8226">
        <ele>95.69</ele>
        <time>2024-08-26T12:56:37.021Z</time>
      </trkpt>
      <trkpt lat="43.70616" lon="3.82251">
        <ele>96.44</ele>
        <time>2024-08-26T12:56:47.162Z</time>
      </trkpt>
      <trkpt lat="43.70598" lon="3.82241">
        <ele>97.51</ele>
        <time>2024-08-26T12:56:57.306Z</time>
      </trkpt>
      <trkpt lat="43.70548" lon="3.82203">
        <ele>98.68</ele>
        <time>2024-08-26T12:57:07.460Z</time>
      </trkpt>
      <trkpt lat="43.70462" lon="3.82121">
        <ele>100.15</ele>
        <time>2024-08-26T12:57:17.630Z</time>
      </trkpt>
      <trkpt lat="43.70448" lon="3.82109">
        <ele>101.23</ele>
        <time>2024-08-26T12:57:27.803Z</time>
      </trkpt>
      <trkpt lat="43.70424" lon="3.82097">
        <ele>102.43</ele>
        <time>2024-08-26T12:57:37.980Z</time>
      </trkpt>
      <trkpt lat="43.70352" lon="3.82071">
        <ele>103.95</ele>
        <time>2024-08-26T12:57:48.169Z</time>
      </trkpt>
      <trkpt lat="43.70333" lon="3.82057">
        <ele>105.24</ele>
        <time>2024-08-26T12:57:58.361Z</time>
      </trkpt>
      <trkpt lat="43.70271" lon="3.8199">
        <ele>106.77</ele>
        <time>2024-08-26T12:58:08.566Z</time>
      </trkpt>
      <trkpt lat="43.70267" lon="3.81996">
        <ele>107.63</ele>
        <time>2024-08-26T12:58:18.772Z</time>
      </trkpt>
      <trkpt lat="43.7025" lon="3.81973">
        <ele>108.55</ele>
        <time>2024-08-26T12:58:28.982Z</time>
      </trkpt>
      <trkpt lat="43.70238" lon="3.81954">
        <ele>109.22</ele>
        <time>2024-08-26T12:58:39.195Z</time>
      </trkpt>
      <trkpt lat="43.70238" lon="3.81954">
        <ele>109.86</ele>
        <time>2024-08-26T12:58:49.408Z</time>
      </trkpt>
      <trkpt lat="43.70214" lon="3.819">
        <ele>110.53</ele>
        <time>2024-08-26T12:58:59.628Z</time>
      </trkpt>
      <trkpt lat="43.70121" lon="3.81693">
        <ele>116.37</ele>
        <time>2024-08-26T12:59:09.876Z</time>
      </trkpt>
      <trkpt lat="43.70112" lon="3.81676">
        <ele>118.07</ele>
        <time>2024-08-26T12:59:20.127Z</time>
      </trkpt>
      <trkpt lat="43.70121" lon="3.81676">
        <ele>119.47</ele>
        <time>2024-08-26T12:59:30.379Z</time>
      </trkpt>
      <trkpt lat="43.70092" lon="3.81611">
        <ele>120.52</ele>
        <time>2024-08-26T12:59:40.640Z</time>
      </trkpt>
      <trkpt lat="43.7008" lon="3.81568">
        <ele>120.92</ele>
        <time>2024-08-26T12:59:50.906Z</time>
      </trkpt>
      <trkpt lat="43.70077" lon="3.81539">
        <ele>121.75</ele>
        <time>2024-08-26T13:00:01.176Z</time>
      </trkpt>
      <trkpt lat="43.70073" lon="3.81531">
        <ele>122.55</ele>
        <time>2024-08-26T13:00:11.447Z</time>
      </trkpt>
      <trkpt lat="43.70038" lon="3.81512">
        <ele>123.65</ele>
        <time>2024-08-26T13:00:21.724Z</time>
      </trkpt>
      <trkpt lat="43.69999" lon="3.81496">
        <ele>124.57</ele>
        <time>2024-08-26T13:00:32.007Z</time>
      </trkpt>
      <trkpt lat="43.69986" lon="3.81483">
        <ele>125.37</ele>
        <time>2024-08-26T13:00:42.293Z</time>
      </trkpt>
      <trkpt lat="43.69978" lon="3.81471">
        <ele>125.93</ele>
        <time>2024-08-26T13:00:52.581Z</time>
      </trkpt>
      <trkpt lat="43.69964" lon="3.81439">
        <ele>126.3</ele>
        <time>2024-08-26T13:01:02.873Z</time>
      </trkpt>
      <trkpt lat="43.69957" lon="3.8141">
        <ele>126.46</ele>
        <time>2024-08-26T13:01:13.169Z</time>
      </trkpt>
      <trkpt lat="43.69947" lon="3.81365">
        <ele>126.39</ele>
        <time>2024-08-26T13:01:23.470Z</time>
      </trkpt>
      <trkpt lat="43.69947" lon="3.81361">
        <ele>126.43</ele>
        <time>2024-08-26T13:01:33.772Z</time>
      </trkpt>
      <trkpt lat="43.69949" lon="3.81358">
        <ele>126.46</ele>
        <time>2024-08-26T13:01:44.074Z</time>
      </trkpt>
      <trkpt lat="43.69949" lon="3.81352">
        <ele>126.45</ele>
        <time>2024-08-26T13:01:54.377Z</time>
      </trkpt>
      <trkpt lat="43.69949" lon="3.81352">
        <ele>126.41</ele>
        <time>2024-08-26T13:02:04.680Z</time>
      </trkpt>
      <trkpt lat="43.69949" lon="3.81346">
        <ele>126.38</ele>
        <time>2024-08-26T13:02:14.984Z</time>
      </trkpt>
      <trkpt lat="43.69945" lon="3.8134">
        <ele>126.3</ele>
        <time>2024-08-26T13:02:25.289Z</time>
      </trkpt>
      <trkpt lat="43.69943" lon="3.81329">
        <ele>126.23</ele>
        <time>2024-08-26T13:02:35.595Z</time>
      </trkpt>
      <trkpt lat="43.69942" lon="3.81296">
        <ele>126.18</ele>
        <time>2024-08-26T13:02:45.905Z</time>
      </trkpt>
      <trkpt lat="43.69943" lon="3.81249">
        <ele>126.1</ele>
        <time>2024-08-26T13:02:56.220Z</time>
      </trkpt>
      <trkpt lat="43.69949" lon="3.81196">
        <ele>125.89</ele>
        <time>2024-08-26T13:03:06.541Z</time>
      </trkpt>
      <trkpt lat="43.69954" lon="3.81175">
        <ele>125.72</ele>
        <time>2024-08-26T13:03:16.865Z</time>
      </trkpt>
      <trkpt lat="43.69961" lon="3.81157">
        <ele>125.53</ele>
        <time>2024-08-26T13:03:27.191Z</time>
      </trkpt>
      <trkpt lat="43.69976" lon="3.8112">
        <ele>125.36</ele>
        <time>2024-08-26T13:03:37.522Z</time>
      </trkpt>
      <trkpt lat="43.69981" lon="3.81114">
        <ele>125.21</ele>
        <time>2024-08-26T13:03:47.854Z</time>
      </trkpt>
      <trkpt lat="43.69981" lon="3.81114">
        <ele>125</ele>
        <time>2024-08-26T13:03:58.186Z</time>
      </trkpt>
      <trkpt lat="43.69985" lon="3.81108">
        <ele>124.73</ele>
        <time>2024-08-26T13:04:08.519Z</time>
      </trkpt>
      <trkpt lat="43.69998" lon="3.81097">
        <ele>124.4</ele>
        <time>2024-08-26T13:04:18.855Z</time>
      </trkpt>
      <trkpt lat="43.7004" lon="3.81074">
        <ele>123.88</ele>
        <time>2024-08-26T13:04:29.198Z</time>
      </trkpt>
      <trkpt lat="43.7006" lon="3.81057">
        <ele>123.3</ele>
        <time>2024-08-26T13:04:39.545Z</time>
      </trkpt>
      <trkpt lat="43.70055" lon="3.81051">
        <ele>122.9</ele>
        <time>2024-08-26T13:04:49.893Z</time>
      </trkpt>
      <trkpt lat="43.70064" lon="3.81035">
        <ele>122.45</ele>
        <time>2024-08-26T13:05:00.243Z</time>
      </trkpt>
      <trkpt lat="43.70077" lon="3.81001">
        <ele>122.08</ele>
        <time>2024-08-26T13:05:10.598Z</time>
      </trkpt>
      <trkpt lat="43.7009" lon="3.80968">
        <ele>121.92</ele>
        <time>2024-08-26T13:05:20.957Z</time>
      </trkpt>
      <trkpt lat="43.70097" lon="3.80975">
        <ele>122.06</ele>
        <time>2024-08-26T13:05:31.317Z</time>
      </trkpt>
      <trkpt lat="43.70106" lon="3.80956">
        <ele>122.26</ele>
        <time>2024-08-26T13:05:41.680Z</time>
      </trkpt>
      <trkpt lat="43.70118" lon="3.80953">
        <ele>122.47</ele>
        <time>2024-08-26T13:05:52.045Z</time>
      </trkpt>
      <trkpt lat="43.70127" lon="3.80947">
        <ele>122.71</ele>
        <time>2024-08-26T13:06:02.412Z</time>
      </trkpt>
      <trkpt lat="43.70135" lon="3.80939">
        <ele>122.97</ele>
        <time>2024-08-26T13:06:12.780Z</time>
      </trkpt>
      <trkpt lat="43.70136" lon="3.80934">
        <ele>123.23</ele>
        <time>2024-08-26T13:06:23.149Z</time>
      </trkpt>
      <trkpt lat="43.70138" lon="3.80925">
        <ele>123.5</ele>
        <time>2024-08-26T13:06:33.519Z</time>
      </trkpt>
      <trkpt lat="43.70131" lon="3.80917">
        <ele>123.8</ele>
        <time>2024-08-26T13:06:43.890Z</time>
      </trkpt>
      <trkpt lat="43.70125" lon="3.80907">
        <ele>124.12</ele>
        <time>2024-08-26T13:06:54.263Z</time>
      </trkpt>
      <trkpt lat="43.70118" lon="3.80906">
        <ele>124.33</ele>
        <time>2024-08-26T13:07:04.637Z</time>
      </trkpt>
      <trkpt lat="43.70115" lon="3.80907">
        <ele>124.48</ele>
        <time>2024-08-26T13:07:15.011Z</time>
      </trkpt>
      <trkpt lat="43.70107" lon="3.80906">
        <ele>124.57</ele>
        <time>2024-08-26T13:07:25.387Z</time>
      </trkpt>
      <trkpt lat="43.70096" lon="3.80897">
        <ele>124.66</ele>
        <time>2024-08-26T13:07:35.765Z</time>
      </trkpt>
      <trkpt lat="43.70011" lon="3.80854">
        <ele>124.89</ele>
        <time>2024-08-26T13:07:46.157Z</time>
      </trkpt>
      <trkpt lat="43.69992" lon="3.80845">
        <ele>124.98</ele>
        <time>2024-08-26T13:07:56.552Z</time>
      </trkpt>
      <trkpt lat="43.69964" lon="3.80824">
        <ele>124.98</ele>
        <time>2024-08-26T13:08:06.952Z</time>
      </trkpt>
      <trkpt lat="43.69964" lon="3.80824">
        <ele>124.94</ele>
        <time>2024-08-26T13:08:17.352Z</time>
      </trkpt>
      <trkpt lat="43.69913" lon="3.80795">
        <ele>124.67</ele>
        <time>2024-08-26T13:08:27.761Z</time>
      </trkpt>
      <trkpt lat="43.69872" lon="3.80759">
        <ele>124.24</ele>
        <time>2024-08-26T13:08:38.178Z</time>
      </trkpt>
      <trkpt lat="43.6986" lon="3.80744">
        <ele>124.03</ele>
        <time>2024-08-26T13:08:48.598Z</time>
      </trkpt>
      <trkpt lat="43.69759" lon="3.80634">
        <ele>124.11</ele>
        <time>2024-08-26T13:08:59.038Z</time>
      </trkpt>
      <trkpt lat="43.69747" lon="3.80626">
        <ele>124.12</ele>
        <time>2024-08-26T13:09:09.481Z</time>
      </trkpt>
      <trkpt lat="43.69711" lon="3.80612">
        <ele>124.12</ele>
        <time>2024-08-26T13:09:19.929Z</time>
      </trkpt>
      <trkpt lat="43.697" lon="3.80604">
        <ele>124.1</ele>
        <time>2024-08-26T13:09:30.379Z</time>
      </trkpt>
      <trkpt lat="43.69694" lon="3.80592">
        <ele>124.1</ele>
        <time>2024-08-26T13:09:40.831Z</time>
      </trkpt>
      <trkpt lat="43.69694" lon="3.80585">
        <ele>124.08</ele>
        <time>2024-08-26T13:09:51.284Z</time>
      </trkpt>
      <trkpt lat="43.69692" lon="3.80578">
        <ele>124.04</ele>
        <time>2024-08-26T13:10:01.738Z</time>
      </trkpt>
      <trkpt lat="43.69683" lon="3.80572">
        <ele>123.94</ele>
        <time>2024-08-26T13:10:12.193Z</time>
      </trkpt>
      <trkpt lat="43.69679" lon="3.80574">
        <ele>123.78</ele>
        <time>2024-08-26T13:10:22.649Z</time>
      </trkpt>
      <trkpt lat="43.69675" lon="3.80579">
        <ele>123.56</ele>
        <time>2024-08-26T13:10:33.106Z</time>
      </trkpt>
      <trkpt lat="43.69663" lon="3.80588">
        <ele>123.26</ele>
        <time>2024-08-26T13:10:43.565Z</time>
      </trkpt>
      <trkpt lat="43.69653" lon="3.80589">
        <ele>122.92</ele>
        <time>2024-08-26T13:10:54.026Z</time>
      </trkpt>
      <trkpt lat="43.6964" lon="3.80587">
        <ele>122.54</ele>
        <time>2024-08-26T13:11:04.489Z</time>
      </trkpt>
      <trkpt lat="43.69636" lon="3.80589">
        <ele>122.11</ele>
        <time>2024-08-26T13:11:14.952Z</time>
      </trkpt>
      <trkpt lat="43.69634" lon="3.80595">
        <ele>121.63</ele>
        <time>2024-08-26T13:11:25.416Z</time>
      </trkpt>
      <trkpt lat="43.69633" lon="3.80599">
        <ele>121.09</ele>
        <time>2024-08-26T13:11:35.881Z</time>
      </trkpt>
      <trkpt lat="43.69633" lon="3.80607">
        <ele>120.49</ele>
        <time>2024-08-26T13:11:46.347Z</time>
      </trkpt>
      <trkpt lat="43.69624" lon="3.80623">
        <ele>119.78</ele>
        <time>2024-08-26T13:11:56.815Z</time>
      </trkpt>
      <trkpt lat="43.69618" lon="3.80629">
        <ele>119.07</ele>
        <time>2024-08-26T13:12:07.284Z</time>
      </trkpt>
      <trkpt lat="43.69602" lon="3.80637">
        <ele>118.29</ele>
        <time>2024-08-26T13:12:17.756Z</time>
      </trkpt>
      <trkpt lat="43.69572" lon="3.80646">
        <ele>117.4</ele>
        <time>2024-08-26T13:12:28.233Z</time>
      </trkpt>
      <trkpt lat="43.69572" lon="3.80646">
        <ele>116.74</ele>
        <time>2024-08-26T13:12:38.710Z</time>
      </trkpt>
      <trkpt lat="43.69535" lon="3.80658">
        <ele>115.89</ele>
        <time>2024-08-26T13:12:49.193Z</time>
      </trkpt>
      <trkpt lat="43.69478" lon="3.80668">
        <ele>115.36</ele>
        <time>2024-08-26T13:12:59.685Z</time>
      </trkpt>
      <trkpt lat="43.69416" lon="3.80674">
        <ele>112.5</ele>
      </trkpt>
      <trkpt lat="43.69353" lon="3.80569">
        <ele>115.3</ele>
      </trkpt>
      <trkpt lat="43.69302" lon="3.80575">
        <ele>116.2</ele>
      </trkpt>
      <trkpt lat="43.69291" lon="3.80511">
        <ele>117.6</ele>
      </trkpt>
    </trkseg>
  </trk>
</gpx>